FR2155 / EI-DYX 7700 Squawk Report (11th of January, 2022)

Aircraft B738 Reg No. EI-DYX Age 13 years old
Model 737 Jet engines 2 First flight 15-12-08
Registered 05-01-09 Rollout 30-11-08 Delivered 16-01-09
Construction No. 37517 Line No. 2754 Series 8AS
ADSHEX 4CA6FB Airline name Ryanair Owner N/A
Airfield based Dublin~Co Dublin~EI First tracked N/A

Flight history for EI-DYX

Route Flight No Date Playback
Treviso (TSF) - Sevilla (SVQ) FR6856 2022-01-20 11:40:00
Sevilla (SVQ) - Treviso (TSF) FR6855 2022-01-20 08:32:00
Barcelona–El Prat (BCN) - Sevilla (SVQ) FR6398 2022-01-20 05:56:00
Sevilla (SVQ) - Barcelona–El Prat (BCN) FR6399 2022-01-19 19:51:00
Son Sant Joan (PMI) - Sevilla (SVQ) FR5273 2022-01-19 17:48:00
Sevilla (SVQ) - Son Sant Joan (PMI) FR5272 2022-01-19 15:31:00
Barcelona–El Prat (BCN) - Sevilla (SVQ) FR6396 2022-01-19 14:09:00
Sevilla (SVQ) - Barcelona–El Prat (BCN) FR6397 2022-01-19 07:35:00
Edinburgh (EDI) - Sevilla (SVQ) FR6760 2022-01-18 19:58:00
Dublin (DUB) - Edinburgh (EDI) FR812 2022-01-18 16:57:00
EuroAirport Basel Mulhouse Freiburg (BSL) - Dublin (DUB) FR7357 2022-01-18 06:25:00
Dublin (DUB) - EuroAirport Basel Mulhouse Freiburg (BSL) FR7356 2022-01-17 16:33:00
Kerry (KIR) - Dublin (DUB) FR6678 2022-01-17 10:29:00
Schwechat (VIE) - Sevilla (SVQ) FR7336 2022-01-17 09:49:00
Barajas (MAD) - Dublin (DUB) FR7157 2022-01-17 08:31:00
Eindhoven (EIN) - Barajas (MAD) FR3067 2022-01-16 20:41:00
Barajas (MAD) - Eindhoven (EIN) FR3066 2022-01-16 15:37:00
Arrecife Airport (ACE) - Barajas (MAD) FR2018 2022-01-16 13:35:00
Barajas (MAD) - Arrecife Airport (ACE) FR2017 2022-01-16 09:35:00
Arrecife Airport (ACE) - Barajas (MAD) FR2016 2022-01-14 21:03:00
Time Lat Lon Altitude Heading Speed Vertical Rate
2022-01-11 19:22:43 GMT 52.439484 -1.732025 -50 326 134 -704
2022-01-11 19:22:40 GMT 52.437790 -1.730118 -25 326 134 -704
2022-01-11 19:22:36 GMT 52.435684 -1.727829 25 326 133 -832
2022-01-11 19:22:30 GMT 52.433075 -1.724854 100 326 132 -896
2022-01-11 19:22:25 GMT 52.430511 -1.722031 200 326 130 -704
2022-01-11 19:22:20 GMT 52.428062 -1.719282 225 326 130 -704
2022-01-11 19:22:16 GMT 52.425407 -1.716300 300 326 130 -704
2022-01-11 19:22:11 GMT 52.423080 -1.713789 350 326 130 -704
2022-01-11 19:22:05 GMT 52.420578 -1.711044 400 326 130 -704
2022-01-11 19:22:00 GMT 52.417923 -1.708145 450 326 130 -704
2022-01-11 19:21:55 GMT 52.415447 -1.705314 525 326 130 -704
2022-01-11 19:21:50 GMT 52.412884 -1.702488 575 326 130 -704
2022-01-11 19:21:46 GMT 52.410690 -1.700058 625 326 130 -704
2022-01-11 19:21:43 GMT 52.409409 -1.698532 700 326 130 -768
2022-01-11 19:21:40 GMT 52.407898 -1.696930 700 326 130 -768
2022-01-11 19:21:36 GMT 52.406136 -1.694955 750 326 130 -704
2022-01-11 19:21:33 GMT 52.404644 -1.693307 775 326 130 -704
2022-01-11 19:21:30 GMT 52.402969 -1.691502 825 327 129 -704
2022-01-11 19:21:27 GMT 52.401260 -1.689606 875 327 129 -704
2022-01-11 19:21:24 GMT 52.399750 -1.687927 900 326 130 -704
2022-01-11 19:21:20 GMT 52.397781 -1.685791 950 326 130 -768
2022-01-11 19:21:17 GMT 52.394497 -1.682164 1,000 326 130 -768
2022-01-11 19:21:13 GMT 52.394497 -1.682164 1,025 326 130 -704
2022-01-11 19:21:10 GMT 52.392914 -1.680437 1,075 326 130 -704
2022-01-11 19:21:06 GMT 52.391193 -1.678476 1,125 326 131 -704
2022-01-11 19:21:03 GMT 52.389469 -1.676514 1,125 326 131 -704
2022-01-11 19:21:00 GMT 52.387840 -1.674709 1,200 327 132 -768
2022-01-11 19:20:57 GMT 52.385651 -1.672287 1,250 326 133 -704
2022-01-11 19:20:54 GMT 52.385139 -1.671727 1,325 326 136 -704
2022-01-11 19:20:50 GMT 52.382584 -1.668930 1,325 326 136 -704
2022-01-11 19:20:45 GMT 52.380020 -1.666077 1,400 326 138 -768
2022-01-11 19:20:42 GMT 52.378326 -1.664200 1,425 326 142 -832
2022-01-11 19:20:39 GMT 52.377182 -1.662979 1,450 326 142 -896
2022-01-11 19:20:35 GMT 52.374432 -1.659956 1,525 326 146 -640
2022-01-11 19:20:32 GMT 52.372990 -1.658308 1,550 326 147 -640
2022-01-11 19:20:29 GMT 52.371498 -1.656660 1,575 326 149 -768
2022-01-11 19:20:25 GMT 52.368484 -1.653366 1,675 326 156 -896
2022-01-11 19:20:21 GMT 52.366928 -1.651535 1,700 326 156 -896
2022-01-11 19:20:19 GMT 52.365097 -1.649551 2,075 326 170 -960
2022-01-11 19:20:14 GMT 52.362488 -1.646652 1,800 327 162 -960
2022-01-11 19:20:10 GMT 52.359421 -1.643219 1,875 326 167 -832
2022-01-11 19:20:06 GMT 52.357315 -1.640930 1,925 326 169 -960
2022-01-11 19:20:03 GMT 52.354660 -1.637955 2,025 326 170 -1024
2022-01-11 19:20:00 GMT 52.352966 -1.636124 2,025 326 170 -960
2022-01-11 19:19:57 GMT 52.351364 -1.634293 2,100 326 171 -832
2022-01-11 19:19:54 GMT 52.349304 -1.632004 2,125 326 171 -832
2022-01-11 19:19:51 GMT 52.347992 -1.630528 2,150 326 171 -960
2022-01-11 19:19:49 GMT 52.346130 -1.628488 2,200 326 172 -1024
2022-01-11 19:19:46 GMT 52.344177 -1.626282 2,275 326 173 -1024
2022-01-11 19:19:43 GMT 52.342346 -1.624222 2,350 326 173 -1024
2022-01-11 19:19:39 GMT 52.339520 -1.621111 2,375 326 173 -960
2022-01-11 19:19:35 GMT 52.336910 -1.618129 2,425 326 174 -896
2022-01-11 19:19:32 GMT 52.334679 -1.615618 2,475 326 175 -960
2022-01-11 19:19:29 GMT 52.332954 -1.613656 2,525 326 176 -960
2022-01-11 19:19:25 GMT 52.330303 -1.610753 2,600 327 177 -1024
2022-01-11 19:19:22 GMT 52.328247 -1.608429 2,650 327 177 -960
2022-01-11 19:19:20 GMT 52.326672 -1.606750 2,675 327 177 -960
2022-01-11 19:19:17 GMT 52.322155 -1.601964 2,725 328 178 -1024
2022-01-11 19:19:14 GMT 52.322155 -1.601964 2,775 329 179 -1088
2022-01-11 19:19:11 GMT 52.320053 -1.599884 2,850 330 179 -1152
2022-01-11 19:19:08 GMT 52.318523 -1.598432 2,875 330 179 -1152
2022-01-11 19:19:05 GMT 52.316105 -1.596078 2,950 331 178 -1088
2022-01-11 19:19:02 GMT 52.314102 -1.594238 3,125 331 181 -832
2022-01-11 19:18:58 GMT 52.311123 -1.591448 3,075 330 180 -960
2022-01-11 19:18:54 GMT 52.308838 -1.589203 3,100 331 180 -896
2022-01-11 19:18:51 GMT 52.305771 -1.586456 3,150 333 183 -704
2022-01-11 19:18:48 GMT 52.304306 -1.585159 3,200 334 183 -640
2022-01-11 19:18:45 GMT 52.301193 -1.582642 3,225 336 186 -512
2022-01-11 19:18:42 GMT 52.299545 -1.581421 3,250 338 188 -512
2022-01-11 19:18:41 GMT 52.298832 -1.580933 3,250 339 188 -512
2022-01-11 19:18:39 GMT 52.297062 -1.579834 3,250 340 190 -448
2022-01-11 19:18:38 GMT 52.296181 -1.579206 3,275 341 191 -448
2022-01-11 19:18:37 GMT 52.295296 -1.578735 3,275 342 191 -512
2022-01-11 19:18:35 GMT 52.293549 -1.577835 3,325 347 194 -640
2022-01-11 19:18:32 GMT 52.291031 -1.576691 3,350 348 196 -768
2022-01-11 19:18:29 GMT 52.287891 -1.575518 3,425 349 198 -1088
2022-01-11 19:18:26 GMT 52.285721 -1.574860 3,425 349 198 -1088
2022-01-11 19:18:25 GMT 52.283981 -1.574262 3,450 350 199 -1024
2022-01-11 19:18:23 GMT 52.282974 -1.573944 3,475 350 199 -1024
2022-01-11 19:18:22 GMT 52.282013 -1.573639 3,500 350 199 -960
2022-01-11 19:18:21 GMT 52.279697 -1.572928 3,525 350 200 -832
2022-01-11 19:18:19 GMT 52.279697 -1.572928 3,525 350 201 -832
2022-01-11 19:18:18 GMT 52.278763 -1.572647 3,550 349 201 -832
2022-01-11 19:18:16 GMT 52.276859 -1.572065 3,575 349 202 -960
2022-01-11 19:18:14 GMT 52.275089 -1.571516 3,600 349 203 -1088
2022-01-11 19:18:12 GMT 52.273178 -1.570892 3,650 349 203 -1152
2022-01-11 19:18:10 GMT 52.268738 -1.569443 3,725 349 204 -896
2022-01-11 19:18:07 GMT 52.268372 -1.569290 3,725 349 205 -640
2022-01-11 19:18:04 GMT 52.264942 -1.568220 3,775 349 208 -256
2022-01-11 19:18:01 GMT 52.258842 -1.566258 3,775 349 211 -192
2022-01-11 19:17:57 GMT 52.255817 -1.565238 4,225 349 214 -192
2022-01-11 19:17:54 GMT 52.255817 -1.565238 3,800 349 217 -448
2022-01-11 19:17:51 GMT 52.250324 -1.563511 3,825 349 218 -512
2022-01-11 19:17:49 GMT 52.250324 -1.563511 3,850 349 220 -448
2022-01-11 19:17:46 GMT 52.248459 -1.562881 3,850 349 220 -448
2022-01-11 19:17:45 GMT 52.247086 -1.562424 3,875 349 221 -512
2022-01-11 19:17:43 GMT 52.245071 -1.561813 3,875 349 221 -512
2022-01-11 19:17:42 GMT 52.243973 -1.561432 3,900 349 222 -512
2022-01-11 19:17:40 GMT 52.242317 -1.560922 3,900 349 224 -512
2022-01-11 19:17:38 GMT 52.239532 -1.559982 3,950 349 225 -512
2022-01-11 19:17:35 GMT 52.237335 -1.559296 3,950 349 225 -512
2022-01-11 19:17:34 GMT 52.234917 -1.558489 3,950 349 226 -512
2022-01-11 19:17:33 GMT 52.234917 -1.558489 3,975 349 227 -512
2022-01-11 19:17:31 GMT 52.230911 -1.557234 4,025 349 230 -512
2022-01-11 19:17:29 GMT 52.230911 -1.557234 4,025 349 230 -512
2022-01-11 19:17:27 GMT 52.228680 -1.556527 4,025 349 230 -512
2022-01-11 19:17:26 GMT 52.227585 -1.556168 4,025 349 230 -512
2022-01-11 19:17:25 GMT 52.226582 -1.555821 4,025 350 231 -576
2022-01-11 19:17:23 GMT 52.220215 -1.553879 4,075 350 232 -640
2022-01-11 19:17:19 GMT 52.220215 -1.553879 4,125 350 235 -640
2022-01-11 19:17:16 GMT 52.216900 -1.552839 4,125 350 235 -640
2022-01-11 19:17:13 GMT 52.214619 -1.552133 4,150 350 236 -640
2022-01-11 19:17:12 GMT 52.213501 -1.551740 4,175 350 236 -640
2022-01-11 19:17:11 GMT 52.211735 -1.551191 4,175 350 237 -640
2022-01-11 19:17:10 GMT 52.210850 -1.550956 4,200 350 238 -640
2022-01-11 19:17:08 GMT 52.205494 -1.549308 4,225 350 239 -640
2022-01-11 19:17:05 GMT 52.205494 -1.549308 4,250 350 240 -704
2022-01-11 19:17:04 GMT 52.203827 -1.548843 4,275 350 241 -704
2022-01-11 19:17:02 GMT 52.202099 -1.548288 4,275 350 242 -704
2022-01-11 19:17:01 GMT 52.200989 -1.547928 4,300 350 242 -704
2022-01-11 19:16:59 GMT 52.198746 -1.547241 4,325 350 242 -704
2022-01-11 19:16:57 GMT 52.196556 -1.546640 4,350 350 244 -704
2022-01-11 19:16:56 GMT 52.195404 -1.546249 4,350 350 244 -704
2022-01-11 19:16:54 GMT 52.193020 -1.545541 4,375 350 246 -640
2022-01-11 19:16:53 GMT 52.191902 -1.545227 4,400 350 246 -640
2022-01-11 19:16:52 GMT 52.190926 -1.544913 4,400 350 247 -640
2022-01-11 19:16:51 GMT 52.188599 -1.544207 4,425 350 248 -640
2022-01-11 19:16:49 GMT 52.187572 -1.543893 4,425 350 248 -640
2022-01-11 19:16:48 GMT 52.186432 -1.543579 4,450 350 249 -640
2022-01-11 19:16:46 GMT 52.184082 -1.542873 4,475 350 250 -896
2022-01-11 19:16:45 GMT 52.182964 -1.542559 4,475 350 250 -1024
2022-01-11 19:16:44 GMT 52.181801 -1.542167 4,500 350 250 -1152
2022-01-11 19:16:42 GMT 52.179424 -1.541460 4,550 350 251 -1344
2022-01-11 19:16:41 GMT 52.178261 -1.541146 4,575 350 251 -1344
2022-01-11 19:16:39 GMT 52.175842 -1.540440 4,625 350 252 -1472
2022-01-11 19:16:38 GMT 52.173477 -1.539764 4,675 350 253 -1472
2022-01-11 19:16:35 GMT 52.171654 -1.539185 4,700 350 253 -1472
2022-01-11 19:16:33 GMT 52.169231 -1.538478 4,750 350 253 -1472
2022-01-11 19:16:32 GMT 52.168213 -1.538162 4,775 350 253 -1472
2022-01-11 19:16:31 GMT 52.166565 -1.537628 4,800 350 254 -1472
2022-01-11 19:16:29 GMT 52.164249 -1.536987 4,850 350 254 -1472
2022-01-11 19:16:28 GMT 52.163269 -1.536636 4,875 350 254 -1472
2022-01-11 19:16:27 GMT 52.162201 -1.536281 4,900 350 254 -1472
2022-01-11 19:16:25 GMT 52.160019 -1.535645 4,950 349 255 -1472
2022-01-11 19:16:23 GMT 52.157780 -1.534947 4,975 349 255 -1472
2022-01-11 19:16:21 GMT 52.155590 -1.534241 5,075 349 256 -1408
2022-01-11 19:16:19 GMT 52.153198 -1.533508 5,075 350 257 -1472
2022-01-11 19:16:18 GMT 52.150818 -1.532745 5,125 349 257 -1472
2022-01-11 19:16:15 GMT 52.147957 -1.531808 5,175 349 257 -1536
2022-01-11 19:16:14 GMT 52.147305 -1.531573 5,225 349 258 -1536
2022-01-11 19:16:13 GMT 52.146095 -1.531180 5,250 349 259 -1600
2022-01-11 19:16:12 GMT 52.144745 -1.530788 5,275 349 259 -1600
2022-01-11 19:16:10 GMT 52.142395 -1.529999 5,325 349 260 -1664
2022-01-11 19:16:09 GMT 52.141113 -1.529611 5,350 349 260 -1664
2022-01-11 19:16:08 GMT 52.138824 -1.528854 5,400 349 260 -1728
2022-01-11 19:16:06 GMT 52.137726 -1.528473 5,425 349 260 -1792
2022-01-11 19:16:05 GMT 52.136459 -1.528041 5,475 349 260 -1792
2022-01-11 19:16:03 GMT 52.133804 -1.527178 5,550 349 260 -1920
2022-01-11 19:16:02 GMT 52.132641 -1.526786 5,575 349 260 -1920
2022-01-11 19:16:00 GMT 52.129349 -1.525726 5,650 349 260 -1920
2022-01-11 19:15:59 GMT 52.129349 -1.525726 5,650 349 260 -1984
2022-01-11 19:15:58 GMT 52.126961 -1.524902 5,725 349 260 -1984
2022-01-11 19:15:56 GMT 52.125797 -1.524510 5,750 349 260 -1984
2022-01-11 19:15:54 GMT 52.122166 -1.523333 5,875 349 260 -2048
2022-01-11 19:15:52 GMT 52.121143 -1.523019 5,900 349 260 -2048
2022-01-11 19:15:51 GMT 52.120056 -1.522675 5,925 349 259 -2048
2022-01-11 19:15:50 GMT 52.117279 -1.521763 6,000 349 258 -2048
2022-01-11 19:15:48 GMT 52.116577 -1.521530 6,025 349 258 -2048
2022-01-11 19:15:47 GMT 52.115372 -1.521136 6,075 349 258 -2048
2022-01-11 19:15:45 GMT 52.111740 -1.520037 6,150 349 257 -2112
2022-01-11 19:15:44 GMT 52.111740 -1.520037 6,175 349 257 -2112
2022-01-11 19:15:43 GMT 52.110489 -1.519623 6,200 349 257 -2112
2022-01-11 19:15:41 GMT 52.108109 -1.518860 6,275 349 257 -2112
2022-01-11 19:15:40 GMT 52.107010 -1.518478 6,300 349 256 -2112
2022-01-11 19:15:39 GMT 52.105820 -1.518097 6,350 349 256 -2048
2022-01-11 19:15:38 GMT 52.104630 -1.517715 6,375 349 256 -2048
2022-01-11 19:15:36 GMT 52.102287 -1.516976 6,450 349 256 -2048
2022-01-11 19:15:34 GMT 52.099686 -1.516190 6,525 349 256 -1984
2022-01-11 19:15:33 GMT 52.096470 -1.515172 6,600 349 256 -1920
2022-01-11 19:15:31 GMT 52.096470 -1.515172 6,625 349 256 -1856
2022-01-11 19:15:30 GMT 52.095200 -1.514740 6,650 349 256 -1728
2022-01-11 19:15:28 GMT 52.092697 -1.513994 6,725 349 256 -1728
2022-01-11 19:15:27 GMT 52.091675 -1.513596 6,750 349 256 -1664
2022-01-11 19:15:26 GMT 52.090511 -1.513288 6,775 349 256 -1664
2022-01-11 19:15:25 GMT 52.089302 -1.512896 6,800 349 256 -1600
2022-01-11 19:15:24 GMT 52.086960 -1.512070 6,850 349 257 -1600
2022-01-11 19:15:22 GMT 52.085949 -1.511797 6,875 349 257 -1600
2022-01-11 19:15:21 GMT 52.084625 -1.511383 6,900 350 257 -1600
2022-01-11 19:15:19 GMT 52.082363 -1.510620 6,950 350 258 -1600
2022-01-11 19:15:18 GMT 52.081341 -1.510306 6,975 350 258 -1536
2022-01-11 19:15:17 GMT 52.078995 -1.509628 7,025 350 259 -1408
2022-01-11 19:15:15 GMT 52.077850 -1.509247 7,050 350 259 -1472
2022-01-11 19:15:14 GMT 52.076546 -1.508894 7,100 350 259 -1408
2022-01-11 19:15:13 GMT 52.074169 -1.508187 7,125 350 260 -1344
2022-01-11 19:15:11 GMT 52.072914 -1.507795 7,150 350 260 -1344
2022-01-11 19:15:10 GMT 52.071671 -1.507492 7,175 351 260 -1344
2022-01-11 19:15:08 GMT 52.069290 -1.506805 7,225 351 261 -1408
2022-01-11 19:15:07 GMT 52.068027 -1.506461 7,250 351 261 -1408
2022-01-11 19:15:06 GMT 52.066864 -1.506119 7,275 351 262 -1408
2022-01-11 19:15:04 GMT 52.064392 -1.505432 7,325 351 263 -1344
2022-01-11 19:15:02 GMT 52.062241 -1.504745 7,350 351 263 -1280
2022-01-11 19:15:01 GMT 52.061005 -1.504440 7,375 351 265 -1216
2022-01-11 19:14:59 GMT 52.058487 -1.503677 7,425 351 265 -1280
2022-01-11 19:14:58 GMT 52.057365 -1.503401 7,450 351 265 -1280
2022-01-11 19:14:57 GMT 52.056248 -1.503087 7,450 351 266 -1280
2022-01-11 19:14:56 GMT 52.052200 -1.501988 7,525 351 266 -1344
2022-01-11 19:14:54 GMT 52.052200 -1.501988 7,525 351 267 -1344
2022-01-11 19:14:53 GMT 52.049744 -1.501236 7,550 351 268 -1344
2022-01-11 19:14:50 GMT 52.047363 -1.500626 7,600 351 268 -1344
2022-01-11 19:14:49 GMT 52.046703 -1.500419 7,650 351 269 -1344
2022-01-11 19:14:48 GMT 52.045303 -1.500015 7,650 351 270 -1280
2022-01-11 19:14:47 GMT 52.043976 -1.499634 7,675 351 270 -1280
2022-01-11 19:14:45 GMT 52.041458 -1.498947 7,725 351 271 -1216
2022-01-11 19:14:44 GMT 52.040279 -1.498614 7,750 351 271 -1216
2022-01-11 19:14:43 GMT 52.037674 -1.497907 7,775 351 272 -1216
2022-01-11 19:14:41 GMT 52.036415 -1.497593 7,800 351 274 -1280
2022-01-11 19:14:40 GMT 52.035278 -1.497269 7,825 351 274 -1280
2022-01-11 19:14:38 GMT 52.032555 -1.496573 7,875 351 275 -1280
2022-01-11 19:14:37 GMT 52.031433 -1.496277 7,875 351 276 -1280
2022-01-11 19:14:36 GMT 52.030289 -1.495972 7,900 351 277 -1280
2022-01-11 19:14:33 GMT 52.026455 -1.495004 7,975 352 278 -1472
2022-01-11 19:14:32 GMT 52.025150 -1.494611 8,000 352 278 -1472
2022-01-11 19:14:30 GMT 52.022732 -1.493984 8,050 352 279 -1408
2022-01-11 19:14:29 GMT 52.021427 -1.493670 8,075 352 280 -1280
2022-01-11 19:14:28 GMT 52.018753 -1.492996 8,125 352 281 -1024
2022-01-11 19:14:26 GMT 52.017334 -1.492691 8,125 352 281 -1024
2022-01-11 19:14:25 GMT 52.016052 -1.492386 8,150 352 281 -1024
2022-01-11 19:14:24 GMT 52.013489 -1.491699 8,175 352 283 -1024
2022-01-11 19:14:22 GMT 52.012207 -1.491394 8,200 352 283 -1024
2022-01-11 19:14:20 GMT 52.009506 -1.490784 8,250 352 284 -1088
2022-01-11 19:14:19 GMT 52.008251 -1.490452 8,250 352 284 -1152
2022-01-11 19:14:17 GMT 52.005600 -1.489825 8,300 352 285 -1344
2022-01-11 19:14:16 GMT 52.004436 -1.489511 8,325 352 285 -1472
2022-01-11 19:14:15 GMT 52.001736 -1.488883 8,375 352 285 -1728
2022-01-11 19:14:13 GMT 52.000397 -1.488571 8,400 352 285 -1856
2022-01-11 19:14:11 GMT 51.998245 -1.488020 8,450 352 285 -1920
2022-01-11 19:14:08 GMT 51.993942 -1.486969 8,550 351 284 -1600
2022-01-11 19:14:07 GMT 51.991562 -1.486359 8,600 349 283 -1536
2022-01-11 19:14:05 GMT 51.990051 -1.485901 8,650 349 283 -1536
2022-01-11 19:14:03 GMT 51.986618 -1.484833 8,700 347 283 -1600
2022-01-11 19:14:01 GMT 51.985119 -1.484331 8,750 347 283 -1600
2022-01-11 19:13:59 GMT 51.981487 -1.482840 8,825 344 282 -1600
2022-01-11 19:13:57 GMT 51.979671 -1.482056 8,850 344 283 -1536
2022-01-11 19:13:56 GMT 51.978424 -1.481476 8,875 344 283 -1536
2022-01-11 19:13:54 GMT 51.976040 -1.480329 8,900 344 283 -1536
2022-01-11 19:13:53 GMT 51.974716 -1.479721 8,950 344 283 -1600
2022-01-11 19:13:52 GMT 51.973480 -1.479152 8,975 344 283 -1600
2022-01-11 19:13:51 GMT 51.972267 -1.478524 9,000 344 283 -1600
2022-01-11 19:13:49 GMT 51.969818 -1.477356 9,050 344 283 -1536
2022-01-11 19:13:48 GMT 51.968536 -1.476746 9,100 344 283 -1536
2022-01-11 19:13:47 GMT 51.967117 -1.476135 9,125 344 284 -1472
2022-01-11 19:13:45 GMT 51.962444 -1.473894 9,200 344 284 -1408
2022-01-11 19:13:43 GMT 51.962444 -1.473894 9,200 344 285 -1408
2022-01-11 19:13:42 GMT 51.961029 -1.473236 9,275 344 285 -1408
2022-01-11 19:13:40 GMT 51.958420 -1.471939 9,275 344 285 -1472
2022-01-11 19:13:38 GMT 51.956039 -1.470795 9,325 344 285 -1600
2022-01-11 19:13:36 GMT 51.950714 -1.468244 9,425 344 285 -1920
2022-01-11 19:13:34 GMT 51.950714 -1.468244 9,450 344 285 -1984
2022-01-11 19:13:32 GMT 51.948479 -1.467224 9,500 344 284 -2176
2022-01-11 19:13:31 GMT 51.946667 -1.466282 9,575 344 283 -2560
2022-01-11 19:13:29 GMT 51.944336 -1.465184 9,650 344 281 -2432
2022-01-11 19:13:28 GMT 51.941872 -1.464007 9,750 344 281 -2432
2022-01-11 19:13:26 GMT 51.940567 -1.463379 9,775 344 281 -2240
2022-01-11 19:13:24 GMT 51.937958 -1.462202 9,875 344 281 -1856
2022-01-11 19:13:23 GMT 51.936768 -1.461563 9,875 344 282 -1664
2022-01-11 19:13:21 GMT 51.934280 -1.460397 9,925 344 282 -1280
2022-01-11 19:13:20 GMT 51.933014 -1.459808 9,950 344 283 -960
2022-01-11 19:13:19 GMT 51.930450 -1.458588 9,975 344 283 -704
2022-01-11 19:13:17 GMT 51.929718 -1.458206 9,975 344 285 -384
2022-01-11 19:13:16 GMT 51.928482 -1.457672 9,975 344 286 -192
2022-01-11 19:13:15 GMT 51.927155 -1.456985 9,975 344 287 -64
2022-01-11 19:13:13 GMT 51.924683 -1.455841 9,975 344 290 0
2022-01-11 19:13:12 GMT 51.923401 -1.455231 9,975 344 291 -64
2022-01-11 19:13:11 GMT 51.921890 -1.454468 9,975 344 292 -64
2022-01-11 19:13:09 GMT 51.919098 -1.453171 9,975 344 294 -128
2022-01-11 19:13:08 GMT 51.917908 -1.452560 9,975 344 295 -192
2022-01-11 19:13:07 GMT 51.915382 -1.451372 10,000 344 297 -320
2022-01-11 19:13:04 GMT 51.912682 -1.450038 10,000 344 299 -576
2022-01-11 19:13:02 GMT 51.910259 -1.448861 10,025 344 301 -640
2022-01-11 19:13:00 GMT 51.907467 -1.447527 10,050 344 302 -832
2022-01-11 19:12:59 GMT 51.904861 -1.446304 10,075 344 303 -1088
2022-01-11 19:12:57 GMT 51.903511 -1.445644 10,100 344 303 -1216
2022-01-11 19:12:56 GMT 51.902069 -1.444938 10,125 344 304 -1344
2022-01-11 19:12:54 GMT 51.899506 -1.443682 10,175 344 304 -1600
2022-01-11 19:12:53 GMT 51.898041 -1.443024 10,200 344 305 -1728
2022-01-11 19:12:51 GMT 51.895504 -1.441799 10,250 344 305 -1728
2022-01-11 19:12:50 GMT 51.893555 -1.440887 10,300 344 306 -1728
2022-01-11 19:12:49 GMT 51.890854 -1.439654 10,350 344 306 -1728
2022-01-11 19:12:47 GMT 51.889545 -1.438980 10,375 344 306 -1728
2022-01-11 19:12:46 GMT 51.888149 -1.438293 10,400 344 306 -1792
2022-01-11 19:12:43 GMT 51.885178 -1.436908 10,450 344 307 -1792
2022-01-11 19:12:42 GMT 51.883804 -1.436240 10,500 344 307 -1792
2022-01-11 19:12:41 GMT 51.882248 -1.435497 10,550 344 307 -1728
2022-01-11 19:12:39 GMT 51.880325 -1.434607 10,575 344 308 -1792
2022-01-11 19:12:38 GMT 51.879089 -1.434013 10,600 344 308 -1728
2022-01-11 19:12:37 GMT 51.876297 -1.432751 10,650 344 309 -1728
2022-01-11 19:12:35 GMT 51.875015 -1.432157 10,725 344 309 -1728
2022-01-11 19:12:34 GMT 51.873093 -1.431192 10,725 344 309 -1728
2022-01-11 19:12:33 GMT 51.871716 -1.430588 10,750 344 309 -1728
2022-01-11 19:12:31 GMT 51.869019 -1.429262 10,825 344 309 -1728
2022-01-11 19:12:30 GMT 51.867783 -1.428668 10,875 344 310 -1728
2022-01-11 19:12:29 GMT 51.866364 -1.427994 10,925 344 310 -1728
2022-01-11 19:12:27 GMT 51.863480 -1.426664 10,975 344 310 -1728
2022-01-11 19:12:26 GMT 51.862015 -1.425996 11,000 344 311 -1728
2022-01-11 19:12:24 GMT 51.857620 -1.423843 11,075 344 311 -1664
2022-01-11 19:12:21 GMT 51.854965 -1.422581 11,150 344 312 -1728
2022-01-11 19:12:19 GMT 51.852631 -1.421468 11,175 344 312 -1728
2022-01-11 19:12:18 GMT 51.851093 -1.420746 11,200 344 312 -1728
2022-01-11 19:12:17 GMT 51.848301 -1.419449 11,225 344 313 -1792
2022-01-11 19:12:15 GMT 51.845856 -1.418276 11,275 344 313 -1792
2022-01-11 19:12:12 GMT 51.843018 -1.416865 11,475 344 314 -1792
2022-01-11 19:12:10 GMT 51.839642 -1.415253 11,475 344 314 -1792
2022-01-11 19:12:08 GMT 51.837433 -1.414267 11,475 344 314 -1792
2022-01-11 19:12:07 GMT 51.836197 -1.413651 11,525 344 315 -1792
2022-01-11 19:12:06 GMT 51.834137 -1.412708 11,550 344 315 -1792
2022-01-11 19:12:05 GMT 51.832844 -1.412048 11,700 344 315 -1792
2022-01-11 19:12:04 GMT 51.829960 -1.410675 11,650 344 316 -1792
2022-01-11 19:12:02 GMT 51.828793 -1.410141 11,675 344 316 -1792
2022-01-11 19:12:01 GMT 51.827271 -1.409368 11,725 344 317 -1792
2022-01-11 19:11:59 GMT 51.824417 -1.408081 11,750 344 318 -1792
2022-01-11 19:11:58 GMT 51.823196 -1.407438 11,825 344 318 -1792
2022-01-11 19:11:57 GMT 51.821503 -1.406695 11,825 344 318 -1792
2022-01-11 19:11:55 GMT 51.818848 -1.405433 11,875 344 318 -1792
2022-01-11 19:11:54 GMT 51.817429 -1.404691 11,900 344 318 -1792
2022-01-11 19:11:53 GMT 51.814774 -1.403429 11,975 344 319 -1792
2022-01-11 19:11:51 GMT 51.813354 -1.402761 12,025 344 319 -1792
2022-01-11 19:11:50 GMT 51.811802 -1.402054 12,050 344 320 -1792
2022-01-11 19:11:47 GMT 51.807522 -1.399994 12,125 344 320 -1856
2022-01-11 19:11:46 GMT 51.805481 -1.399050 12,175 344 321 -1856
2022-01-11 19:11:44 GMT 51.802643 -1.397639 12,200 344 321 -1856
2022-01-11 19:11:43 GMT 51.801224 -1.396971 12,250 344 321 -1856
2022-01-11 19:11:42 GMT 51.799942 -1.396377 12,275 344 321 -1792
2022-01-11 19:11:41 GMT 51.797928 -1.395412 12,325 344 321 -1792
2022-01-11 19:11:40 GMT 51.796627 -1.394806 12,350 344 321 -1792
2022-01-11 19:11:38 GMT 51.793785 -1.393433 12,425 344 321 -1792
2022-01-11 19:11:37 GMT 51.790901 -1.392059 12,450 344 322 -1792
2022-01-11 19:11:35 GMT 51.789505 -1.391449 12,525 344 322 -1728
2022-01-11 19:11:33 GMT 51.787903 -1.390661 12,550 344 322 -1728
2022-01-11 19:11:32 GMT 51.786476 -1.389999 12,600 344 322 -1728
2022-01-11 19:11:31 GMT 51.783600 -1.388583 12,625 344 323 -1792
2022-01-11 19:11:28 GMT 51.779263 -1.386566 12,725 344 323 -1792
2022-01-11 19:11:27 GMT 51.778473 -1.386185 12,725 344 323 -1856
2022-01-11 19:11:25 GMT 51.775314 -1.384723 12,775 344 323 -1856
2022-01-11 19:11:24 GMT 51.773804 -1.383980 12,825 344 323 -1856
2022-01-11 19:11:23 GMT 51.772430 -1.383312 12,875 344 323 -1856
2022-01-11 19:11:21 GMT 51.769207 -1.381760 12,925 344 324 -1856
2022-01-11 19:11:20 GMT 51.768356 -1.381382 12,950 344 324 -1856
2022-01-11 19:11:19 GMT 51.766434 -1.380492 13,000 344 324 -1856
2022-01-11 19:11:17 GMT 51.764133 -1.379395 13,100 344 324 -1856
2022-01-11 19:11:15 GMT 51.759750 -1.377300 13,150 344 325 -1856
2022-01-11 19:11:12 GMT 51.756729 -1.375885 13,200 344 325 -1856
2022-01-11 19:11:09 GMT 51.752075 -1.373672 13,300 344 325 -1856
2022-01-11 19:11:07 GMT 51.749954 -1.372697 13,425 344 326 -1856
2022-01-11 19:11:06 GMT 51.747940 -1.371732 13,400 344 326 -1856
2022-01-11 19:11:04 GMT 51.745789 -1.370693 13,425 344 326 -1856
2022-01-11 19:11:03 GMT 51.744507 -1.370099 13,450 344 326 -1856
2022-01-11 19:11:01 GMT 51.741604 -1.368790 13,525 344 326 -1856
2022-01-11 19:11:00 GMT 51.740112 -1.368021 13,550 344 326 -1792
2022-01-11 19:10:59 GMT 51.738556 -1.367352 13,575 344 327 -1792
2022-01-11 19:10:58 GMT 51.736248 -1.366272 13,625 344 327 -1792
2022-01-11 19:10:57 GMT 51.734711 -1.365509 13,675 344 327 -1792
2022-01-11 19:10:55 GMT 51.732758 -1.364594 13,700 344 327 -1792
2022-01-11 19:10:53 GMT 51.729313 -1.362991 13,775 344 327 -1792
2022-01-11 19:10:52 GMT 51.725967 -1.361414 13,850 344 327 -1856
2022-01-11 19:10:50 GMT 51.724365 -1.360672 13,875 344 327 -1856
2022-01-11 19:10:49 GMT 51.722889 -1.359940 13,925 344 326 -1856
2022-01-11 19:10:47 GMT 51.720558 -1.358871 13,975 344 326 -1856
2022-01-11 19:10:46 GMT 51.718513 -1.357880 14,000 344 326 -1856
2022-01-11 19:10:45 GMT 51.717636 -1.357480 14,025 344 327 -1920
2022-01-11 19:10:44 GMT 51.715622 -1.356515 14,075 344 327 -1920
2022-01-11 19:10:43 GMT 51.712738 -1.355178 14,125 344 327 -1920
2022-01-11 19:10:41 GMT 51.711437 -1.354599 14,150 344 327 -1920
2022-01-11 19:10:40 GMT 51.710041 -1.353912 14,200 344 327 -1920
2022-01-11 19:10:39 GMT 51.705524 -1.351776 14,300 344 328 -1856
2022-01-11 19:10:37 GMT 51.705524 -1.351776 14,300 344 328 -1856
2022-01-11 19:10:36 GMT 51.704132 -1.351170 14,325 344 328 -1856
2022-01-11 19:10:35 GMT 51.701157 -1.349759 14,375 344 328 -1856
2022-01-11 19:10:32 GMT 51.698914 -1.348720 14,425 344 328 -1792
2022-01-11 19:10:30 GMT 51.695755 -1.347236 14,525 344 327 -1792
2022-01-11 19:10:29 GMT 51.694290 -1.346568 14,525 344 327 -1792
2022-01-11 19:10:28 GMT 51.692963 -1.345974 14,575 344 327 -1792
2022-01-11 19:10:27 GMT 51.691513 -1.345291 14,575 344 327 -1792
2022-01-11 19:10:25 GMT 51.688534 -1.343918 14,650 344 326 -1856
2022-01-11 19:10:24 GMT 51.687286 -1.343301 14,675 344 326 -1856
2022-01-11 19:10:23 GMT 51.685822 -1.342633 14,725 344 326 -1856
2022-01-11 19:10:20 GMT 51.680759 -1.340256 14,825 344 326 -1920
2022-01-11 19:10:18 GMT 51.678478 -1.339188 14,850 344 328 -1920
2022-01-11 19:10:16 GMT 51.676208 -1.338105 14,900 344 328 -1920
2022-01-11 19:10:15 GMT 51.674011 -1.337140 14,975 344 328 -1920
2022-01-11 19:10:13 GMT 51.671124 -1.335754 15,025 344 328 -1920
2022-01-11 19:10:12 GMT 51.669525 -1.334987 15,075 344 328 -1920
2022-01-11 19:10:09 GMT 51.665359 -1.333057 15,150 344 328 -1856
2022-01-11 19:10:07 GMT 51.662464 -1.331711 15,175 344 328 -1856
2022-01-11 19:10:06 GMT 51.660786 -1.330872 15,250 344 328 -1856
2022-01-11 19:10:05 GMT 51.659271 -1.330162 15,275 344 328 -1856
2022-01-11 19:10:04 GMT 51.658039 -1.329575 15,300 344 328 -1856
2022-01-11 19:10:02 GMT 51.654827 -1.328049 15,375 344 327 -1856
2022-01-11 19:10:01 GMT 51.653458 -1.327416 15,400 344 327 -1920
2022-01-11 19:10:00 GMT 51.651947 -1.326673 15,425 344 327 -1920
2022-01-11 19:09:57 GMT 51.648834 -1.325263 15,500 344 327 -1856
2022-01-11 19:09:56 GMT 51.647381 -1.324539 15,525 344 327 -1856
2022-01-11 19:09:55 GMT 51.645813 -1.323778 15,600 344 327 -1856
2022-01-11 19:09:52 GMT 51.640816 -1.321411 15,675 344 327 -1856
2022-01-11 19:09:51 GMT 51.639175 -1.320661 15,700 344 327 -1856
2022-01-11 19:09:50 GMT 51.637695 -1.319962 15,725 344 327 -1856
2022-01-11 19:09:49 GMT 51.635605 -1.318953 15,775 344 327 -1856
2022-01-11 19:09:48 GMT 51.634113 -1.318283 15,825 344 327 -1856
2022-01-11 19:09:47 GMT 51.632767 -1.317617 15,850 344 327 -1856
2022-01-11 19:09:45 GMT 51.630066 -1.316355 15,900 344 327 -1856
2022-01-11 19:09:44 GMT 51.628510 -1.315613 15,950 344 326 -1856
2022-01-11 19:09:43 GMT 51.625259 -1.314128 16,000 344 326 -1856
2022-01-11 19:09:40 GMT 51.622971 -1.313015 16,050 344 325 -1856
2022-01-11 19:09:38 GMT 51.620613 -1.311951 16,125 344 325 -1856
2022-01-11 19:09:37 GMT 51.619171 -1.311233 16,150 344 325 -1856
2022-01-11 19:09:36 GMT 51.617706 -1.310565 16,200 344 325 -1856
2022-01-11 19:09:34 GMT 51.615097 -1.309303 16,225 344 325 -1856
2022-01-11 19:09:33 GMT 51.613491 -1.308517 16,300 344 324 -1856
2022-01-11 19:09:31 GMT 51.610245 -1.307002 16,350 344 324 -1792
2022-01-11 19:09:29 GMT 51.606739 -1.305389 16,400 344 324 -1792
2022-01-11 19:09:28 GMT 51.605988 -1.304998 16,425 344 324 -1792
2022-01-11 19:09:26 GMT 51.601685 -1.302993 16,500 344 324 -1792
2022-01-11 19:09:23 GMT 51.598782 -1.301651 16,600 344 324 -1856
2022-01-11 19:09:21 GMT 51.596100 -1.300395 16,650 344 324 -1856
2022-01-11 19:09:19 GMT 51.593399 -1.299133 16,675 344 324 -1856
2022-01-11 19:09:18 GMT 51.592117 -1.298465 16,700 344 324 -1856
2022-01-11 19:09:17 GMT 51.589737 -1.297426 16,750 344 324 -1856
2022-01-11 19:09:15 GMT 51.587280 -1.296234 16,800 344 325 -1856
2022-01-11 19:09:13 GMT 51.582905 -1.294250 16,900 344 325 -1792
2022-01-11 19:09:12 GMT 51.582905 -1.294250 16,900 344 325 -1792
2022-01-11 19:09:10 GMT 51.578064 -1.291933 17,000 344 325 -1856
2022-01-11 19:09:08 GMT 51.576805 -1.291351 17,025 344 325 -1856
2022-01-11 19:09:07 GMT 51.575363 -1.290671 17,075 344 326 -1856
2022-01-11 19:09:05 GMT 51.573223 -1.289673 17,100 344 327 -1856
2022-01-11 19:09:04 GMT 51.570923 -1.288667 17,150 344 327 -1856
2022-01-11 19:09:02 GMT 51.567917 -1.287231 17,225 344 327 -1920
2022-01-11 19:09:00 GMT 51.562794 -1.284790 17,325 344 328 -1920
2022-01-11 19:08:58 GMT 51.561310 -1.284138 17,375 344 328 -1920
2022-01-11 19:08:56 GMT 51.559860 -1.283417 17,400 344 328 -1920
2022-01-11 19:08:55 GMT 51.558426 -1.282728 17,425 344 328 -1856
2022-01-11 19:08:54 GMT 51.555534 -1.281433 17,500 344 329 -1856
2022-01-11 19:08:52 GMT 51.553848 -1.280575 17,525 344 329 -1856
2022-01-11 19:08:51 GMT 51.549576 -1.278610 17,625 344 329 -1856
2022-01-11 19:08:49 GMT 51.549576 -1.278610 17,625 344 329 -1856
2022-01-11 19:08:48 GMT 51.546524 -1.277161 17,650 344 330 -1856
2022-01-11 19:08:46 GMT 51.545700 -1.276789 17,725 344 330 -1856
2022-01-11 19:08:44 GMT 51.542221 -1.275156 17,800 344 331 -1856
2022-01-11 19:08:42 GMT 51.539200 -1.273820 17,800 344 331 -1856
2022-01-11 19:08:41 GMT 51.538357 -1.273346 17,850 344 331 -1856
2022-01-11 19:08:39 GMT 51.535172 -1.271890 17,925 344 331 -1856
2022-01-11 19:08:37 GMT 51.532288 -1.270554 18,000 344 332 -1920
2022-01-11 19:08:36 GMT 51.530823 -1.269886 18,025 344 332 -1920
2022-01-11 19:08:35 GMT 51.529495 -1.269218 18,050 344 332 -1920
2022-01-11 19:08:32 GMT 51.524277 -1.266842 18,150 344 333 -1920
2022-01-11 19:08:30 GMT 51.520340 -1.264987 18,225 344 333 -1920
2022-01-11 19:08:27 GMT 51.516907 -1.263428 18,325 344 334 -1920
2022-01-11 19:08:25 GMT 51.514568 -1.262283 18,375 344 334 -1920
2022-01-11 19:08:22 GMT 51.509903 -1.260162 18,475 344 335 -1920
2022-01-11 19:08:19 GMT 51.505211 -1.257935 18,575 344 336 -1920
2022-01-11 19:08:17 GMT 51.500793 -1.255930 18,650 344 336 -1984
2022-01-11 19:08:15 GMT 51.499390 -1.255264 18,750 344 336 -1984
2022-01-11 19:08:13 GMT 51.496506 -1.253891 18,750 344 336 -1984
2022-01-11 19:08:12 GMT 51.494843 -1.253109 18,800 344 337 -1920
2022-01-11 19:08:11 GMT 51.493286 -1.252441 18,850 344 337 -1920
2022-01-11 19:08:09 GMT 51.490360 -1.251068 18,900 344 337 -1920
2022-01-11 19:08:07 GMT 51.486031 -1.249008 18,925 344 337 -1920
2022-01-11 19:08:06 GMT 51.486031 -1.249008 19,000 344 338 -1920
2022-01-11 19:08:04 GMT 51.479420 -1.245956 19,100 344 338 -1984
2022-01-11 19:08:02 GMT 51.479420 -1.245956 19,175 344 339 -1984
2022-01-11 19:08:00 GMT 51.476952 -1.244812 19,175 344 339 -1984
2022-01-11 19:07:59 GMT 51.475277 -1.244049 19,225 344 339 -1984
2022-01-11 19:07:58 GMT 51.474483 -1.243668 19,275 344 339 -1984
2022-01-11 19:07:57 GMT 51.472809 -1.242828 19,300 344 340 -1984
2022-01-11 19:07:55 GMT 51.469711 -1.241381 19,375 344 340 -1984
2022-01-11 19:07:53 GMT 51.466015 -1.239700 19,425 344 341 -1984
2022-01-11 19:07:50 GMT 51.461498 -1.237564 19,525 344 341 -1920
2022-01-11 19:07:48 GMT 51.459217 -1.236496 19,550 344 341 -1920
2022-01-11 19:07:47 GMT 51.457718 -1.235813 19,600 344 342 -1920
2022-01-11 19:07:46 GMT 51.456253 -1.235145 19,625 344 343 -1920
2022-01-11 19:07:45 GMT 51.454796 -1.234436 19,700 344 343 -1920
2022-01-11 19:07:44 GMT 51.453304 -1.233749 19,725 344 343 -1920
2022-01-11 19:07:42 GMT 51.450394 -1.232399 19,750 344 343 -1984
2022-01-11 19:07:41 GMT 51.448837 -1.231656 19,825 344 343 -1984
2022-01-11 19:07:39 GMT 51.445129 -1.229875 19,850 344 343 -1984
2022-01-11 19:07:37 GMT 51.441559 -1.228242 19,950 344 343 -1984
2022-01-11 19:07:36 GMT 51.440224 -1.227570 19,975 344 343 -2048
2022-01-11 19:07:34 GMT 51.437012 -1.226120 20,050 344 344 -1984
2022-01-11 19:07:33 GMT 51.433823 -1.224604 20,075 344 344 -1984
2022-01-11 19:07:31 GMT 51.433006 -1.224213 20,150 344 344 -1984
2022-01-11 19:07:29 GMT 51.429142 -1.222382 20,225 344 345 -1984
2022-01-11 19:07:27 GMT 51.426315 -1.221041 20,275 344 345 -1984
2022-01-11 19:07:26 GMT 51.424759 -1.220373 20,300 344 345 -1984
2022-01-11 19:07:25 GMT 51.421883 -1.219025 20,375 344 345 -1984
2022-01-11 19:07:23 GMT 51.420532 -1.218414 20,400 344 346 -2048
2022-01-11 19:07:21 GMT 51.414597 -1.215622 20,525 344 346 -2112
2022-01-11 19:07:18 GMT 51.413036 -1.214905 20,575 344 347 -2112
2022-01-11 19:07:17 GMT 51.411346 -1.214063 20,600 344 347 -2112
2022-01-11 19:07:15 GMT 51.408382 -1.212692 20,675 344 347 -2112
2022-01-11 19:07:14 GMT 51.406754 -1.211929 20,775 344 347 -2112
2022-01-11 19:07:12 GMT 51.401413 -1.209461 20,825 344 347 -2048
2022-01-11 19:07:11 GMT 51.401413 -1.209461 20,825 344 347 -2048
2022-01-11 19:07:10 GMT 51.400543 -1.209016 20,850 344 347 -2048
2022-01-11 19:07:09 GMT 51.395920 -1.206863 20,950 344 348 -2048
2022-01-11 19:07:07 GMT 51.395920 -1.206863 20,950 344 348 -2048
2022-01-11 19:07:06 GMT 51.394226 -1.206121 21,000 344 348 -2048
2022-01-11 19:07:04 GMT 51.390610 -1.204413 21,075 344 348 -2048
2022-01-11 19:07:02 GMT 51.388412 -1.203374 21,125 344 348 -1984
2022-01-11 19:07:01 GMT 51.384201 -1.201444 21,200 344 349 -2048
2022-01-11 19:06:58 GMT 51.382416 -1.200628 21,250 344 350 -2048
2022-01-11 19:06:57 GMT 51.380962 -1.199951 21,275 344 350 -2048
2022-01-11 19:06:56 GMT 51.376648 -1.197881 21,375 344 350 -2048
2022-01-11 19:06:54 GMT 51.375191 -1.197205 21,400 344 350 -2048
2022-01-11 19:06:53 GMT 51.373672 -1.196545 21,450 344 350 -2112
2022-01-11 19:06:51 GMT 51.371201 -1.195357 21,525 344 350 -2112
2022-01-11 19:06:50 GMT 51.369553 -1.194540 21,550 344 351 -2112
2022-01-11 19:06:48 GMT 51.365707 -1.192759 21,600 344 351 -2112
2022-01-11 19:06:47 GMT 51.364288 -1.192091 21,650 344 351 -2112
2022-01-11 19:06:46 GMT 51.362713 -1.191330 21,700 344 351 -2112
2022-01-11 19:06:45 GMT 51.358570 -1.189423 21,750 344 351 -2112
2022-01-11 19:06:43 GMT 51.358570 -1.189423 21,800 344 352 -2112
2022-01-11 19:06:41 GMT 51.355499 -1.188008 21,850 344 351 -2048
2022-01-11 19:06:39 GMT 51.352341 -1.186523 21,925 344 351 -2048
2022-01-11 19:06:37 GMT 51.349213 -1.185074 22,000 344 352 -2048
2022-01-11 19:06:36 GMT 51.346092 -1.183624 22,050 344 352 -2048
2022-01-11 19:06:34 GMT 51.344559 -1.182938 22,100 344 352 -2048
2022-01-11 19:06:33 GMT 51.342316 -1.181847 22,150 344 352 -2048
2022-01-11 19:06:31 GMT 51.339298 -1.180496 22,200 344 352 -2048
2022-01-11 19:06:29 GMT 51.336227 -1.179100 22,275 344 353 -2048
2022-01-11 19:06:27 GMT 51.333710 -1.177902 22,325 344 354 -2048
2022-01-11 19:06:26 GMT 51.330505 -1.176428 22,350 344 354 -2048
2022-01-11 19:06:24 GMT 51.328995 -1.175686 22,425 344 354 -2048
2022-01-11 19:06:22 GMT 51.326450 -1.174545 22,475 344 354 -2112
2022-01-11 19:06:21 GMT 51.324875 -1.173830 22,550 344 354 -2112
2022-01-11 19:06:20 GMT 51.321625 -1.172271 22,600 344 355 -2112
2022-01-11 19:06:18 GMT 51.319839 -1.171454 22,650 344 355 -2112
2022-01-11 19:06:17 GMT 51.318192 -1.170712 22,700 344 355 -2112
2022-01-11 19:06:15 GMT 51.314758 -1.169153 22,750 344 355 -2112
2022-01-11 19:06:14 GMT 51.313110 -1.168337 22,775 344 356 -2112
2022-01-11 19:06:13 GMT 51.310390 -1.167145 22,825 344 356 -2112
2022-01-11 19:06:11 GMT 51.308899 -1.166407 22,850 344 356 -2112
2022-01-11 19:06:10 GMT 51.307129 -1.165619 22,925 344 356 -2112
2022-01-11 19:06:09 GMT 51.305363 -1.164780 23,025 344 356 -2112
2022-01-11 19:06:07 GMT 51.301529 -1.163066 23,050 344 356 -2112
2022-01-11 19:06:05 GMT 51.298050 -1.161433 23,125 344 357 -2112
2022-01-11 19:06:04 GMT 51.297215 -1.161041 23,150 344 357 -2112
2022-01-11 19:06:03 GMT 51.295444 -1.160278 23,200 344 357 -2112
2022-01-11 19:06:02 GMT 51.290745 -1.158142 23,225 344 357 -2112
2022-01-11 19:06:00 GMT 51.290745 -1.158142 23,300 344 357 -2112
2022-01-11 19:05:59 GMT 51.289299 -1.157455 23,325 344 357 -2112
2022-01-11 19:05:57 GMT 51.283127 -1.154604 23,450 344 357 -2112
2022-01-11 19:05:54 GMT 51.280746 -1.153490 23,500 344 357 -2112
2022-01-11 19:05:53 GMT 51.277634 -1.152080 23,575 344 357 -2112
2022-01-11 19:05:50 GMT 51.274521 -1.150669 23,650 344 357 -2112
2022-01-11 19:05:48 GMT 51.271820 -1.149407 23,700 344 357 -2176
2022-01-11 19:05:47 GMT 51.270123 -1.148682 23,750 344 357 -2176
2022-01-11 19:05:46 GMT 51.267014 -1.147255 23,825 344 357 -2176
2022-01-11 19:05:44 GMT 51.265274 -1.146438 23,850 344 357 -2176
2022-01-11 19:05:43 GMT 51.263626 -1.145696 23,900 344 358 -2112
2022-01-11 19:05:40 GMT 51.259693 -1.143875 23,975 344 358 -2112
2022-01-11 19:05:39 GMT 51.257973 -1.143112 24,025 344 358 -2112
2022-01-11 19:05:38 GMT 51.256435 -1.142426 24,050 344 358 -2112
2022-01-11 19:05:37 GMT 51.254620 -1.141586 24,100 344 358 -2112
2022-01-11 19:05:36 GMT 51.253006 -1.140797 24,125 344 358 -2112
2022-01-11 19:05:33 GMT 51.247913 -1.138458 24,225 344 359 -2112
2022-01-11 19:05:32 GMT 51.246334 -1.137772 24,275 344 359 -2112
2022-01-11 19:05:30 GMT 51.243805 -1.136565 24,350 344 359 -2112
2022-01-11 19:05:29 GMT 51.241959 -1.135712 24,375 344 359 -2112
2022-01-11 19:05:28 GMT 51.240376 -1.135025 24,425 344 360 -2112
2022-01-11 19:05:26 GMT 51.237114 -1.133499 24,500 344 360 -2112
2022-01-11 19:05:25 GMT 51.235382 -1.132705 24,525 344 360 -2112
2022-01-11 19:05:24 GMT 51.232182 -1.131287 24,575 344 360 -2176
2022-01-11 19:05:22 GMT 51.230759 -1.130627 24,625 344 360 -2176
2022-01-11 19:05:21 GMT 51.229015 -1.129837 24,675 344 360 -2176
2022-01-11 19:05:19 GMT 51.225945 -1.128387 24,700 344 360 -2176
2022-01-11 19:05:18 GMT 51.224304 -1.127658 24,775 344 360 -2176
2022-01-11 19:05:17 GMT 51.222733 -1.126862 24,800 344 360 -2176
2022-01-11 19:05:16 GMT 51.221149 -1.126175 24,850 344 360 -2176
2022-01-11 19:05:14 GMT 51.217987 -1.124688 24,925 344 360 -2176
2022-01-11 19:05:12 GMT 51.214874 -1.123278 25,050 344 360 -2176
2022-01-11 19:05:10 GMT 51.211044 -1.121445 25,050 344 360 -2176
2022-01-11 19:05:07 GMT 51.206772 -1.119492 25,175 344 360 -2112
2022-01-11 19:05:05 GMT 51.203522 -1.118007 25,250 344 360 -2112
2022-01-11 19:05:04 GMT 51.201782 -1.117172 25,275 344 360 -2112
2022-01-11 19:05:03 GMT 51.200317 -1.116523 25,325 344 360 -2112
2022-01-11 19:05:02 GMT 51.198757 -1.115799 25,375 344 360 -2176
2022-01-11 19:05:00 GMT 51.194798 -1.113892 25,425 344 360 -2176
2022-01-11 19:04:58 GMT 51.190704 -1.112061 25,525 344 360 -2176
2022-01-11 19:04:55 GMT 51.187317 -1.110436 25,600 344 360 -2176
2022-01-11 19:04:53 GMT 51.184708 -1.109248 25,650 344 360 -2176
2022-01-11 19:04:51 GMT 51.181366 -1.107615 25,725 344 360 -2176
2022-01-11 19:04:50 GMT 51.179535 -1.106798 25,775 344 360 -2176
2022-01-11 19:04:48 GMT 51.176086 -1.105194 25,850 344 360 -2176
2022-01-11 19:04:47 GMT 51.174545 -1.104497 25,875 344 360 -2176
2022-01-11 19:04:45 GMT 51.171387 -1.103012 25,925 344 360 -2176
2022-01-11 19:04:44 GMT 51.169739 -1.102270 26,000 344 360 -2176
2022-01-11 19:04:43 GMT 51.168079 -1.101456 26,025 344 360 -2176
2022-01-11 19:04:41 GMT 51.164932 -1.099969 26,100 344 360 -2176
2022-01-11 19:04:40 GMT 51.163101 -1.099152 26,125 344 360 -2176
2022-01-11 19:04:39 GMT 51.159794 -1.097565 26,200 344 360 -2176
2022-01-11 19:04:37 GMT 51.158249 -1.096851 26,250 344 360 -2176
2022-01-11 19:04:36 GMT 51.156647 -1.096109 26,275 344 360 -2176
2022-01-11 19:04:35 GMT 51.153442 -1.094624 26,350 344 360 -2176
2022-01-11 19:04:33 GMT 51.151932 -1.093956 26,375 344 360 -2176
2022-01-11 19:04:32 GMT 51.150295 -1.093140 26,425 344 360 -2176
2022-01-11 19:04:30 GMT 51.146851 -1.091581 26,500 344 361 -2176
2022-01-11 19:04:28 GMT 51.143738 -1.090096 26,575 344 361 -2176
2022-01-11 19:04:26 GMT 51.140614 -1.088638 26,625 344 361 -2176
2022-01-11 19:04:24 GMT 51.137283 -1.087127 26,700 344 361 -2176
2022-01-11 19:04:23 GMT 51.135864 -1.086426 26,750 344 361 -2112
2022-01-11 19:04:22 GMT 51.134048 -1.085587 26,775 344 361 -2112
2022-01-11 19:04:20 GMT 51.130695 -1.084061 26,850 344 361 -2112
2022-01-11 19:04:19 GMT 51.129810 -1.083679 26,875 344 361 -2112
2022-01-11 19:04:18 GMT 51.128090 -1.082840 26,925 344 361 -2112
2022-01-11 19:04:15 GMT 51.124180 -1.081009 27,000 344 361 -2176
2022-01-11 19:04:14 GMT 51.120270 -1.079254 27,050 344 361 -2176
2022-01-11 19:04:13 GMT 51.120270 -1.079254 27,050 344 361 -2176
2022-01-11 19:04:12 GMT 51.118515 -1.078442 27,125 344 361 -2240
2022-01-11 19:04:11 GMT 51.116917 -1.077728 27,200 344 361 -2240
2022-01-11 19:04:09 GMT 51.113846 -1.076355 27,200 344 361 -2240
2022-01-11 19:04:07 GMT 51.110725 -1.074905 27,325 344 361 -2240
2022-01-11 19:04:06 GMT 51.109039 -1.074136 27,400 344 361 -2240
2022-01-11 19:04:04 GMT 51.105469 -1.072503 27,425 344 361 -2240
2022-01-11 19:04:03 GMT 51.104630 -1.072083 27,450 344 361 -2240
2022-01-11 19:04:02 GMT 51.101166 -1.070499 27,525 344 361 -2176
2022-01-11 19:04:00 GMT 51.099739 -1.069870 27,600 344 361 -2112
2022-01-11 19:03:59 GMT 51.098202 -1.069107 27,600 344 361 -2112
2022-01-11 19:03:57 GMT 51.094200 -1.067276 27,675 344 361 -2112
2022-01-11 19:03:56 GMT 51.092896 -1.066666 27,725 344 361 -2112
2022-01-11 19:03:55 GMT 51.091370 -1.065971 27,750 344 362 -2112
2022-01-11 19:03:53 GMT 51.086609 -1.063744 27,850 344 362 -2176
2022-01-11 19:03:51 GMT 51.085007 -1.063076 27,900 344 362 -2176
2022-01-11 19:03:50 GMT 51.083450 -1.062333 27,925 344 362 -2176
2022-01-11 19:03:49 GMT 51.080017 -1.060775 28,000 345 361 -2240
2022-01-11 19:03:46 GMT 51.077625 -1.059723 28,050 345 362 -2240
2022-01-11 19:03:45 GMT 51.075020 -1.058502 28,100 345 362 -2240
2022-01-11 19:03:43 GMT 51.071732 -1.057063 28,550 345 362 -2176
2022-01-11 19:03:41 GMT 51.067337 -1.055059 28,300 345 362 -2176
2022-01-11 19:03:39 GMT 51.065689 -1.054316 28,325 345 362 -2176
2022-01-11 19:03:38 GMT 51.063988 -1.053543 28,375 345 362 -2176
2022-01-11 19:03:37 GMT 51.060452 -1.051941 28,450 345 362 -2176
2022-01-11 19:03:35 GMT 51.058636 -1.051102 28,500 345 362 -2176
2022-01-11 19:03:34 GMT 51.057129 -1.050456 28,525 345 362 -2176
2022-01-11 19:03:33 GMT 51.055561 -1.049728 28,550 345 363 -2176
2022-01-11 19:03:32 GMT 51.052490 -1.048355 28,625 345 363 -2176
2022-01-11 19:03:30 GMT 51.050629 -1.047516 28,675 345 363 -2176
2022-01-11 19:03:29 GMT 51.049232 -1.046906 28,700 345 363 -2176
2022-01-11 19:03:28 GMT 51.046097 -1.045483 28,775 345 363 -2176
2022-01-11 19:03:26 GMT 51.044666 -1.044846 28,800 345 363 -2176
2022-01-11 19:03:25 GMT 51.042892 -1.044072 28,850 345 363 -2176
2022-01-11 19:03:24 GMT 51.041225 -1.043320 28,875 345 363 -2176
2022-01-11 19:03:22 GMT 51.037918 -1.041870 28,950 345 363 -2176
2022-01-11 19:03:21 GMT 51.036392 -1.041177 28,975 345 363 -2176
2022-01-11 19:03:20 GMT 51.031353 -1.038895 29,050 345 364 -2176
2022-01-11 19:03:18 GMT 51.031353 -1.038895 29,100 345 364 -2176
2022-01-11 19:03:17 GMT 51.026505 -1.036723 29,225 344 364 -2176
2022-01-11 19:03:15 GMT 51.026505 -1.036723 29,225 344 364 -2176
2022-01-11 19:03:14 GMT 51.025177 -1.036130 29,250 344 364 -2176
2022-01-11 19:03:12 GMT 51.021973 -1.034645 29,400 344 364 -2176
2022-01-11 19:03:10 GMT 51.018459 -1.033020 29,400 344 364 -2176
2022-01-11 19:03:09 GMT 51.016937 -1.032344 29,425 344 364 -2176
2022-01-11 19:03:08 GMT 51.015106 -1.031453 29,475 344 364 -2176
2022-01-11 19:03:06 GMT 51.012592 -1.030350 29,550 344 364 -2176
2022-01-11 19:03:05 GMT 51.010731 -1.029510 29,575 344 364 -2176
2022-01-11 19:03:03 GMT 51.005005 -1.026917 29,650 344 364 -2112
2022-01-11 19:03:00 GMT 51.002541 -1.025772 29,800 344 364 -2112
2022-01-11 19:02:58 GMT 50.999329 -1.024246 29,850 344 364 -2112
2022-01-11 19:02:56 GMT 50.996162 -1.022797 29,900 344 365 -2112
2022-01-11 19:02:55 GMT 50.992859 -1.021283 29,975 344 365 -2112
2022-01-11 19:02:53 GMT 50.991135 -1.020508 30,025 344 365 -2112
2022-01-11 19:02:52 GMT 50.989319 -1.019669 30,050 344 365 -2112
2022-01-11 19:02:50 GMT 50.986862 -1.018537 30,100 344 365 -2112
2022-01-11 19:02:48 GMT 50.983292 -1.016978 30,200 345 364 -2176
2022-01-11 19:02:47 GMT 50.981544 -1.016159 30,200 345 364 -2176
2022-01-11 19:02:44 GMT 50.976517 -1.013860 30,325 345 364 -2176
2022-01-11 19:02:43 GMT 50.973038 -1.012301 30,400 345 365 -2176
2022-01-11 19:02:41 GMT 50.971581 -1.011658 30,425 345 365 -2112
2022-01-11 19:02:40 GMT 50.969860 -1.010895 30,475 345 365 -2112
2022-01-11 19:02:38 GMT 50.966629 -1.009406 30,550 345 365 -2048
2022-01-11 19:02:37 GMT 50.964890 -1.008664 30,575 345 365 -1984
2022-01-11 19:02:35 GMT 50.961319 -1.007031 30,650 344 366 -1856
2022-01-11 19:02:33 GMT 50.958313 -1.005707 30,750 345 367 -1792
2022-01-11 19:02:31 GMT 50.955242 -1.004257 30,750 345 367 -1920
2022-01-11 19:02:30 GMT 50.953568 -1.003494 30,800 344 367 -1856
2022-01-11 19:02:29 GMT 50.952030 -1.002808 30,825 344 367 -1856
2022-01-11 19:02:28 GMT 50.948822 -1.001389 30,875 344 367 -1856
2022-01-11 19:02:26 GMT 50.947281 -1.000671 30,900 344 368 -1792
2022-01-11 19:02:25 GMT 50.945801 -0.999979 30,925 344 368 -1792
2022-01-11 19:02:24 GMT 50.944069 -0.999222 30,975 344 368 -1792
2022-01-11 19:02:23 GMT 50.940857 -0.997752 31,025 344 368 -1792
2022-01-11 19:02:21 GMT 50.939137 -0.996933 31,050 344 369 -1792
2022-01-11 19:02:20 GMT 50.937332 -0.996118 31,100 344 369 -1792
2022-01-11 19:02:18 GMT 50.933853 -0.994560 31,150 344 369 -1792
2022-01-11 19:02:17 GMT 50.932289 -0.993881 31,175 344 369 -1792
2022-01-11 19:02:16 GMT 50.930649 -0.993075 31,200 344 370 -1792
2022-01-11 19:02:15 GMT 50.928707 -0.992203 31,250 344 370 -1792
2022-01-11 19:02:13 GMT 50.925541 -0.990753 31,300 344 370 -1792
2022-01-11 19:02:12 GMT 50.924149 -0.990106 31,325 344 370 -1792
2022-01-11 19:02:11 GMT 50.922455 -0.989363 31,350 344 371 -1792
2022-01-11 19:02:10 GMT 50.919209 -0.987854 31,425 344 371 -1856
2022-01-11 19:02:08 GMT 50.917347 -0.987015 31,450 344 371 -1856
2022-01-11 19:02:06 GMT 50.912041 -0.984573 31,550 344 372 -1856
2022-01-11 19:02:03 GMT 50.909340 -0.983353 31,625 344 373 -1920
2022-01-11 19:02:02 GMT 50.907711 -0.982666 31,650 344 373 -1920
2022-01-11 19:02:00 GMT 50.904594 -0.981216 31,700 344 373 -1856
2022-01-11 19:01:58 GMT 50.900356 -0.979309 31,775 345 374 -1920
2022-01-11 19:01:56 GMT 50.898399 -0.978394 31,800 345 374 -1920
2022-01-11 19:01:55 GMT 50.896591 -0.977635 31,850 345 374 -1920
2022-01-11 19:01:54 GMT 50.894772 -0.976791 31,875 345 374 -1920
2022-01-11 19:01:52 GMT 50.891514 -0.975266 31,950 345 374 -1920
2022-01-11 19:01:51 GMT 50.889603 -0.974426 31,975 345 374 -1920
2022-01-11 19:01:50 GMT 50.887974 -0.973663 32,000 344 375 -1920
2022-01-11 19:01:48 GMT 50.884598 -0.972216 32,075 344 375 -1984
2022-01-11 19:01:46 GMT 50.880936 -0.970508 32,150 344 375 -1984
2022-01-11 19:01:45 GMT 50.879105 -0.969692 32,175 344 375 -1984
2022-01-11 19:01:43 GMT 50.876335 -0.968399 32,250 344 376 -1920
2022-01-11 19:01:42 GMT 50.874069 -0.967391 32,275 344 376 -1920
2022-01-11 19:01:41 GMT 50.869026 -0.965118 32,350 344 376 -1856
2022-01-11 19:01:39 GMT 50.869026 -0.965118 32,375 344 376 -1856
2022-01-11 19:01:38 GMT 50.867397 -0.964355 32,400 345 377 -1856
2022-01-11 19:01:36 GMT 50.864231 -0.962906 32,475 344 377 -1792
2022-01-11 19:01:35 GMT 50.862625 -0.962194 32,500 344 377 -1792
2022-01-11 19:01:33 GMT 50.859558 -0.960784 32,550 344 377 -1728
2022-01-11 19:01:31 GMT 50.855480 -0.958939 32,625 344 379 -1664
2022-01-11 19:01:30 GMT 50.854523 -0.958483 32,625 344 379 -1664
2022-01-11 19:01:29 GMT 50.849167 -0.956033 32,725 344 379 -1664
2022-01-11 19:01:27 GMT 50.849167 -0.956033 32,725 344 380 -1664
2022-01-11 19:01:26 GMT 50.847519 -0.955276 32,750 344 380 -1664
2022-01-11 19:01:25 GMT 50.845917 -0.954549 32,775 344 380 -1728
2022-01-11 19:01:24 GMT 50.844269 -0.953732 32,800 344 380 -1728
2022-01-11 19:01:22 GMT 50.840771 -0.952072 32,850 344 381 -1728
2022-01-11 19:01:21 GMT 50.839233 -0.951385 32,875 344 381 -1728
2022-01-11 19:01:20 GMT 50.837463 -0.950546 32,925 344 381 -1728
2022-01-11 19:01:19 GMT 50.835930 -0.949860 32,950 344 381 -1728
2022-01-11 19:01:17 GMT 50.832577 -0.948257 33,000 344 382 -1728
2022-01-11 19:01:16 GMT 50.830761 -0.947418 33,025 344 382 -1792
2022-01-11 19:01:14 GMT 50.827652 -0.946012 33,050 344 382 -1792
2022-01-11 19:01:13 GMT 50.825958 -0.945195 33,125 344 383 -1792
2022-01-11 19:01:12 GMT 50.824310 -0.944453 33,150 344 383 -1856
2022-01-11 19:01:11 GMT 50.822430 -0.943604 33,175 344 383 -1856
2022-01-11 19:01:09 GMT 50.819077 -0.942001 33,225 344 384 -1984
2022-01-11 19:01:07 GMT 50.815445 -0.940323 33,300 344 384 -1984
2022-01-11 19:01:04 GMT 50.810852 -0.938143 33,400 344 384 -2112
2022-01-11 19:01:02 GMT 50.807068 -0.936432 33,475 344 384 -2112
2022-01-11 19:01:01 GMT 50.805389 -0.935669 33,500 344 385 -2112
2022-01-11 19:00:59 GMT 50.800049 -0.933170 33,575 344 385 -2112
2022-01-11 19:00:57 GMT 50.798355 -0.932427 33,650 344 385 -2112
2022-01-11 19:00:56 GMT 50.796730 -0.931625 33,700 344 385 -2112
2022-01-11 19:00:55 GMT 50.795242 -0.930943 33,725 344 385 -2048
2022-01-11 19:00:54 GMT 50.791855 -0.929384 33,800 344 385 -2048
2022-01-11 19:00:52 GMT 50.789932 -0.928493 33,825 344 386 -2112
2022-01-11 19:00:50 GMT 50.786770 -0.927048 33,875 344 386 -2112
2022-01-11 19:00:49 GMT 50.785355 -0.926415 33,925 344 386 -2112
2022-01-11 19:00:48 GMT 50.782860 -0.925217 33,975 344 386 -2112
2022-01-11 19:00:47 GMT 50.781281 -0.924485 34,000 344 386 -2048
2022-01-11 19:00:46 GMT 50.776573 -0.922318 34,075 344 386 -2048
2022-01-11 19:00:44 GMT 50.776573 -0.922318 34,125 344 387 -2048
2022-01-11 19:00:43 GMT 50.774231 -0.921218 34,200 344 387 -1984
2022-01-11 19:00:41 GMT 50.770802 -0.919724 34,200 344 387 -1920
2022-01-11 19:00:40 GMT 50.769218 -0.918961 34,250 344 388 -1792
2022-01-11 19:00:39 GMT 50.767311 -0.918121 34,275 344 388 -1792
2022-01-11 19:00:38 GMT 50.765533 -0.917284 34,300 344 388 -1792
2022-01-11 19:00:35 GMT 50.760956 -0.915131 34,400 344 389 -1920
2022-01-11 19:00:33 GMT 50.757523 -0.913573 34,425 344 389 -1984
2022-01-11 19:00:32 GMT 50.755737 -0.912756 34,500 344 389 -2048
2022-01-11 19:00:30 GMT 50.752304 -0.911197 34,550 344 390 -1984
2022-01-11 19:00:28 GMT 50.748268 -0.909348 34,625 344 390 -1920
2022-01-11 19:00:27 GMT 50.746639 -0.908585 34,650 344 390 -1792
2022-01-11 19:00:26 GMT 50.744751 -0.907708 34,700 344 391 -1728
2022-01-11 19:00:24 GMT 50.741409 -0.906224 34,750 344 391 -1600
2022-01-11 19:00:23 GMT 50.739891 -0.905457 34,775 344 392 -1600
2022-01-11 19:00:22 GMT 50.736259 -0.903854 34,825 344 392 -1600
2022-01-11 19:00:20 GMT 50.734451 -0.903032 34,850 344 393 -1600
2022-01-11 19:00:19 GMT 50.732712 -0.902215 34,875 344 393 -1600
2022-01-11 19:00:18 GMT 50.730881 -0.901324 34,900 344 393 -1664
2022-01-11 19:00:16 GMT 50.728088 -0.900062 34,975 344 395 -1728
2022-01-11 19:00:15 GMT 50.725571 -0.898875 35,000 344 395 -1792
2022-01-11 19:00:14 GMT 50.722668 -0.897522 35,050 344 395 -1792
2022-01-11 19:00:12 GMT 50.720947 -0.896722 35,075 344 395 -1792
2022-01-11 19:00:11 GMT 50.719116 -0.895905 35,100 344 395 -1792
2022-01-11 19:00:10 GMT 50.715309 -0.894165 35,175 344 396 -1728
2022-01-11 19:00:08 GMT 50.713497 -0.893326 35,200 344 396 -1664
2022-01-11 19:00:07 GMT 50.711792 -0.892565 35,225 344 397 -1664
2022-01-11 19:00:05 GMT 50.708405 -0.891006 35,275 344 397 -1600
2022-01-11 19:00:03 GMT 50.703396 -0.888672 35,350 344 399 -1920
2022-01-11 19:00:01 GMT 50.701019 -0.887604 35,400 344 399 -1920
2022-01-11 19:00:00 GMT 50.699112 -0.886765 35,425 344 399 -1920
2022-01-11 18:59:59 GMT 50.695587 -0.885142 35,500 344 399 -1984
2022-01-11 18:59:56 GMT 50.692703 -0.883806 35,550 344 400 -1920
2022-01-11 18:59:55 GMT 50.690872 -0.882989 35,625 344 400 -1856
2022-01-11 18:59:53 GMT 50.687164 -0.881282 35,625 344 400 -1728
2022-01-11 18:59:52 GMT 50.685425 -0.880539 35,675 344 401 -1664
2022-01-11 18:59:51 GMT 50.683609 -0.879669 35,700 344 402 -1600
2022-01-11 18:59:50 GMT 50.680119 -0.878143 35,750 345 403 -1600
2022-01-11 18:59:48 GMT 50.678192 -0.877273 35,775 345 403 -1600
2022-01-11 18:59:47 GMT 50.676487 -0.876465 35,800 345 403 -1664
2022-01-11 18:59:45 GMT 50.673386 -0.875046 35,900 344 404 -1792
2022-01-11 18:59:43 GMT 50.670731 -0.873847 35,900 344 404 -1792
2022-01-11 18:59:41 GMT 50.665359 -0.871483 36,000 344 405 -1792
2022-01-11 18:59:39 GMT 50.662399 -0.870088 36,025 344 405 -1792
2022-01-11 18:59:37 GMT 50.658600 -0.868354 36,100 345 406 -1728
2022-01-11 18:59:36 GMT 50.656860 -0.867631 36,125 345 406 -1792
2022-01-11 18:59:35 GMT 50.650742 -0.864876 36,200 344 407 -1728
2022-01-11 18:59:33 GMT 50.650742 -0.864876 36,225 344 408 -1536
2022-01-11 18:59:31 GMT 50.643436 -0.861536 36,300 344 410 -1472
2022-01-11 18:59:29 GMT 50.643436 -0.861536 36,325 344 410 -1408
2022-01-11 18:59:28 GMT 50.641663 -0.860764 36,350 344 410 -1408
2022-01-11 18:59:25 GMT 50.637802 -0.859012 36,375 344 411 -1408
2022-01-11 18:59:23 GMT 50.632401 -0.856562 36,475 346 412 -1920
2022-01-11 18:59:21 GMT 50.630676 -0.855849 36,500 346 413 -2304
2022-01-11 18:59:20 GMT 50.627560 -0.854632 36,575 347 412 -2688
2022-01-11 18:59:18 GMT 50.623993 -0.853247 36,675 348 412 -2944
2022-01-11 18:59:16 GMT 50.620159 -0.851812 36,775 348 412 -2816
2022-01-11 18:59:13 GMT 50.615318 -0.850253 36,875 349 413 -2432
2022-01-11 18:59:12 GMT 50.609730 -0.848545 36,975 350 413 -1856
2022-01-11 18:59:10 GMT 50.609730 -0.848545 36,975 351 414 -1600
2022-01-11 18:59:09 GMT 50.607742 -0.847971 37,025 351 414 -1408
2022-01-11 18:59:07 GMT 50.603943 -0.846959 37,050 351 415 -1344
2022-01-11 18:59:06 GMT 50.601974 -0.846453 37,100 352 415 -1216
2022-01-11 18:59:05 GMT 50.600006 -0.845947 37,100 353 416 -1088
2022-01-11 18:59:04 GMT 50.596649 -0.845205 37,150 354 417 -1088
2022-01-11 18:59:01 GMT 50.593048 -0.844502 37,175 354 417 -1088
2022-01-11 18:59:00 GMT 50.591480 -0.844240 37,200 355 417 -1088
2022-01-11 18:58:58 GMT 50.586823 -0.843490 37,225 356 418 -1024
2022-01-11 18:58:56 GMT 50.580826 -0.842695 37,275 357 419 -1024
2022-01-11 18:58:55 GMT 50.580826 -0.842695 37,275 357 419 -1088
2022-01-11 18:58:53 GMT 50.577667 -0.842406 37,300 357 419 -1088
2022-01-11 18:58:52 GMT 50.575886 -0.842161 37,350 357 419 -1088
2022-01-11 18:58:51 GMT 50.572025 -0.841790 37,350 357 420 -1088
2022-01-11 18:58:48 GMT 50.567001 -0.841249 37,400 358 421 -1088
2022-01-11 18:58:46 GMT 50.563271 -0.840974 37,450 358 422 -1088
2022-01-11 18:58:44 GMT 50.559406 -0.840751 37,450 359 423 -1088
2022-01-11 18:58:42 GMT 50.554611 -0.840677 37,525 1 425 -1024
2022-01-11 18:58:40 GMT 50.552444 -0.840671 37,525 1 425 -1024
2022-01-11 18:58:38 GMT 50.547539 -0.840974 37,575 4 427 -1024
2022-01-11 18:58:36 GMT 50.543255 -0.841419 37,625 4 427 -1024
2022-01-11 18:58:35 GMT 50.542137 -0.841568 37,625 6 429 -960
2022-01-11 18:58:34 GMT 50.539902 -0.841939 37,650 6 429 -896
2022-01-11 18:58:33 GMT 50.537888 -0.842333 37,650 7 428 -896
2022-01-11 18:58:32 GMT 50.534088 -0.843201 37,700 10 430 -832
2022-01-11 18:58:30 GMT 50.531849 -0.843795 37,700 10 430 -832
2022-01-11 18:58:29 GMT 50.528000 -0.845008 37,725 12 430 -768
2022-01-11 18:58:27 GMT 50.525986 -0.845730 37,750 15 431 -704
2022-01-11 18:58:26 GMT 50.524246 -0.846525 37,750 16 431 -704
2022-01-11 18:58:25 GMT 50.522400 -0.847358 37,775 16 431 -704
2022-01-11 18:58:23 GMT 50.518387 -0.849344 37,800 20 432 -640
2022-01-11 18:58:22 GMT 50.516766 -0.850327 37,825 22 433 -704
2022-01-11 18:58:21 GMT 50.513214 -0.852525 37,825 23 433 -768
2022-01-11 18:58:19 GMT 50.511108 -0.853898 37,850 24 433 -832
2022-01-11 18:58:18 GMT 50.509365 -0.855152 37,850 24 433 -832
2022-01-11 18:58:17 GMT 50.507629 -0.856355 37,875 25 433 -896
2022-01-11 18:58:15 GMT 50.503418 -0.859536 37,900 25 432 -896
2022-01-11 18:58:14 GMT 50.501816 -0.860764 37,925 25 432 -896
2022-01-11 18:58:12 GMT 50.496143 -0.865025 37,950 25 432 -896
2022-01-11 18:58:11 GMT 50.496143 -0.865025 37,975 25 431 -896
2022-01-11 18:58:10 GMT 50.494354 -0.866402 38,000 25 431 -896
2022-01-11 18:58:08 GMT 50.488834 -0.870592 38,025 25 430 -896
2022-01-11 18:58:05 GMT 50.486160 -0.872690 38,050 25 429 -960
2022-01-11 18:58:02 GMT 50.480038 -0.877347 38,100 25 429 -960
2022-01-11 18:58:01 GMT 50.476452 -0.880094 38,125 26 428 -896
2022-01-11 18:57:58 GMT 50.472748 -0.882882 38,150 25 428 -896
2022-01-11 18:57:56 GMT 50.469955 -0.885050 38,200 26 427 -960
2022-01-11 18:57:54 GMT 50.467140 -0.887146 38,225 26 427 -960
2022-01-11 18:57:53 GMT 50.464554 -0.889098 38,250 26 426 -960
2022-01-11 18:57:52 GMT 50.462627 -0.890635 38,250 26 426 -960
2022-01-11 18:57:50 GMT 50.457504 -0.894591 38,300 26 425 -960
2022-01-11 18:57:48 GMT 50.455536 -0.896036 38,325 26 425 -960
2022-01-11 18:57:46 GMT 50.450500 -0.899939 38,350 26 425 -960
2022-01-11 18:57:44 GMT 50.448753 -0.901250 38,400 26 425 -896
2022-01-11 18:57:42 GMT 50.442764 -0.905866 38,425 26 424 -896
2022-01-11 18:57:40 GMT 50.441025 -0.907239 38,450 26 423 -896
2022-01-11 18:57:38 GMT 50.436447 -0.910709 38,475 26 423 -896
2022-01-11 18:57:36 GMT 50.434570 -0.912154 38,525 26 423 -960
2022-01-11 18:57:34 GMT 50.429352 -0.916130 38,550 26 422 -960
2022-01-11 18:57:32 GMT 50.427521 -0.917575 38,575 26 422 -960
2022-01-11 18:57:31 GMT 50.425289 -0.919214 38,575 26 421 -896
2022-01-11 18:57:29 GMT 50.421844 -0.921912 38,625 26 421 -896
2022-01-11 18:57:27 GMT 50.415115 -0.927116 38,650 26 420 -896
2022-01-11 18:57:25 GMT 50.415115 -0.927116 38,675 26 420 -896
2022-01-11 18:57:23 GMT 50.411278 -0.930052 38,700 26 420 -896
2022-01-11 18:57:21 GMT 50.408810 -0.931982 38,725 26 419 -896
2022-01-11 18:57:19 GMT 50.404762 -0.935100 38,775 26 419 -832
2022-01-11 18:57:16 GMT 50.399223 -0.939331 38,800 26 418 -832
2022-01-11 18:57:14 GMT 50.392776 -0.944318 38,850 26 416 -896
2022-01-11 18:57:12 GMT 50.392776 -0.944318 38,850 26 416 -896
2022-01-11 18:57:10 GMT 50.388653 -0.947497 38,900 26 415 -896
2022-01-11 18:57:07 GMT 50.384033 -0.951040 38,950 26 413 -896
2022-01-11 18:57:05 GMT 50.380417 -0.953859 38,975 26 413 -896
2022-01-11 18:57:03 GMT 50.377064 -0.956404 39,025 26 411 -896
2022-01-11 18:57:01 GMT 50.374550 -0.958409 39,050 26 411 -896
2022-01-11 18:56:59 GMT 50.370358 -0.961601 39,075 26 409 -896
2022-01-11 18:56:57 GMT 50.367241 -0.963976 39,100 26 409 -896
2022-01-11 18:56:55 GMT 50.363571 -0.966797 39,150 25 408 -960
2022-01-11 18:56:53 GMT 50.360210 -0.969321 39,175 25 407 -960
2022-01-11 18:56:51 GMT 50.356113 -0.972364 39,200 24 407 -960
2022-01-11 18:56:49 GMT 50.353317 -0.974458 39,225 24 405 -960
2022-01-11 18:56:46 GMT 50.348099 -0.978072 39,275 22 405 -896
2022-01-11 18:56:43 GMT 50.342613 -0.981643 39,325 21 403 -896
2022-01-11 18:56:41 GMT 50.339310 -0.983648 39,350 19 404 -896
2022-01-11 18:56:39 GMT 50.335678 -0.985726 39,375 18 403 -960
2022-01-11 18:56:37 GMT 50.332977 -0.987136 39,425 17 404 -1024
2022-01-11 18:56:35 GMT 50.330276 -0.988547 39,450 16 404 -1088
2022-01-11 18:56:33 GMT 50.324924 -0.991145 39,475 15 403 -1088
2022-01-11 18:56:31 GMT 50.322235 -0.992311 39,500 15 404 -1088
2022-01-11 18:56:29 GMT 50.317932 -0.994118 39,550 13 405 -1152
2022-01-11 18:56:27 GMT 50.316032 -0.994857 39,600 6 409 -1152
2022-01-11 18:56:25 GMT 50.306488 -0.998093 39,625 11 406 -1216
2022-01-11 18:56:23 GMT 50.306488 -0.998093 39,675 10 407 -1216
2022-01-11 18:56:20 GMT 50.302395 -0.999310 39,675 9 408 -1216
2022-01-11 18:56:18 GMT 50.299667 -0.999973 39,825 6 410 -1088
2022-01-11 18:56:16 GMT 50.289917 -1.002057 39,800 6 409 -1152
2022-01-11 18:56:14 GMT 50.289917 -1.002057 39,825 6 410 -1088
2022-01-11 18:56:11 GMT 50.284698 -1.002936 39,900 4 410 -960
2022-01-11 18:56:09 GMT 50.281723 -1.003319 39,900 4 410 -960
2022-01-11 18:56:07 GMT 50.276928 -1.003913 39,950 4 409 -704
2022-01-11 18:56:04 GMT 50.271149 -1.004599 39,975 4 409 -320
2022-01-11 18:56:01 GMT 50.266220 -1.005249 40,000 4 409 -64
2022-01-11 18:55:59 GMT 50.261627 -1.005755 40,000 4 409 0
2022-01-11 18:55:56 GMT 50.255814 -1.006478 40,000 4 409 0
2022-01-11 18:55:53 GMT 50.249184 -1.007253 40,000 4 409 0
2022-01-11 18:55:50 GMT 50.246159 -1.007624 40,000 4 409 0
2022-01-11 18:55:48 GMT 50.239975 -1.008357 40,000 4 409 0
2022-01-11 18:55:45 GMT 50.237091 -1.008718 40,000 4 409 0
2022-01-11 18:55:43 GMT 50.227352 -1.009851 40,000 4 409 0
2022-01-11 18:55:41 GMT 50.227352 -1.009851 40,000 4 409 0
2022-01-11 18:55:38 GMT 50.222260 -1.010525 40,000 4 409 0
2022-01-11 18:55:35 GMT 50.217865 -1.011031 40,000 4 409 0
2022-01-11 18:55:33 GMT 50.213245 -1.011559 40,000 4 409 0
2022-01-11 18:55:31 GMT 50.209427 -1.012004 40,000 4 409 0
2022-01-11 18:55:29 GMT 50.206741 -1.012332 40,000 4 410 0
2022-01-11 18:55:27 GMT 50.201839 -1.012969 40,000 4 410 0
2022-01-11 18:55:24 GMT 50.195938 -1.013633 40,000 4 410 0
2022-01-11 18:55:22 GMT 50.192947 -1.014008 40,000 4 410 0
2022-01-11 18:55:20 GMT 50.188660 -1.014501 40,000 4 410 0
2022-01-11 18:55:18 GMT 50.184010 -1.015048 40,000 4 410 0
2022-01-11 18:55:16 GMT 50.182251 -1.015296 40,000 4 410 0
2022-01-11 18:55:14 GMT 50.176483 -1.015946 40,000 4 410 0
2022-01-11 18:55:12 GMT 50.174561 -1.016163 40,000 4 410 0
2022-01-11 18:55:10 GMT 50.170395 -1.016669 40,000 4 410 -64
2022-01-11 18:55:08 GMT 50.166412 -1.017175 40,000 4 410 0
2022-01-11 18:55:05 GMT 50.160828 -1.017825 40,000 4 410 0
2022-01-11 18:55:03 GMT 50.157486 -1.018187 40,000 4 410 0
2022-01-11 18:55:01 GMT 50.152775 -1.018759 40,000 4 411 64
2022-01-11 18:54:59 GMT 50.149982 -1.019130 40,000 4 411 64
2022-01-11 18:54:57 GMT 50.141647 -1.020066 40,000 4 411 64
2022-01-11 18:54:55 GMT 50.141647 -1.020066 40,000 4 411 0
2022-01-11 18:54:52 GMT 50.136250 -1.020689 40,000 4 411 0
2022-01-11 18:54:50 GMT 50.131454 -1.021283 40,000 4 411 0
2022-01-11 18:54:48 GMT 50.128189 -1.021656 40,000 4 412 -64
2022-01-11 18:54:45 GMT 50.120934 -1.022471 40,000 4 412 0
2022-01-11 18:54:42 GMT 50.117023 -1.022916 40,000 4 412 0
2022-01-11 18:54:40 GMT 50.114090 -1.023287 40,000 4 412 0
2022-01-11 18:54:38 GMT 50.109192 -1.023825 40,000 4 412 0
2022-01-11 18:54:35 GMT 50.103699 -1.024475 40,000 4 412 0
2022-01-11 18:54:33 GMT 50.099983 -1.024920 40,000 4 412 0
2022-01-11 18:54:31 GMT 50.095238 -1.025440 40,000 4 412 0
2022-01-11 18:54:29 GMT 50.087814 -1.026282 40,000 4 413 64
2022-01-11 18:54:27 GMT 50.087814 -1.026282 40,000 4 412 0
2022-01-11 18:54:25 GMT 50.083923 -1.026776 40,000 4 412 -64
2022-01-11 18:54:22 GMT 50.079639 -1.027296 40,000 4 412 0
2022-01-11 18:54:20 GMT 50.070889 -1.028335 40,000 4 413 0
2022-01-11 18:54:18 GMT 50.070889 -1.028335 40,000 4 413 64
2022-01-11 18:54:15 GMT 50.065521 -1.028956 40,000 4 413 64
2022-01-11 18:54:12 GMT 50.060089 -1.029671 40,000 4 413 64
2022-01-11 18:54:10 GMT 50.055107 -1.030265 40,000 4 413 0
2022-01-11 18:54:07 GMT 50.050266 -1.030859 40,000 4 414 0
2022-01-11 18:54:05 GMT 50.046341 -1.031342 40,000 4 414 0
2022-01-11 18:54:02 GMT 50.041187 -1.031973 40,000 4 414 0
2022-01-11 18:53:59 GMT 50.035355 -1.032643 40,000 4 414 -64
2022-01-11 18:53:57 GMT 50.030869 -1.033221 40,000 4 414 -64
2022-01-11 18:53:55 GMT 50.027115 -1.033654 40,000 4 414 -64
2022-01-11 18:53:52 GMT 50.022102 -1.034199 40,000 4 414 -64
2022-01-11 18:53:50 GMT 50.019333 -1.034522 40,000 4 414 -64
2022-01-11 18:53:48 GMT 50.013489 -1.035239 40,000 4 414 0
2022-01-11 18:53:45 GMT 50.008041 -1.035907 40,000 4 414 0
2022-01-11 18:53:42 GMT 50.003632 -1.036401 40,000 4 414 0
2022-01-11 18:53:40 GMT 49.998779 -1.036979 40,000 4 414 0
2022-01-11 18:53:38 GMT 49.989189 -1.038134 40,000 4 415 64
2022-01-11 18:53:35 GMT 49.989189 -1.038134 40,000 4 415 64
2022-01-11 18:53:32 GMT 49.983788 -1.038728 40,000 4 415 0
2022-01-11 18:53:29 GMT 49.978809 -1.039321 40,000 4 415 0
2022-01-11 18:53:27 GMT 49.974426 -1.039870 40,000 4 415 0
2022-01-11 18:53:25 GMT 49.969574 -1.040376 40,000 4 415 0
2022-01-11 18:53:22 GMT 49.958000 -1.041771 40,000 4 415 0
2022-01-11 18:53:19 GMT 49.958000 -1.041771 40,000 4 415 0
2022-01-11 18:53:15 GMT 49.950829 -1.042662 40,000 4 416 0
2022-01-11 18:53:13 GMT 49.947712 -1.043033 40,000 4 416 -64
2022-01-11 18:53:11 GMT 49.943619 -1.043484 40,000 4 416 0
2022-01-11 18:53:09 GMT 49.938961 -1.044072 40,000 4 416 0
2022-01-11 18:53:07 GMT 49.935928 -1.044424 40,000 4 416 0
2022-01-11 18:53:05 GMT 49.928391 -1.045334 40,000 4 416 0
2022-01-11 18:53:01 GMT 49.924622 -1.045780 40,000 4 416 0
2022-01-11 18:52:59 GMT 49.919922 -1.046299 40,000 4 416 0
2022-01-11 18:52:56 GMT 49.914185 -1.046954 40,000 4 416 0
2022-01-11 18:52:53 GMT 49.909195 -1.047532 40,000 4 416 0
2022-01-11 18:52:51 GMT 49.906906 -1.047821 40,000 4 416 0
2022-01-11 18:52:49 GMT 49.900509 -1.048526 40,000 4 416 0
2022-01-11 18:52:47 GMT 49.893433 -1.049343 40,000 4 416 0
2022-01-11 18:52:45 GMT 49.889240 -1.049862 40,000 4 416 0
2022-01-11 18:52:43 GMT 49.889240 -1.049862 40,000 4 417 0
2022-01-11 18:52:40 GMT 49.884819 -1.050308 40,000 4 417 0
2022-01-11 18:52:38 GMT 49.879990 -1.050929 40,000 4 417 0
2022-01-11 18:52:36 GMT 49.870480 -1.052015 40,000 4 417 0
2022-01-11 18:52:33 GMT 49.870480 -1.052015 40,000 4 417 0
2022-01-11 18:52:31 GMT 49.867641 -1.052312 40,000 4 417 0
2022-01-11 18:52:29 GMT 49.856934 -1.053574 40,000 4 417 0
2022-01-11 18:52:26 GMT 49.856934 -1.053574 40,000 4 417 64
2022-01-11 18:52:23 GMT 49.851162 -1.054242 40,000 4 417 64
2022-01-11 18:52:21 GMT 49.848461 -1.054613 40,000 4 417 64
2022-01-11 18:52:19 GMT 49.842644 -1.055281 40,000 4 417 0
2022-01-11 18:52:16 GMT 49.836407 -1.056024 40,000 4 417 0
2022-01-11 18:52:13 GMT 49.831558 -1.056567 40,000 4 418 0
2022-01-11 18:52:10 GMT 49.823929 -1.057434 40,000 4 418 0
2022-01-11 18:52:08 GMT 49.823929 -1.057434 40,000 4 418 0
2022-01-11 18:52:06 GMT 49.819042 -1.058028 40,000 4 418 0
2022-01-11 18:52:04 GMT 49.815922 -1.058399 40,000 4 418 0
2022-01-11 18:52:02 GMT 49.807571 -1.059386 40,000 4 418 0
2022-01-11 18:52:00 GMT 49.807571 -1.059386 40,000 4 418 -64
2022-01-11 18:51:58 GMT 49.803635 -1.059819 40,000 4 418 -64
2022-01-11 18:51:56 GMT 49.799469 -1.060325 40,000 4 418 -64
2022-01-11 18:51:53 GMT 49.793518 -1.060976 40,000 4 418 0
2022-01-11 18:51:51 GMT 49.790363 -1.061368 40,000 4 418 0
2022-01-11 18:51:48 GMT 49.784637 -1.062060 40,000 4 418 64
2022-01-11 18:51:46 GMT 49.778355 -1.062779 40,000 4 419 64
2022-01-11 18:51:43 GMT 49.773327 -1.063298 40,000 4 419 0
2022-01-11 18:51:40 GMT 49.768799 -1.063867 40,000 4 419 0
2022-01-11 18:51:38 GMT 49.763855 -1.064445 40,000 4 419 0
2022-01-11 18:51:36 GMT 49.760788 -1.064734 40,000 4 419 0
2022-01-11 18:51:34 GMT 49.757767 -1.065096 40,000 4 419 0
2022-01-11 18:51:32 GMT 49.753006 -1.065674 40,000 4 419 0
2022-01-11 18:51:30 GMT 49.750145 -1.065971 40,000 4 419 0
2022-01-11 18:51:28 GMT 49.745487 -1.066490 40,000 4 419 0
2022-01-11 18:51:26 GMT 49.741470 -1.066975 40,000 4 419 0
2022-01-11 18:51:24 GMT 49.731754 -1.068049 40,000 4 419 0
2022-01-11 18:51:21 GMT 49.731754 -1.068049 40,000 4 419 0
2022-01-11 18:51:19 GMT 49.727463 -1.068565 40,000 4 419 0
2022-01-11 18:51:17 GMT 49.724167 -1.068940 40,000 4 419 0
2022-01-11 18:51:14 GMT 49.718216 -1.069577 40,000 4 419 0
2022-01-11 18:51:12 GMT 49.715744 -1.069866 40,000 4 419 0
2022-01-11 18:51:10 GMT 49.711460 -1.070425 40,000 4 419 0
2022-01-11 18:51:08 GMT 49.707779 -1.070806 40,000 4 420 0
2022-01-11 18:51:06 GMT 49.702801 -1.071390 40,000 4 420 0
2022-01-11 18:51:04 GMT 49.695740 -1.072251 40,000 4 420 0
2022-01-11 18:51:02 GMT 49.695740 -1.072251 40,000 4 420 0
2022-01-11 18:51:00 GMT 49.692047 -1.072726 40,000 4 420 0
2022-01-11 18:50:58 GMT 49.686832 -1.073320 40,000 4 420 64
2022-01-11 18:50:56 GMT 49.683949 -1.073691 40,000 4 420 0
2022-01-11 18:50:54 GMT 49.680038 -1.074130 40,000 4 420 0
2022-01-11 18:50:51 GMT 49.673218 -1.074925 40,000 4 420 0
2022-01-11 18:50:48 GMT 49.667747 -1.075547 40,000 4 420 -64
2022-01-11 18:50:46 GMT 49.663193 -1.076082 40,000 4 420 -64
2022-01-11 18:50:44 GMT 49.661182 -1.076363 40,000 4 420 0
2022-01-11 18:50:42 GMT 49.657150 -1.076805 40,000 4 420 0
2022-01-11 18:50:40 GMT 49.652527 -1.077383 40,000 4 420 0
2022-01-11 18:50:37 GMT 49.645542 -1.078219 40,000 4 420 0
2022-01-11 18:50:34 GMT 49.641129 -1.078756 40,000 4 420 0
2022-01-11 18:50:32 GMT 49.638290 -1.079118 40,000 4 420 0
2022-01-11 18:50:30 GMT 49.633209 -1.079696 40,000 4 420 0
2022-01-11 18:50:28 GMT 49.630096 -1.080130 40,000 4 420 0
2022-01-11 18:50:26 GMT 49.624832 -1.080708 40,000 4 420 0
2022-01-11 18:50:24 GMT 49.621902 -1.081069 40,000 4 420 0
2022-01-11 18:50:22 GMT 49.618961 -1.081411 40,000 4 420 0
2022-01-11 18:50:20 GMT 49.614029 -1.082009 40,000 4 420 0
2022-01-11 18:50:18 GMT 49.611092 -1.082376 40,000 4 420 0
2022-01-11 18:50:16 GMT 49.602432 -1.083415 40,000 4 420 -64
2022-01-11 18:50:14 GMT 49.602432 -1.083415 40,000 4 420 0
2022-01-11 18:50:11 GMT 49.596176 -1.084177 40,000 4 420 0
2022-01-11 18:50:09 GMT 49.592144 -1.084677 40,000 4 420 0
2022-01-11 18:50:06 GMT 49.587399 -1.085197 40,000 4 420 0
2022-01-11 18:50:04 GMT 49.579762 -1.086088 40,000 4 420 0
2022-01-11 18:50:02 GMT 49.579762 -1.086088 40,000 4 420 0
2022-01-11 18:50:00 GMT 49.574966 -1.086681 40,000 4 420 0
2022-01-11 18:49:58 GMT 49.571941 -1.087053 40,000 4 420 0
2022-01-11 18:49:56 GMT 49.567383 -1.087574 40,000 4 420 0
2022-01-11 18:49:54 GMT 49.563236 -1.088018 40,000 4 420 0
2022-01-11 18:49:51 GMT 49.558350 -1.088611 40,000 4 420 0
2022-01-11 18:49:49 GMT 49.553879 -1.089131 40,000 4 420 0
2022-01-11 18:49:47 GMT 49.550667 -1.089502 40,000 4 420 0
2022-01-11 18:49:45 GMT 49.547562 -1.089887 40,000 4 420 0
2022-01-11 18:49:43 GMT 49.542938 -1.090467 40,000 3 419 0
2022-01-11 18:49:40 GMT 49.538315 -1.090971 40,000 3 419 0
2022-01-11 18:49:38 GMT 49.531952 -1.091507 40,000 1 419 0
2022-01-11 18:49:35 GMT 49.526642 -1.091766 40,000 1 419 0
2022-01-11 18:49:33 GMT 49.523762 -1.091878 40,000 0 419 0
2022-01-11 18:49:31 GMT 49.519245 -1.091952 40,000 0 419 0
2022-01-11 18:49:29 GMT 49.516266 -1.091952 40,000 359 419 0
2022-01-11 18:49:27 GMT 49.512821 -1.091878 40,000 356 419 64
2022-01-11 18:49:25 GMT 49.506954 -1.091581 40,000 358 418 64
2022-01-11 18:49:22 GMT 49.501968 -1.091260 40,000 356 419 64
2022-01-11 18:49:19 GMT 49.497116 -1.090754 40,000 356 418 0
2022-01-11 18:49:17 GMT 49.492149 -1.090096 40,000 355 418 0
2022-01-11 18:49:14 GMT 49.487320 -1.089309 40,000 354 418 0
2022-01-11 18:49:12 GMT 49.482468 -1.088463 40,000 353 418 0
2022-01-11 18:49:10 GMT 49.480000 -1.087943 40,000 352 418 -64
2022-01-11 18:49:08 GMT 49.475235 -1.086924 40,000 352 418 0
2022-01-11 18:49:05 GMT 49.469421 -1.085623 40,000 352 418 0
2022-01-11 18:49:03 GMT 49.465485 -1.084755 40,000 353 418 0
2022-01-11 18:49:00 GMT 49.460217 -1.083638 40,000 352 418 -64
2022-01-11 18:48:58 GMT 49.456055 -1.082732 40,000 353 418 0
2022-01-11 18:48:55 GMT 49.449783 -1.081358 40,000 353 418 0
2022-01-11 18:48:53 GMT 49.447510 -1.080891 40,000 352 418 0
2022-01-11 18:48:50 GMT 49.440811 -1.079479 40,000 353 418 0
2022-01-11 18:48:47 GMT 49.436008 -1.078442 40,000 353 418 0
2022-01-11 18:48:45 GMT 49.430283 -1.077180 40,000 353 418 0
2022-01-11 18:48:43 GMT 49.428421 -1.076809 40,000 353 418 0
2022-01-11 18:48:41 GMT 49.424469 -1.075956 40,000 352 418 0
2022-01-11 18:48:39 GMT 49.420395 -1.075040 40,000 352 418 0
2022-01-11 18:48:37 GMT 49.416317 -1.074130 40,000 352 418 0
2022-01-11 18:48:35 GMT 49.411057 -1.073046 40,000 352 418 0
2022-01-11 18:48:33 GMT 49.408173 -1.072364 40,000 352 418 0
2022-01-11 18:48:30 GMT 49.397919 -1.070181 40,000 352 418 64
2022-01-11 18:48:28 GMT 49.392391 -1.068926 40,000 352 417 0
2022-01-11 18:48:25 GMT 49.392391 -1.068926 40,000 352 417 64
2022-01-11 18:48:23 GMT 49.388527 -1.068131 40,000 352 417 0
2022-01-11 18:48:20 GMT 49.378876 -1.066026 40,000 352 417 0
2022-01-11 18:48:18 GMT 49.378876 -1.066026 40,000 352 417 0
2022-01-11 18:48:16 GMT 49.376678 -1.065533 40,000 352 417 0
2022-01-11 18:48:13 GMT 49.370682 -1.064265 40,000 352 417 0
2022-01-11 18:48:10 GMT 49.363762 -1.062710 40,000 352 417 0
2022-01-11 18:48:08 GMT 49.360016 -1.061941 40,000 352 417 0
2022-01-11 18:48:05 GMT 49.355392 -1.060955 40,000 352 417 -64
2022-01-11 18:48:03 GMT 49.351658 -1.060108 40,000 352 417 0
2022-01-11 18:48:01 GMT 49.347839 -1.059265 40,000 352 417 0
2022-01-11 18:47:59 GMT 49.343903 -1.058420 40,000 352 417 0
2022-01-11 18:47:57 GMT 49.339973 -1.057579 40,000 352 417 0
2022-01-11 18:47:55 GMT 49.335983 -1.056659 40,000 352 417 0
2022-01-11 18:47:53 GMT 49.331909 -1.055744 40,000 352 417 0
2022-01-11 18:47:50 GMT 49.325867 -1.054471 40,000 352 417 0
2022-01-11 18:47:48 GMT 49.322235 -1.053676 40,000 353 417 0
2022-01-11 18:47:46 GMT 49.318405 -1.052856 40,000 353 417 0
2022-01-11 18:47:43 GMT 49.309021 -1.050814 40,000 353 417 0
2022-01-11 18:47:41 GMT 49.309021 -1.050814 40,000 353 417 0
2022-01-11 18:47:39 GMT 49.305756 -1.050134 40,000 353 417 0
2022-01-11 18:47:37 GMT 49.300636 -1.048978 40,000 352 416 0
2022-01-11 18:47:34 GMT 49.296165 -1.048038 40,000 352 416 0
2022-01-11 18:47:32 GMT 49.291580 -1.047082 40,000 352 416 0
2022-01-11 18:47:29 GMT 49.286224 -1.045884 40,000 352 416 0
2022-01-11 18:47:27 GMT 49.281734 -1.044930 40,000 352 416 0
2022-01-11 18:47:25 GMT 49.278030 -1.044124 40,000 352 416 0
2022-01-11 18:47:23 GMT 49.274799 -1.043484 40,000 352 416 0
2022-01-11 18:47:21 GMT 49.270660 -1.042574 40,000 352 416 0
2022-01-11 18:47:19 GMT 49.267212 -1.041822 40,000 352 416 0
2022-01-11 18:47:17 GMT 49.262043 -1.040738 40,000 352 416 0
2022-01-11 18:47:14 GMT 49.258163 -1.039898 40,000 352 416 0
2022-01-11 18:47:12 GMT 49.254223 -1.039003 40,000 352 416 0
2022-01-11 18:47:09 GMT 49.248173 -1.037702 40,000 352 416 0
2022-01-11 18:47:07 GMT 49.244339 -1.036870 40,000 352 416 0
2022-01-11 18:47:04 GMT 49.239441 -1.035814 40,000 352 416 0
2022-01-11 18:47:02 GMT 49.234577 -1.034811 40,000 352 416 64
2022-01-11 18:46:59 GMT 49.228455 -1.033490 40,000 352 416 64
2022-01-11 18:46:56 GMT 49.222870 -1.032222 40,000 352 416 0
2022-01-11 18:46:54 GMT 49.219986 -1.031658 40,000 352 416 0
2022-01-11 18:46:52 GMT 49.215538 -1.030691 40,000 352 416 -64
2022-01-11 18:46:49 GMT 49.206135 -1.028667 40,000 352 416 -64
2022-01-11 18:46:47 GMT 49.206135 -1.028667 40,000 352 416 -64
2022-01-11 18:46:45 GMT 49.197430 -1.026716 40,000 352 416 -64
2022-01-11 18:46:42 GMT 49.197430 -1.026716 40,000 352 416 -64
2022-01-11 18:46:40 GMT 49.193844 -1.025993 40,000 352 416 0
2022-01-11 18:46:38 GMT 49.189087 -1.024968 40,000 352 416 -64
2022-01-11 18:46:35 GMT 49.183231 -1.023680 40,000 352 416 -64
2022-01-11 18:46:32 GMT 49.176712 -1.022234 40,000 352 415 0
2022-01-11 18:46:29 GMT 49.168076 -1.020320 40,000 352 415 0
2022-01-11 18:46:27 GMT 49.168076 -1.020320 40,000 352 415 0
2022-01-11 18:46:25 GMT 49.159256 -1.018404 40,000 352 415 0
2022-01-11 18:46:22 GMT 49.159256 -1.018404 40,000 352 415 0
2022-01-11 18:46:19 GMT 49.149155 -1.016235 40,000 352 415 0
2022-01-11 18:46:17 GMT 49.149155 -1.016235 40,000 352 415 0
2022-01-11 18:46:14 GMT 49.142311 -1.014718 40,000 352 415 0
2022-01-11 18:46:11 GMT 49.137657 -1.013706 40,000 352 416 0
2022-01-11 18:46:09 GMT 49.133884 -1.012911 40,000 352 416 0
2022-01-11 18:46:06 GMT 49.128571 -1.011799 40,000 352 416 0
2022-01-11 18:46:04 GMT 49.120972 -1.010179 40,000 353 415 0
2022-01-11 18:46:02 GMT 49.120972 -1.010179 40,000 353 415 0
2022-01-11 18:45:59 GMT 49.114380 -1.008791 40,000 352 416 0
2022-01-11 18:45:57 GMT 49.111313 -1.008136 40,000 352 415 64
2022-01-11 18:45:54 GMT 49.104977 -1.006767 40,000 352 415 64
2022-01-11 18:45:52 GMT 49.101997 -1.006116 40,000 352 415 64
2022-01-11 18:45:49 GMT 49.097061 -1.005032 40,000 352 415 0
2022-01-11 18:45:47 GMT 49.091217 -1.003770 40,000 352 415 0
2022-01-11 18:45:43 GMT 49.085331 -1.002575 40,000 352 415 0
2022-01-11 18:45:40 GMT 49.078903 -1.001164 40,000 353 414 0
2022-01-11 18:45:38 GMT 49.076347 -1.000623 40,000 353 414 0
2022-01-11 18:45:36 GMT 49.071579 -0.999615 40,000 353 414 0
2022-01-11 18:45:33 GMT 49.066525 -0.998599 40,000 353 414 0
2022-01-11 18:45:31 GMT 49.062103 -0.997643 40,000 353 414 0
2022-01-11 18:45:29 GMT 49.052235 -0.995564 40,000 353 414 0
2022-01-11 18:45:27 GMT 49.052235 -0.995564 40,000 352 415 64
2022-01-11 18:45:24 GMT 49.049240 -0.994897 40,000 353 414 0
2022-01-11 18:45:22 GMT 49.037941 -0.992528 40,000 353 414 64
2022-01-11 18:45:19 GMT 49.037941 -0.992528 40,000 352 415 64
2022-01-11 18:45:17 GMT 49.035381 -0.992022 40,000 352 415 64
2022-01-11 18:45:15 GMT 49.031662 -0.991164 40,000 352 415 0
2022-01-11 18:45:12 GMT 49.024952 -0.989781 40,000 352 415 -128
2022-01-11 18:45:10 GMT 49.021881 -0.989131 40,000 352 415 -128
2022-01-11 18:45:07 GMT 49.016327 -0.987924 40,000 352 415 -128
2022-01-11 18:45:04 GMT 49.010662 -0.986673 40,000 353 414 0
2022-01-11 18:45:02 GMT 49.006760 -0.985882 40,000 353 414 64
2022-01-11 18:45:00 GMT 49.002655 -0.985011 40,000 352 415 64
2022-01-11 18:44:57 GMT 48.997650 -0.983981 40,000 352 415 64
2022-01-11 18:44:55 GMT 48.993855 -0.983132 40,000 352 415 64
2022-01-11 18:44:53 GMT 48.989182 -0.982150 40,000 352 415 0
2022-01-11 18:44:50 GMT 48.983150 -0.980819 40,000 352 415 0
2022-01-11 18:44:47 GMT 48.975887 -0.979301 40,000 352 415 0
2022-01-11 18:44:44 GMT 48.972816 -0.978651 40,000 352 415 0
2022-01-11 18:44:41 GMT 48.961029 -0.976093 40,000 352 415 0
2022-01-11 18:44:38 GMT 48.961029 -0.976093 40,000 352 415 0
2022-01-11 18:44:36 GMT 48.957684 -0.975398 40,000 352 415 0
2022-01-11 18:44:33 GMT 48.948303 -0.973346 40,000 352 415 0
2022-01-11 18:44:31 GMT 48.948303 -0.973346 40,000 352 415 0
2022-01-11 18:44:28 GMT 48.942741 -0.972145 40,000 352 415 0
2022-01-11 18:44:26 GMT 48.937111 -0.970917 40,000 352 415 0
2022-01-11 18:44:23 GMT 48.927567 -0.968910 40,000 352 415 0
2022-01-11 18:44:20 GMT 48.927567 -0.968910 40,000 352 415 0
2022-01-11 18:44:17 GMT 48.921329 -0.967592 40,000 352 415 0
2022-01-11 18:44:14 GMT 48.915649 -0.966363 40,000 352 415 0
2022-01-11 18:44:12 GMT 48.911739 -0.965568 40,000 352 416 64
2022-01-11 18:44:09 GMT 48.905731 -0.964262 40,000 352 416 64
2022-01-11 18:44:07 GMT 48.902298 -0.963557 40,000 352 416 0
2022-01-11 18:44:04 GMT 48.896393 -0.962290 40,000 353 415 0
2022-01-11 18:44:01 GMT 48.891678 -0.961304 40,000 353 415 64
2022-01-11 18:43:59 GMT 48.886646 -0.960220 40,000 352 416 0
2022-01-11 18:43:57 GMT 48.883015 -0.959497 40,000 353 415 0
2022-01-11 18:43:54 GMT 48.876938 -0.958205 40,000 352 416 0
2022-01-11 18:43:52 GMT 48.875015 -0.957782 40,000 352 416 0
2022-01-11 18:43:50 GMT 48.870117 -0.956726 40,000 353 417 0
2022-01-11 18:43:47 GMT 48.863277 -0.955305 40,000 353 417 0
2022-01-11 18:43:44 GMT 48.853268 -0.953136 40,000 353 417 0
2022-01-11 18:43:41 GMT 48.848801 -0.952197 40,000 353 417 0
2022-01-11 18:43:39 GMT 48.848801 -0.952197 40,000 353 417 0
2022-01-11 18:43:37 GMT 48.844803 -0.951374 40,000 353 417 0
2022-01-11 18:43:34 GMT 48.838882 -0.950101 40,000 353 417 0
2022-01-11 18:43:32 GMT 48.835098 -0.949261 40,000 353 417 0
2022-01-11 18:43:30 GMT 48.832901 -0.948838 40,000 353 417 0
2022-01-11 18:43:28 GMT 48.823849 -0.946920 40,000 353 417 0
2022-01-11 18:43:26 GMT 48.823849 -0.946920 40,000 353 417 0
2022-01-11 18:43:23 GMT 48.818161 -0.945669 40,000 353 417 0
2022-01-11 18:43:21 GMT 48.815369 -0.945106 40,000 353 417 0
2022-01-11 18:43:19 GMT 48.811371 -0.944246 40,000 353 417 0
2022-01-11 18:43:17 GMT 48.806576 -0.943234 40,000 353 417 0
2022-01-11 18:43:14 GMT 48.801876 -0.942222 40,000 353 417 -64
2022-01-11 18:43:11 GMT 48.795593 -0.940880 40,000 353 417 0
2022-01-11 18:43:08 GMT 48.789772 -0.939692 40,000 353 417 0
2022-01-11 18:43:06 GMT 48.787350 -0.939186 40,000 353 417 0
2022-01-11 18:43:04 GMT 48.782181 -0.938063 40,000 353 417 0
2022-01-11 18:43:01 GMT 48.770508 -0.935599 40,000 353 417 0
2022-01-11 18:42:58 GMT 48.770508 -0.935599 40,000 353 417 64
2022-01-11 18:42:56 GMT 48.767761 -0.935035 40,000 353 417 64
2022-01-11 18:42:53 GMT 48.762131 -0.933838 40,000 353 418 0
2022-01-11 18:42:51 GMT 48.756996 -0.932754 40,000 353 418 0
2022-01-11 18:42:47 GMT 48.744370 -0.930035 40,000 353 418 0
2022-01-11 18:42:44 GMT 48.744370 -0.930035 40,000 353 418 0
2022-01-11 18:42:41 GMT 48.738518 -0.928778 40,000 353 418 0
2022-01-11 18:42:38 GMT 48.733383 -0.927711 40,000 352 418 0
2022-01-11 18:42:36 GMT 48.729626 -0.926899 40,000 352 418 0
2022-01-11 18:42:34 GMT 48.724365 -0.925815 40,000 352 418 0
2022-01-11 18:42:31 GMT 48.718498 -0.924514 40,000 352 418 0
2022-01-11 18:42:28 GMT 48.713612 -0.923430 40,000 352 418 64
2022-01-11 18:42:26 GMT 48.710861 -0.922852 40,000 352 418 0
2022-01-11 18:42:23 GMT 48.702297 -0.921045 40,000 353 419 -64
2022-01-11 18:42:20 GMT 48.699459 -0.920466 40,000 353 419 0
2022-01-11 18:42:18 GMT 48.694794 -0.919471 40,000 353 419 0
2022-01-11 18:42:16 GMT 48.691681 -0.918837 40,000 353 419 0
2022-01-11 18:42:14 GMT 48.686050 -0.917570 40,000 353 419 -64
2022-01-11 18:42:11 GMT 48.680187 -0.916346 40,000 353 419 -64
2022-01-11 18:42:09 GMT 48.677032 -0.915668 40,000 353 419 -64
2022-01-11 18:42:07 GMT 48.673157 -0.914901 40,000 353 419 -64
2022-01-11 18:42:04 GMT 48.665337 -0.913239 40,000 353 419 64
2022-01-11 18:42:01 GMT 48.662750 -0.912640 40,000 353 419 64
2022-01-11 18:41:58 GMT 48.655838 -0.911231 40,000 353 419 64
2022-01-11 18:41:56 GMT 48.650112 -0.909986 40,000 353 419 64
2022-01-11 18:41:53 GMT 48.647278 -0.909400 40,000 353 418 0
2022-01-11 18:41:51 GMT 48.638672 -0.907640 40,000 353 420 0
2022-01-11 18:41:49 GMT 48.638672 -0.907640 40,000 353 420 0
2022-01-11 18:41:47 GMT 48.634232 -0.906724 40,000 353 420 0
2022-01-11 18:41:43 GMT 48.627457 -0.905316 40,000 353 420 0
2022-01-11 18:41:40 GMT 48.622009 -0.904118 40,000 353 420 0
2022-01-11 18:41:38 GMT 48.617249 -0.903133 40,000 353 420 0
2022-01-11 18:41:36 GMT 48.614128 -0.902469 40,000 353 420 -64
2022-01-11 18:41:33 GMT 48.608215 -0.901240 40,000 353 420 -64
2022-01-11 18:41:31 GMT 48.603748 -0.900301 40,000 353 420 -64
2022-01-11 18:41:29 GMT 48.597290 -0.898977 40,000 353 420 -64
2022-01-11 18:41:25 GMT 48.594437 -0.898349 40,000 353 420 0
2022-01-11 18:41:23 GMT 48.589188 -0.897287 40,000 353 420 64
2022-01-11 18:41:21 GMT 48.585342 -0.896442 40,000 353 420 64
2022-01-11 18:41:18 GMT 48.579208 -0.895174 40,000 352 420 64
2022-01-11 18:41:15 GMT 48.575134 -0.894329 40,000 352 420 0
2022-01-11 18:41:13 GMT 48.569183 -0.893062 40,000 352 420 0
2022-01-11 18:41:10 GMT 48.564697 -0.892076 40,000 352 420 0
2022-01-11 18:41:08 GMT 48.559616 -0.890977 40,000 353 420 0
2022-01-11 18:41:06 GMT 48.556915 -0.890399 40,000 353 420 0
2022-01-11 18:41:03 GMT 48.550095 -0.888977 40,000 353 420 0
2022-01-11 18:41:00 GMT 48.545837 -0.888132 40,000 353 420 0
2022-01-11 18:40:58 GMT 48.540985 -0.887076 40,000 353 420 0
2022-01-11 18:40:55 GMT 48.535446 -0.885878 40,000 353 420 0
2022-01-11 18:40:52 GMT 48.529678 -0.884681 40,000 353 420 0
2022-01-11 18:40:49 GMT 48.523132 -0.883343 40,000 353 420 0
2022-01-11 18:40:47 GMT 48.517067 -0.882087 40,000 353 420 0
2022-01-11 18:40:45 GMT 48.517067 -0.882087 40,000 353 420 0
2022-01-11 18:40:42 GMT 48.510040 -0.880641 40,000 353 420 64
2022-01-11 18:40:39 GMT 48.505150 -0.879629 40,000 353 420 64
2022-01-11 18:40:36 GMT 48.491226 -0.876793 40,000 353 421 0
2022-01-11 18:40:33 GMT 48.491226 -0.876793 40,000 353 420 -64
2022-01-11 18:40:30 GMT 48.487370 -0.876015 40,000 353 420 -64
2022-01-11 18:40:28 GMT 48.482758 -0.875075 40,000 353 420 -64
2022-01-11 18:40:26 GMT 48.479687 -0.874425 40,000 353 420 0
2022-01-11 18:40:23 GMT 48.473869 -0.873269 40,000 353 421 0
2022-01-11 18:40:21 GMT 48.469757 -0.872427 40,000 353 421 0
2022-01-11 18:40:19 GMT 48.466045 -0.871678 40,000 353 421 0
2022-01-11 18:40:16 GMT 48.459595 -0.870385 40,000 353 421 0
2022-01-11 18:40:13 GMT 48.455063 -0.869399 40,000 353 422 0
2022-01-11 18:40:11 GMT 48.450314 -0.868426 40,000 353 422 -64
2022-01-11 18:40:08 GMT 48.444351 -0.867216 40,000 353 422 -64
2022-01-11 18:40:06 GMT 48.441235 -0.866619 40,000 353 422 0
2022-01-11 18:40:03 GMT 48.434998 -0.865318 40,000 353 423 64
2022-01-11 18:40:00 GMT 48.426178 -0.863483 40,000 353 423 64
2022-01-11 18:39:58 GMT 48.426178 -0.863483 40,000 353 425 64
2022-01-11 18:39:56 GMT 48.421280 -0.862497 40,000 353 425 64
2022-01-11 18:39:53 GMT 48.410931 -0.860331 40,000 353 425 0
2022-01-11 18:39:51 GMT 48.410931 -0.860331 40,000 353 425 0
2022-01-11 18:39:49 GMT 48.408230 -0.859752 40,000 353 425 0
2022-01-11 18:39:47 GMT 48.404087 -0.858885 40,000 353 425 0
2022-01-11 18:39:45 GMT 48.399197 -0.857873 40,000 353 425 0
2022-01-11 18:39:42 GMT 48.395569 -0.857078 40,000 353 426 0
2022-01-11 18:39:40 GMT 48.390060 -0.855948 40,000 353 426 0
2022-01-11 18:39:38 GMT 48.385883 -0.855054 40,000 353 426 0
2022-01-11 18:39:35 GMT 48.380173 -0.853835 40,000 353 426 0
2022-01-11 18:39:33 GMT 48.377411 -0.853247 40,000 353 427 0
2022-01-11 18:39:30 GMT 48.370895 -0.851874 40,000 353 427 0
2022-01-11 18:39:28 GMT 48.367950 -0.851300 40,000 353 427 0
2022-01-11 18:39:26 GMT 48.361908 -0.850032 40,000 353 427 -64
2022-01-11 18:39:23 GMT 48.355682 -0.848694 40,000 353 427 -64
2022-01-11 18:39:20 GMT 48.351059 -0.847778 40,000 353 428 0
2022-01-11 18:39:17 GMT 48.346966 -0.846887 40,000 353 428 64
2022-01-11 18:39:15 GMT 48.342262 -0.845947 40,000 353 428 64
2022-01-11 18:39:13 GMT 48.337749 -0.844935 40,000 353 428 64
2022-01-11 18:39:10 GMT 48.332520 -0.843905 40,000 353 428 0
2022-01-11 18:39:08 GMT 48.322292 -0.841755 40,000 352 428 0
2022-01-11 18:39:05 GMT 48.322292 -0.841755 40,000 352 428 0
2022-01-11 18:39:02 GMT 48.316475 -0.840526 40,000 352 428 0
2022-01-11 18:39:00 GMT 48.311401 -0.839442 40,000 352 428 -64
2022-01-11 18:38:58 GMT 48.307434 -0.838623 40,000 352 428 -64
2022-01-11 18:38:55 GMT 48.302902 -0.837637 40,000 352 428 0
2022-01-11 18:38:53 GMT 48.297855 -0.836623 40,000 352 428 0
2022-01-11 18:38:50 GMT 48.291733 -0.835313 40,000 352 428 0
2022-01-11 18:38:48 GMT 48.289009 -0.834744 40,000 352 428 0
2022-01-11 18:38:45 GMT 48.282818 -0.833443 40,000 352 428 0
2022-01-11 18:38:42 GMT 48.271362 -0.831017 40,000 352 428 0
2022-01-11 18:38:39 GMT 48.271362 -0.831017 40,000 352 428 0
2022-01-11 18:38:37 GMT 48.268200 -0.830335 40,000 352 428 0
2022-01-11 18:38:35 GMT 48.263123 -0.829327 40,000 352 428 0
2022-01-11 18:38:33 GMT 48.258938 -0.828456 40,000 352 428 0
2022-01-11 18:38:29 GMT 48.250790 -0.826721 40,000 352 428 0
2022-01-11 18:38:25 GMT 48.244133 -0.825348 40,000 352 428 0
2022-01-11 18:38:23 GMT 48.237568 -0.823902 40,000 352 428 0
2022-01-11 18:38:18 GMT 48.231491 -0.822637 40,000 352 428 0
2022-01-11 18:38:15 GMT 48.219635 -0.820172 40,000 352 428 0
2022-01-11 18:38:13 GMT 48.219635 -0.820172 40,000 352 428 0
2022-01-11 18:38:09 GMT 48.212494 -0.818622 40,000 352 428 0
2022-01-11 18:38:06 GMT 48.205959 -0.817253 40,000 352 427 0
2022-01-11 18:38:04 GMT 48.203167 -0.816674 40,000 352 427 0
2022-01-11 18:38:02 GMT 48.193855 -0.814651 40,000 352 427 0
2022-01-11 18:38:00 GMT 48.193855 -0.814651 40,000 352 427 0
2022-01-11 18:37:57 GMT 48.188736 -0.813567 40,000 352 427 0
2022-01-11 18:37:55 GMT 48.185013 -0.812771 40,000 352 427 0
2022-01-11 18:37:52 GMT 48.179379 -0.811615 40,000 352 427 -64
2022-01-11 18:37:48 GMT 48.171158 -0.809819 40,000 353 427 -64
2022-01-11 18:37:45 GMT 48.164528 -0.808435 40,000 353 427 0
2022-01-11 18:37:42 GMT 48.160217 -0.807564 40,025 353 427 0
2022-01-11 18:37:40 GMT 48.156101 -0.806720 40,025 353 426 0
2022-01-11 18:37:37 GMT 48.148144 -0.805030 40,000 353 426 0
2022-01-11 18:37:34 GMT 48.144230 -0.804256 40,000 353 425 0
2022-01-11 18:37:32 GMT 48.140259 -0.803444 40,000 353 425 0
2022-01-11 18:37:30 GMT 48.135803 -0.802495 40,000 353 425 0
2022-01-11 18:37:27 GMT 48.126526 -0.800629 40,000 353 425 0
2022-01-11 18:37:25 GMT 48.116718 -0.798692 40,000 353 425 0
2022-01-11 18:37:22 GMT 48.116718 -0.798692 40,000 353 425 0
2022-01-11 18:37:19 GMT 48.114532 -0.798199 40,000 353 425 0
2022-01-11 18:37:17 GMT 48.110916 -0.797470 40,000 353 425 0
2022-01-11 18:37:14 GMT 48.105286 -0.796371 40,000 353 424 0
2022-01-11 18:37:12 GMT 48.100067 -0.795273 40,000 353 424 0
2022-01-11 18:37:09 GMT 48.095165 -0.794255 40,000 353 424 64
2022-01-11 18:37:07 GMT 48.088230 -0.792847 40,000 353 424 0
2022-01-11 18:37:05 GMT 48.088230 -0.792847 40,000 353 424 0
2022-01-11 18:37:03 GMT 48.083450 -0.791908 40,000 353 424 0
2022-01-11 18:37:01 GMT 48.079239 -0.791016 40,000 353 424 -64
2022-01-11 18:36:58 GMT 48.073006 -0.789748 40,000 353 424 -64
2022-01-11 18:36:54 GMT 48.066025 -0.788339 40,000 353 424 0
2022-01-11 18:36:52 GMT 48.060997 -0.787283 40,000 353 424 0
2022-01-11 18:36:49 GMT 48.052368 -0.785591 40,000 353 424 0
2022-01-11 18:36:44 GMT 48.047287 -0.784561 40,000 353 423 64
2022-01-11 18:36:42 GMT 48.043167 -0.783737 40,000 353 423 64
2022-01-11 18:36:40 GMT 48.037209 -0.782565 40,000 353 423 64
2022-01-11 18:36:37 GMT 48.033623 -0.781860 40,000 353 423 64
2022-01-11 18:36:35 GMT 48.025661 -0.780311 40,000 353 423 64
2022-01-11 18:36:33 GMT 48.025661 -0.780311 40,000 353 423 64
2022-01-11 18:36:29 GMT 48.013790 -0.777917 40,000 353 423 0
2022-01-11 18:36:25 GMT 48.009842 -0.777145 40,000 353 423 -64
2022-01-11 18:36:23 GMT 48.005878 -0.776367 40,000 353 423 -64
2022-01-11 18:36:20 GMT 47.999771 -0.775085 40,000 353 423 0
2022-01-11 18:36:18 GMT 47.995743 -0.774261 40,000 353 423 0
2022-01-11 18:36:15 GMT 47.990704 -0.773268 40,000 353 423 0
2022-01-11 18:36:11 GMT 47.983162 -0.771719 40,000 353 423 0
2022-01-11 18:36:08 GMT 47.976364 -0.770311 40,000 353 422 0
2022-01-11 18:36:05 GMT 47.970730 -0.769184 40,000 353 422 0
2022-01-11 18:36:03 GMT 47.960678 -0.767120 40,000 353 422 64
2022-01-11 18:36:00 GMT 47.960678 -0.767120 40,000 353 422 64
2022-01-11 18:35:58 GMT 47.956440 -0.766226 40,000 353 422 0
2022-01-11 18:35:55 GMT 47.946259 -0.764099 40,000 353 422 -64
2022-01-11 18:35:52 GMT 47.946259 -0.764099 40,000 353 422 -64
2022-01-11 18:35:49 GMT 47.940193 -0.762846 40,000 353 422 -64
2022-01-11 18:35:47 GMT 47.936420 -0.762071 40,000 353 422 -64
2022-01-11 18:35:44 GMT 47.929504 -0.760666 40,000 353 422 0
2022-01-11 18:35:40 GMT 47.922874 -0.759324 40,000 353 424 0
2022-01-11 18:35:37 GMT 47.916412 -0.757988 40,000 353 424 0
2022-01-11 18:35:34 GMT 47.910633 -0.756789 40,000 353 424 0
2022-01-11 18:35:30 GMT 47.903000 -0.755169 40,000 353 424 0
2022-01-11 18:35:27 GMT 47.897964 -0.754143 40,000 353 424 0
2022-01-11 18:35:25 GMT 47.892746 -0.753044 40,000 353 424 -64
2022-01-11 18:35:23 GMT 47.889591 -0.752352 40,000 353 424 -64
2022-01-11 18:35:21 GMT 47.885216 -0.751437 40,000 353 424 -64
2022-01-11 18:35:18 GMT 47.879974 -0.750366 40,000 353 424 -64
2022-01-11 18:35:15 GMT 47.869900 -0.748268 40,000 353 424 0
2022-01-11 18:35:11 GMT 47.864182 -0.747070 40,000 353 424 0
2022-01-11 18:35:08 GMT 47.860355 -0.746296 40,000 353 424 0
2022-01-11 18:35:05 GMT 47.853836 -0.744942 40,000 353 424 0
2022-01-11 18:35:01 GMT 47.842854 -0.742634 40,000 353 423 64
2022-01-11 18:34:58 GMT 47.840927 -0.742264 40,000 353 424 64
2022-01-11 18:34:55 GMT 47.834702 -0.740959 40,000 353 423 64
2022-01-11 18:34:53 GMT 47.831215 -0.740239 40,000 353 423 0
2022-01-11 18:34:49 GMT 47.822800 -0.738556 40,000 353 423 0
2022-01-11 18:34:46 GMT 47.817856 -0.737526 40,000 353 423 0
2022-01-11 18:34:43 GMT 47.811615 -0.736225 40,000 353 423 0
2022-01-11 18:34:41 GMT 47.808914 -0.735732 40,000 353 423 0
2022-01-11 18:34:38 GMT 47.802773 -0.734464 40,000 353 423 0
2022-01-11 18:34:36 GMT 47.799606 -0.733830 40,000 353 423 0
2022-01-11 18:34:33 GMT 47.792313 -0.732307 40,000 353 423 0
2022-01-11 18:34:31 GMT 47.788666 -0.731577 40,000 353 423 0
2022-01-11 18:34:27 GMT 47.781033 -0.730027 40,000 353 423 0
2022-01-11 18:34:25 GMT 47.769020 -0.727563 40,000 353 423 0
2022-01-11 18:34:22 GMT 47.769020 -0.727563 40,000 353 423 64
2022-01-11 18:34:18 GMT 47.762787 -0.726334 40,000 353 423 64
2022-01-11 18:34:13 GMT 47.753769 -0.724480 40,000 353 423 0
2022-01-11 18:34:10 GMT 47.748909 -0.723478 40,000 353 423 0
2022-01-11 18:34:07 GMT 47.741913 -0.722076 40,000 353 422 0
2022-01-11 18:34:04 GMT 47.736946 -0.721013 40,000 353 422 0
2022-01-11 18:34:01 GMT 47.731384 -0.719879 40,000 353 422 0
2022-01-11 18:33:57 GMT 47.713257 -0.716171 40,000 353 422 0
2022-01-11 18:33:53 GMT 47.713257 -0.716171 40,000 353 422 0
2022-01-11 18:33:48 GMT 47.705429 -0.714604 40,000 353 422 0
2022-01-11 18:33:46 GMT 47.701401 -0.713768 40,000 353 422 0
2022-01-11 18:33:43 GMT 47.694672 -0.712395 40,000 353 421 0
2022-01-11 18:33:40 GMT 47.690140 -0.711502 40,000 353 421 64
2022-01-11 18:33:36 GMT 47.678894 -0.709252 40,000 353 421 0
2022-01-11 18:33:34 GMT 47.678894 -0.709252 40,000 353 421 0
2022-01-11 18:33:32 GMT 47.674797 -0.708407 40,000 353 421 0
2022-01-11 18:33:30 GMT 47.671646 -0.707794 40,000 353 421 0
2022-01-11 18:33:27 GMT 47.664185 -0.706284 40,000 353 421 0
2022-01-11 18:33:24 GMT 47.652641 -0.703970 40,000 353 421 0
2022-01-11 18:33:21 GMT 47.647659 -0.702984 40,000 353 420 0
2022-01-11 18:33:16 GMT 47.643494 -0.702164 40,000 353 420 0
2022-01-11 18:33:13 GMT 47.636997 -0.700871 40,000 353 420 0
2022-01-11 18:33:08 GMT 47.627270 -0.698899 40,000 353 419 64
2022-01-11 18:33:04 GMT 47.620937 -0.697632 40,000 353 419 64
2022-01-11 18:33:02 GMT 47.616051 -0.696646 40,000 353 419 0
2022-01-11 18:32:59 GMT 47.610855 -0.695641 40,000 353 419 0
2022-01-11 18:32:56 GMT 47.605717 -0.694604 40,000 353 419 0
2022-01-11 18:32:54 GMT 47.601151 -0.693649 40,000 353 419 0
2022-01-11 18:32:51 GMT 47.595428 -0.692482 40,000 353 418 0
2022-01-11 18:32:46 GMT 47.586304 -0.690660 40,000 353 418 0
2022-01-11 18:32:43 GMT 47.581650 -0.689735 40,000 353 418 0
2022-01-11 18:32:41 GMT 47.575874 -0.688547 40,000 353 418 0
2022-01-11 18:32:35 GMT 47.564655 -0.686223 40,000 353 418 0
2022-01-11 18:32:32 GMT 47.559814 -0.685272 40,000 353 418 0
2022-01-11 18:32:30 GMT 47.555054 -0.684242 40,000 353 418 64
2022-01-11 18:32:27 GMT 47.548187 -0.682800 40,000 353 418 0
2022-01-11 18:32:24 GMT 47.544033 -0.681997 40,000 353 418 0
2022-01-11 18:32:22 GMT 47.540405 -0.681221 40,000 353 418 0
2022-01-11 18:32:20 GMT 47.536194 -0.680328 40,000 353 418 0
2022-01-11 18:32:17 GMT 47.530014 -0.679092 40,000 353 417 0
2022-01-11 18:32:14 GMT 47.524200 -0.677925 40,000 353 416 0
2022-01-11 18:32:12 GMT 47.521503 -0.677349 40,000 353 416 0
2022-01-11 18:32:10 GMT 47.517792 -0.676620 40,000 353 415 0
2022-01-11 18:32:07 GMT 47.510925 -0.675247 40,000 353 416 -64
2022-01-11 18:32:04 GMT 47.504509 -0.673969 40,000 353 416 0
2022-01-11 18:32:01 GMT 47.498062 -0.672638 40,000 353 415 0
2022-01-11 18:31:56 GMT 47.490784 -0.671196 40,000 353 415 0
2022-01-11 18:31:54 GMT 47.486618 -0.670441 40,000 353 415 64
2022-01-11 18:31:52 GMT 47.481674 -0.669411 40,000 353 415 64
2022-01-11 18:31:50 GMT 47.479568 -0.668999 40,000 353 415 0
2022-01-11 18:31:47 GMT 47.472839 -0.667694 40,000 353 415 64
2022-01-11 18:31:45 GMT 47.470001 -0.667145 40,000 353 415 0
2022-01-11 18:31:42 GMT 47.462288 -0.665588 40,000 353 415 -64
2022-01-11 18:31:39 GMT 47.457584 -0.664602 40,000 353 415 -64
2022-01-11 18:31:36 GMT 47.452187 -0.663546 40,000 353 415 0
2022-01-11 18:31:34 GMT 47.448486 -0.662819 40,000 353 414 0
2022-01-11 18:31:32 GMT 47.443436 -0.661856 40,000 353 414 0
2022-01-11 18:31:30 GMT 47.441338 -0.661433 40,000 353 414 0
2022-01-11 18:31:27 GMT 47.433746 -0.659935 40,000 353 414 0
2022-01-11 18:31:23 GMT 47.427704 -0.658699 40,000 353 414 0
2022-01-11 18:31:20 GMT 47.421432 -0.657463 40,000 353 414 -64
2022-01-11 18:31:17 GMT 47.416901 -0.656570 40,000 353 414 -64
2022-01-11 18:31:14 GMT 47.409576 -0.655128 40,000 353 413 -64
2022-01-11 18:31:11 GMT 47.405777 -0.654373 40,000 353 413 0
2022-01-11 18:31:09 GMT 47.395386 -0.652382 40,000 353 413 64
2022-01-11 18:31:06 GMT 47.390213 -0.651352 40,000 353 413 128
2022-01-11 18:31:03 GMT 47.390213 -0.651352 40,000 353 413 128
2022-01-11 18:31:01 GMT 47.386414 -0.650597 40,000 353 413 64
2022-01-11 18:30:59 GMT 47.381836 -0.649635 40,000 353 413 -64
2022-01-11 18:30:57 GMT 47.379410 -0.649155 40,000 353 413 -64
2022-01-11 18:30:54 GMT 47.371605 -0.647560 40,000 353 413 -64
2022-01-11 18:30:51 GMT 47.367554 -0.646751 40,000 353 413 -64
2022-01-11 18:30:49 GMT 47.363876 -0.646010 40,000 353 412 0
2022-01-11 18:30:46 GMT 47.357300 -0.644691 40,000 353 412 0
2022-01-11 18:30:43 GMT 47.351715 -0.643524 40,000 353 412 0
2022-01-11 18:30:40 GMT 47.347118 -0.642630 40,000 353 412 64
2022-01-11 18:30:38 GMT 47.341415 -0.641464 40,000 353 412 64
2022-01-11 18:30:33 GMT 47.333942 -0.640024 40,000 353 412 0
2022-01-11 18:30:31 GMT 47.328690 -0.638924 40,000 353 412 0
2022-01-11 18:30:29 GMT 47.324249 -0.638031 40,000 353 412 0
2022-01-11 18:30:26 GMT 47.319351 -0.637070 40,000 353 412 -64
2022-01-11 18:30:23 GMT 47.311661 -0.635490 40,000 353 412 -64
2022-01-11 18:30:20 GMT 47.303593 -0.633897 40,000 353 411 0
2022-01-11 18:30:17 GMT 47.303593 -0.633897 40,000 353 411 0
2022-01-11 18:30:13 GMT 47.295769 -0.632348 40,000 353 411 64
2022-01-11 18:30:10 GMT 47.290043 -0.631221 40,000 353 411 64
2022-01-11 18:30:08 GMT 47.284969 -0.630165 40,000 353 411 64
2022-01-11 18:30:04 GMT 47.279430 -0.629108 40,000 353 411 0
2022-01-11 18:30:01 GMT 47.271790 -0.627525 40,000 353 411 0
2022-01-11 18:29:58 GMT 47.266441 -0.626502 40,000 353 411 0
2022-01-11 18:29:55 GMT 47.260620 -0.625328 40,000 353 411 0
2022-01-11 18:29:51 GMT 47.252617 -0.623756 40,000 353 411 0
2022-01-11 18:29:48 GMT 47.246937 -0.622629 40,000 353 411 0
2022-01-11 18:29:44 GMT 47.240700 -0.621361 40,000 353 411 0
2022-01-11 18:29:40 GMT 47.233250 -0.619882 40,000 353 410 64
2022-01-11 18:29:37 GMT 47.225288 -0.618333 40,000 353 410 64
2022-01-11 18:29:34 GMT 47.222076 -0.617638 40,000 353 410 64
2022-01-11 18:29:30 GMT 47.214676 -0.616150 40,000 353 410 0
2022-01-11 18:29:28 GMT 47.211044 -0.615440 40,000 353 410 -64
2022-01-11 18:29:25 GMT 47.204762 -0.614178 40,000 353 410 -64
2022-01-11 18:29:21 GMT 47.197453 -0.612769 40,000 353 410 -64
2022-01-11 18:29:18 GMT 47.191772 -0.611643 40,000 353 410 -64
2022-01-11 18:29:15 GMT 47.186092 -0.610516 40,000 353 410 64
2022-01-11 18:29:12 GMT 47.175018 -0.608299 40,000 353 410 0
2022-01-11 18:29:09 GMT 47.175018 -0.608299 40,000 353 410 0
2022-01-11 18:29:06 GMT 47.169846 -0.607269 40,000 353 410 64
2022-01-11 18:29:03 GMT 47.164352 -0.606220 40,000 353 410 64
2022-01-11 18:29:00 GMT 47.156952 -0.604741 40,000 353 410 0
2022-01-11 18:28:58 GMT 47.153507 -0.604037 40,000 353 410 0
2022-01-11 18:28:55 GMT 47.147919 -0.602943 40,000 353 410 0
2022-01-11 18:28:50 GMT 47.138489 -0.601089 40,000 353 410 0
2022-01-11 18:28:48 GMT 47.134701 -0.600304 40,000 353 410 0
2022-01-11 18:28:45 GMT 47.125122 -0.598412 40,000 353 410 0
2022-01-11 18:28:43 GMT 47.125122 -0.598412 40,000 353 410 64
2022-01-11 18:28:40 GMT 47.120316 -0.597450 40,000 353 410 -64
2022-01-11 18:28:37 GMT 47.115738 -0.596489 40,000 353 410 -64
2022-01-11 18:28:35 GMT 47.110352 -0.595445 40,000 353 410 0
2022-01-11 18:28:30 GMT 47.101730 -0.593674 40,000 353 410 64
2022-01-11 18:28:27 GMT 47.095829 -0.592487 40,000 353 410 64
2022-01-11 18:28:24 GMT 47.089096 -0.591133 40,000 353 410 0
2022-01-11 18:28:19 GMT 47.079815 -0.589318 40,000 353 410 -64
2022-01-11 18:28:16 GMT 47.074997 -0.588318 40,000 353 410 -64
2022-01-11 18:28:13 GMT 47.060356 -0.585374 40,000 353 410 64
2022-01-11 18:28:08 GMT 47.060356 -0.585374 40,000 353 410 -64
2022-01-11 18:28:06 GMT 47.055084 -0.584335 40,000 353 410 0
2022-01-11 18:28:03 GMT 47.050392 -0.583402 40,000 353 410 0
2022-01-11 18:27:58 GMT 47.040665 -0.581430 40,000 353 410 64
2022-01-11 18:27:55 GMT 47.033913 -0.580092 40,000 353 410 64
2022-01-11 18:27:52 GMT 47.027985 -0.578911 40,000 353 410 64
2022-01-11 18:27:48 GMT 47.022949 -0.577881 40,000 353 410 0
2022-01-11 18:27:45 GMT 47.016357 -0.576645 40,000 353 411 0
2022-01-11 18:27:42 GMT 47.010590 -0.575515 40,000 353 411 -64
2022-01-11 18:27:38 GMT 46.997559 -0.572909 40,000 353 411 0
2022-01-11 18:27:35 GMT 46.997559 -0.572909 40,000 353 411 0
2022-01-11 18:27:31 GMT 46.990898 -0.571571 40,000 353 413 0
2022-01-11 18:27:28 GMT 46.984634 -0.570328 40,000 353 411 0
2022-01-11 18:27:25 GMT 46.977165 -0.568895 40,000 353 411 0
2022-01-11 18:27:22 GMT 46.974327 -0.568331 40,000 353 411 0
2022-01-11 18:27:18 GMT 46.964783 -0.566430 40,000 353 411 0
2022-01-11 18:27:13 GMT 46.957855 -0.565109 40,000 353 411 0
2022-01-11 18:27:09 GMT 46.949844 -0.563461 40,000 353 411 0
2022-01-11 18:27:06 GMT 46.943649 -0.562275 40,000 353 411 0
2022-01-11 18:27:03 GMT 46.935516 -0.560646 40,000 353 411 64
2022-01-11 18:26:58 GMT 46.928520 -0.559317 40,000 353 411 0
2022-01-11 18:26:56 GMT 46.924667 -0.558517 40,000 353 411 64
2022-01-11 18:26:52 GMT 46.917953 -0.557204 40,000 353 411 0
2022-01-11 18:26:47 GMT 46.908970 -0.555443 40,000 353 411 0
2022-01-11 18:26:45 GMT 46.904526 -0.554604 40,000 353 411 0
2022-01-11 18:26:42 GMT 46.890701 -0.551857 40,000 353 411 0
2022-01-11 18:26:38 GMT 46.885666 -0.550896 40,000 353 411 0
2022-01-11 18:26:35 GMT 46.885666 -0.550896 40,000 353 411 0
2022-01-11 18:26:32 GMT 46.879082 -0.549598 40,000 353 411 64
2022-01-11 18:26:28 GMT 46.871338 -0.548080 40,000 353 411 0
2022-01-11 18:26:25 GMT 46.865768 -0.546982 40,000 353 411 0
2022-01-11 18:26:22 GMT 46.860928 -0.546021 40,000 353 411 0
2022-01-11 18:26:18 GMT 46.853073 -0.544493 40,000 353 412 0
2022-01-11 18:26:16 GMT 46.846542 -0.543205 40,000 353 412 64
2022-01-11 18:26:14 GMT 46.846542 -0.543205 40,000 353 412 64
2022-01-11 18:26:11 GMT 46.839935 -0.541948 40,000 353 412 64
2022-01-11 18:26:07 GMT 46.832111 -0.540390 40,000 353 412 0
2022-01-11 18:26:03 GMT 46.824848 -0.538948 40,000 353 412 0
2022-01-11 18:26:00 GMT 46.819748 -0.537928 40,000 353 412 0
2022-01-11 18:25:57 GMT 46.813889 -0.536789 40,000 353 412 0
2022-01-11 18:25:54 GMT 46.807949 -0.535652 40,000 353 412 0
2022-01-11 18:25:51 GMT 46.802223 -0.534485 40,000 353 412 0
2022-01-11 18:25:47 GMT 46.794636 -0.533043 40,000 353 412 64
2022-01-11 18:25:44 GMT 46.788677 -0.531876 40,000 353 413 64
2022-01-11 18:25:41 GMT 46.783264 -0.530827 40,000 353 413 0
2022-01-11 18:25:37 GMT 46.775829 -0.529335 40,000 353 413 0
2022-01-11 18:25:34 GMT 46.769531 -0.528081 40,000 353 413 -64
2022-01-11 18:25:31 GMT 46.764175 -0.527009 40,000 353 413 0
2022-01-11 18:25:28 GMT 46.758682 -0.525937 40,000 353 413 0
2022-01-11 18:25:26 GMT 46.755753 -0.525401 40,000 353 413 0
2022-01-11 18:25:23 GMT 46.748363 -0.523911 40,000 353 413 0
2022-01-11 18:25:20 GMT 46.743008 -0.522881 40,000 353 413 0
2022-01-11 18:25:17 GMT 46.737900 -0.521918 40,000 353 413 0
2022-01-11 18:25:15 GMT 46.734100 -0.521114 40,000 353 413 0
2022-01-11 18:25:11 GMT 46.726250 -0.519585 40,000 353 413 -64
2022-01-11 18:25:06 GMT 46.715240 -0.517496 40,000 353 413 0
2022-01-11 18:25:01 GMT 46.698578 -0.514214 40,000 353 413 0
2022-01-11 18:24:56 GMT 46.698578 -0.514214 40,000 353 413 64
2022-01-11 18:24:51 GMT 46.687286 -0.512032 40,000 353 414 0
2022-01-11 18:24:46 GMT 46.678665 -0.510328 40,000 353 414 0
2022-01-11 18:24:43 GMT 46.674133 -0.509457 40,000 353 414 -64
2022-01-11 18:24:40 GMT 46.668365 -0.508319 40,000 353 414 -64
2022-01-11 18:24:36 GMT 46.659725 -0.506676 40,000 353 414 -64
2022-01-11 18:24:33 GMT 46.654541 -0.505639 40,000 353 414 0
2022-01-11 18:24:30 GMT 46.648460 -0.504478 40,000 353 414 0
2022-01-11 18:24:26 GMT 46.642689 -0.503380 40,000 353 414 0
2022-01-11 18:24:24 GMT 46.638245 -0.502491 40,000 353 414 0
2022-01-11 18:24:21 GMT 46.631058 -0.501084 40,000 353 414 0
2022-01-11 18:24:17 GMT 46.622158 -0.499397 40,000 353 414 0
2022-01-11 18:24:14 GMT 46.616821 -0.498337 40,000 353 414 0
2022-01-11 18:24:11 GMT 46.611450 -0.497269 40,000 353 414 0
2022-01-11 18:24:07 GMT 46.605469 -0.496127 40,000 353 414 -64
2022-01-11 18:24:05 GMT 46.599335 -0.494921 40,000 353 414 -64
2022-01-11 18:24:01 GMT 46.592239 -0.493581 40,000 353 414 0
2022-01-11 18:23:56 GMT 46.584732 -0.492107 40,000 353 414 0
2022-01-11 18:23:53 GMT 46.578964 -0.490968 40,000 353 414 64
2022-01-11 18:23:50 GMT 46.572350 -0.489716 40,000 353 415 64
2022-01-11 18:23:45 GMT 46.563354 -0.487954 40,000 353 415 0
2022-01-11 18:23:42 GMT 46.558430 -0.487038 40,000 353 415 0
2022-01-11 18:23:39 GMT 46.552795 -0.485939 40,000 353 415 0
2022-01-11 18:23:36 GMT 46.539505 -0.483398 40,000 353 415 -64
2022-01-11 18:23:33 GMT 46.539505 -0.483398 40,000 353 415 -64
2022-01-11 18:23:30 GMT 46.534176 -0.482368 40,000 353 415 0
2022-01-11 18:23:27 GMT 46.528030 -0.481201 40,000 353 415 64
2022-01-11 18:23:25 GMT 46.524490 -0.480451 40,000 353 415 64
2022-01-11 18:23:22 GMT 46.518673 -0.479347 40,000 353 415 64
2022-01-11 18:23:19 GMT 46.512955 -0.478240 40,000 353 415 64
2022-01-11 18:23:16 GMT 46.507690 -0.477235 40,000 353 415 64
2022-01-11 18:23:13 GMT 46.495102 -0.474824 40,000 353 415 0
2022-01-11 18:23:10 GMT 46.495102 -0.474824 40,000 353 415 0
2022-01-11 18:23:06 GMT 46.488602 -0.473511 40,000 353 415 0
2022-01-11 18:23:03 GMT 46.482826 -0.472412 40,000 353 415 0
2022-01-11 18:22:58 GMT 46.471344 -0.470201 40,000 353 415 0
2022-01-11 18:22:55 GMT 46.467464 -0.469391 40,000 353 415 0
2022-01-11 18:22:52 GMT 46.456467 -0.467321 40,000 353 415 0
2022-01-11 18:22:49 GMT 46.456467 -0.467321 40,000 353 416 0
2022-01-11 18:22:46 GMT 46.450569 -0.466164 40,000 353 416 -64
2022-01-11 18:22:42 GMT 46.443741 -0.464842 40,000 353 416 0
2022-01-11 18:22:39 GMT 46.436737 -0.463502 40,000 353 416 0
2022-01-11 18:22:35 GMT 46.426498 -0.461494 40,000 353 416 0
2022-01-11 18:22:32 GMT 46.423737 -0.460957 40,000 353 416 0
2022-01-11 18:22:28 GMT 46.417511 -0.459751 40,000 353 416 0
2022-01-11 18:22:25 GMT 46.411331 -0.458545 40,000 353 416 0
2022-01-11 18:22:22 GMT 46.405701 -0.457473 40,000 353 416 0
2022-01-11 18:22:19 GMT 46.392838 -0.454928 40,000 353 416 64
2022-01-11 18:22:16 GMT 46.392838 -0.454928 40,000 353 416 0
2022-01-11 18:22:12 GMT 46.385696 -0.453521 40,000 353 416 0
2022-01-11 18:22:09 GMT 46.379745 -0.452382 40,000 353 416 0
2022-01-11 18:22:06 GMT 46.373104 -0.451057 40,000 353 417 0
2022-01-11 18:22:02 GMT 46.366356 -0.449753 40,000 353 417 0
2022-01-11 18:21:58 GMT 46.359009 -0.448296 40,000 353 417 64
2022-01-11 18:21:54 GMT 46.351227 -0.446822 40,000 353 417 0
2022-01-11 18:21:51 GMT 46.345276 -0.445683 40,000 353 417 0
2022-01-11 18:21:47 GMT 46.338043 -0.444276 40,000 353 417 0
2022-01-11 18:21:44 GMT 46.332001 -0.443161 40,000 353 417 -64
2022-01-11 18:21:40 GMT 46.325180 -0.441798 40,000 353 417 0
2022-01-11 18:21:37 GMT 46.319595 -0.440726 40,000 353 417 64
2022-01-11 18:21:34 GMT 46.312866 -0.439453 40,000 353 417 64
2022-01-11 18:21:31 GMT 46.308289 -0.438582 40,000 353 417 0
2022-01-11 18:21:25 GMT 46.296341 -0.436305 40,000 353 417 -64
2022-01-11 18:21:22 GMT 46.290428 -0.435127 40,000 353 417 0
2022-01-11 18:21:18 GMT 46.283615 -0.433826 40,000 353 417 0
2022-01-11 18:21:15 GMT 46.276928 -0.432518 40,000 353 417 64
2022-01-11 18:21:12 GMT 46.260822 -0.429428 40,000 353 417 0
2022-01-11 18:21:06 GMT 46.260822 -0.429428 40,000 353 417 -64
2022-01-11 18:21:03 GMT 46.254490 -0.428192 40,000 353 417 -64
2022-01-11 18:20:59 GMT 46.245941 -0.426524 40,000 353 417 0
2022-01-11 18:20:56 GMT 46.240479 -0.425446 40,000 353 417 0
2022-01-11 18:20:53 GMT 46.234772 -0.424313 40,000 353 416 64
2022-01-11 18:20:49 GMT 46.226166 -0.422639 40,000 353 417 64
2022-01-11 18:20:47 GMT 46.221207 -0.421669 40,000 353 417 64
2022-01-11 18:20:44 GMT 46.216412 -0.420776 40,000 353 417 -64
2022-01-11 18:20:40 GMT 46.209366 -0.419356 40,000 353 417 -64
2022-01-11 18:20:38 GMT 46.205193 -0.418579 40,000 353 417 -128
2022-01-11 18:20:35 GMT 46.201187 -0.417824 40,000 353 417 -64
2022-01-11 18:20:32 GMT 46.194065 -0.416382 40,000 353 417 0
2022-01-11 18:20:28 GMT 46.187164 -0.415069 40,000 353 416 64
2022-01-11 18:20:25 GMT 46.174793 -0.412674 40,000 353 416 64
2022-01-11 18:20:22 GMT 46.169159 -0.411575 40,000 353 417 0
2022-01-11 18:20:19 GMT 46.169159 -0.411575 40,000 353 417 0
2022-01-11 18:20:15 GMT 46.162689 -0.410339 40,000 353 417 0
2022-01-11 18:20:12 GMT 46.156078 -0.409103 40,000 353 417 -64
2022-01-11 18:20:09 GMT 46.150360 -0.408035 40,000 353 417 0
2022-01-11 18:20:03 GMT 46.139053 -0.405824 40,000 353 417 64
2022-01-11 18:20:00 GMT 46.127792 -0.403748 40,000 353 417 64
2022-01-11 18:19:57 GMT 46.127792 -0.403748 40,000 353 417 64
2022-01-11 18:19:52 GMT 46.118454 -0.401939 40,000 353 417 -128
2022-01-11 18:19:49 GMT 46.111946 -0.400726 40,000 353 417 -128
2022-01-11 18:19:47 GMT 46.106686 -0.399765 40,000 353 417 -64
2022-01-11 18:19:41 GMT 46.096298 -0.397785 40,000 353 417 64
2022-01-11 18:19:39 GMT 46.092407 -0.397049 40,000 353 417 128
2022-01-11 18:19:36 GMT 46.087833 -0.396194 40,000 353 416 0
2022-01-11 18:19:31 GMT 46.077637 -0.394272 40,000 353 417 0
2022-01-11 18:19:28 GMT 46.073502 -0.393498 40,000 353 417 -64
2022-01-11 18:19:24 GMT 46.065308 -0.392024 40,000 353 417 -64
2022-01-11 18:19:21 GMT 46.059063 -0.390839 40,000 353 417 -64
2022-01-11 18:19:18 GMT 46.053524 -0.389809 40,000 353 417 -64
2022-01-11 18:19:14 GMT 46.045052 -0.388161 40,000 353 416 0
2022-01-11 18:19:11 GMT 46.040039 -0.387268 40,000 353 416 0
2022-01-11 18:19:08 GMT 46.034180 -0.386129 40,000 353 416 0
2022-01-11 18:19:03 GMT 46.024197 -0.384247 40,000 353 416 0
2022-01-11 18:19:00 GMT 46.019531 -0.383383 40,000 353 415 0
2022-01-11 18:18:57 GMT 46.013863 -0.382324 40,000 353 416 0
2022-01-11 18:18:51 GMT 45.996002 -0.378894 40,000 353 415 0
2022-01-11 18:18:48 GMT 45.996002 -0.378894 40,000 353 415 0
2022-01-11 18:18:41 GMT 45.980667 -0.376014 40,000 353 415 0
2022-01-11 18:18:37 GMT 45.975998 -0.375076 40,000 353 415 0
2022-01-11 18:18:31 GMT 45.963306 -0.372643 40,000 353 415 0
2022-01-11 18:18:28 GMT 45.958233 -0.371681 40,000 353 415 -64
2022-01-11 18:18:26 GMT 45.953018 -0.370655 40,000 353 415 -64
2022-01-11 18:18:22 GMT 45.946243 -0.369382 40,000 353 415 -64
2022-01-11 18:18:18 GMT 45.939743 -0.368176 40,000 353 414 0
2022-01-11 18:18:14 GMT 45.931961 -0.366702 40,000 353 414 0
2022-01-11 18:18:11 GMT 45.926483 -0.365639 40,000 353 414 64
2022-01-11 18:18:08 GMT 45.919739 -0.364358 40,000 353 414 64
2022-01-11 18:18:05 GMT 45.914658 -0.363373 40,000 353 413 0
2022-01-11 18:18:01 GMT 45.907116 -0.361931 40,000 353 413 0
2022-01-11 18:17:58 GMT 45.901253 -0.360832 40,000 353 413 -64
2022-01-11 18:17:55 GMT 45.895107 -0.359665 40,000 353 413 -64
2022-01-11 18:17:50 GMT 45.886169 -0.358017 40,000 353 413 0
2022-01-11 18:17:47 GMT 45.878265 -0.356520 40,000 353 412 0
2022-01-11 18:17:41 GMT 45.869923 -0.354927 40,000 353 412 0
2022-01-11 18:17:38 GMT 45.863113 -0.353706 40,000 346 411 0
2022-01-11 18:17:35 GMT 45.858536 -0.352835 40,000 353 412 0
2022-01-11 18:17:30 GMT 45.842880 -0.349955 40,000 353 412 0
2022-01-11 18:17:27 GMT 45.842880 -0.349955 40,000 353 412 0
2022-01-11 18:17:25 GMT 45.838989 -0.349218 40,000 353 412 0
2022-01-11 18:17:21 GMT 45.831470 -0.347786 40,000 353 412 0
2022-01-11 18:17:18 GMT 45.825897 -0.346739 40,000 353 412 0
2022-01-11 18:17:15 GMT 45.819225 -0.345520 40,000 353 411 0
2022-01-11 18:17:11 GMT 45.812073 -0.344194 40,000 353 411 0
2022-01-11 18:17:08 GMT 45.805820 -0.342979 40,000 353 411 0
2022-01-11 18:17:01 GMT 45.793900 -0.340777 40,000 353 411 0
2022-01-11 18:16:58 GMT 45.787399 -0.339504 40,000 353 411 0
2022-01-11 18:16:51 GMT 45.774216 -0.337093 40,000 353 411 0
2022-01-11 18:16:47 GMT 45.768204 -0.335976 40,000 353 411 0
2022-01-11 18:16:45 GMT 45.764008 -0.335217 40,000 351 411 0
2022-01-11 18:16:41 GMT 45.755497 -0.333504 40,000 351 411 0
2022-01-11 18:16:36 GMT 45.746933 -0.331399 40,000 350 411 0
2022-01-11 18:16:29 GMT 45.732685 -0.327049 40,000 345 410 0
2022-01-11 18:16:26 GMT 45.727158 -0.325035 40,000 345 411 0
2022-01-11 18:16:21 GMT 45.717976 -0.321213 40,000 343 412 0
2022-01-11 18:16:17 GMT 45.711552 -0.318260 40,000 342 411 -64
2022-01-11 18:16:11 GMT 45.699493 -0.312561 40,000 342 411 0
2022-01-11 18:16:07 GMT 45.693146 -0.309627 40,000 342 411 128
2022-01-11 18:15:59 GMT 45.676392 -0.301655 40,000 342 412 0
2022-01-11 18:15:56 GMT 45.674606 -0.300851 40,000 342 411 64
2022-01-11 18:15:50 GMT 45.662796 -0.295224 40,000 342 411 -64
2022-01-11 18:15:47 GMT 45.657505 -0.292717 40,000 342 411 -64
2022-01-11 18:15:44 GMT 45.651360 -0.289833 40,000 342 411 -64
2022-01-11 18:15:39 GMT 45.643211 -0.286057 40,000 342 411 0
2022-01-11 18:15:35 GMT 45.635925 -0.282630 40,000 342 411 64
2022-01-11 18:15:28 GMT 45.622330 -0.276199 40,000 342 412 64
2022-01-11 18:15:25 GMT 45.618027 -0.274122 40,000 342 412 0
2022-01-11 18:15:20 GMT 45.609184 -0.269920 40,000 342 412 0
2022-01-11 18:15:18 GMT 45.603828 -0.267380 40,000 342 412 0
2022-01-11 18:15:14 GMT 45.598297 -0.264744 40,000 342 412 0
2022-01-11 18:15:11 GMT 45.591633 -0.261543 40,000 342 412 -64
2022-01-11 18:15:08 GMT 45.585533 -0.258659 40,000 342 412 -64
2022-01-11 18:15:05 GMT 45.580833 -0.256393 40,000 342 412 -64
2022-01-11 18:15:03 GMT 45.575523 -0.253922 40,000 342 412 0
2022-01-11 18:14:59 GMT 45.571198 -0.251882 40,000 342 412 0
2022-01-11 18:14:55 GMT 45.563187 -0.248063 40,000 342 412 64
2022-01-11 18:14:51 GMT 45.553574 -0.243508 40,000 342 411 0
2022-01-11 18:14:48 GMT 45.549923 -0.241768 40,000 342 411 -64
2022-01-11 18:14:45 GMT 45.544281 -0.239149 40,000 342 411 -64
2022-01-11 18:14:40 GMT 45.534531 -0.234571 40,000 342 411 0
2022-01-11 18:14:37 GMT 45.530411 -0.232609 40,000 342 411 0
2022-01-11 18:14:34 GMT 45.525993 -0.230579 40,000 342 411 64
2022-01-11 18:14:29 GMT 45.513748 -0.224818 40,000 342 411 0
2022-01-11 18:14:24 GMT 45.507511 -0.221937 40,000 342 411 64
2022-01-11 18:14:19 GMT 45.498276 -0.217634 40,000 342 411 0
2022-01-11 18:14:16 GMT 45.490173 -0.213841 40,000 342 411 0
2022-01-11 18:14:13 GMT 45.488518 -0.213028 40,000 342 411 64
2022-01-11 18:14:09 GMT 45.479919 -0.209002 40,000 342 411 64
2022-01-11 18:14:06 GMT 45.475067 -0.206731 40,000 342 411 64
2022-01-11 18:14:03 GMT 45.469482 -0.204163 40,000 342 411 64
2022-01-11 18:13:59 GMT 45.461613 -0.200500 40,000 342 411 0
2022-01-11 18:13:56 GMT 45.456631 -0.198156 40,000 342 411 -64
2022-01-11 18:13:53 GMT 45.451138 -0.195543 40,000 342 411 -64
2022-01-11 18:13:48 GMT 45.442795 -0.191672 40,000 342 411 -64
2022-01-11 18:13:45 GMT 45.435680 -0.188375 40,000 342 411 64
2022-01-11 18:13:42 GMT 45.430298 -0.185852 40,000 342 411 0
2022-01-11 18:13:39 GMT 45.424648 -0.183217 40,000 342 411 -64
2022-01-11 18:13:34 GMT 45.416061 -0.179182 40,000 342 410 -64
2022-01-11 18:13:31 GMT 45.412628 -0.177547 40,025 342 411 -64
2022-01-11 18:13:27 GMT 45.404678 -0.173772 40,025 342 411 64
2022-01-11 18:13:24 GMT 45.398483 -0.170877 40,000 342 411 64
2022-01-11 18:13:20 GMT 45.390198 -0.166953 40,000 342 411 0
2022-01-11 18:13:16 GMT 45.383194 -0.163618 40,000 342 410 -64
2022-01-11 18:13:12 GMT 45.377071 -0.160709 40,000 342 410 -64
2022-01-11 18:13:08 GMT 45.370090 -0.157493 40,000 342 410 0
2022-01-11 18:13:04 GMT 45.358063 -0.151847 40,000 342 410 64
2022-01-11 18:13:01 GMT 45.358063 -0.151847 40,000 342 410 64
2022-01-11 18:12:57 GMT 45.350830 -0.148512 40,000 342 410 -64
2022-01-11 18:12:54 GMT 45.344067 -0.145368 40,000 342 410 -64
2022-01-11 18:12:51 GMT 45.339615 -0.143280 40,000 342 410 -64
2022-01-11 18:12:47 GMT 45.333130 -0.140210 40,000 342 410 0
2022-01-11 18:12:44 GMT 45.325771 -0.136793 40,000 342 410 64
2022-01-11 18:12:41 GMT 45.321350 -0.134713 40,000 342 410 64
2022-01-11 18:12:37 GMT 45.315346 -0.131903 40,000 342 410 64
2022-01-11 18:12:33 GMT 45.307526 -0.128239 40,000 342 410 64
2022-01-11 18:12:30 GMT 45.301380 -0.125405 40,000 342 410 64
2022-01-11 18:12:27 GMT 45.296955 -0.123328 40,000 342 410 -64
2022-01-11 18:12:23 GMT 45.288620 -0.119476 40,000 342 410 -64
2022-01-11 18:12:20 GMT 45.283875 -0.117232 40,000 342 410 -64
2022-01-11 18:12:17 GMT 45.278381 -0.114687 40,000 342 410 -64
2022-01-11 18:12:12 GMT 45.267929 -0.109863 40,000 342 410 0
2022-01-11 18:12:09 GMT 45.263439 -0.107720 40,000 342 410 64
2022-01-11 18:12:05 GMT 45.249390 -0.101231 40,000 342 410 -64
2022-01-11 18:12:01 GMT 45.249390 -0.101231 40,000 342 410 0
2022-01-11 18:11:57 GMT 45.241882 -0.097765 40,000 342 410 -64
2022-01-11 18:11:54 GMT 45.235565 -0.094888 40,000 342 410 -64
2022-01-11 18:11:52 GMT 45.233833 -0.094121 40,000 342 409 0
2022-01-11 18:11:49 GMT 45.228573 -0.091709 40,000 342 410 0
2022-01-11 18:11:46 GMT 45.222427 -0.088872 40,000 342 410 0
2022-01-11 18:11:41 GMT 45.213394 -0.084675 40,000 342 410 0
2022-01-11 18:11:39 GMT 45.209671 -0.083000 40,000 342 410 0
2022-01-11 18:11:36 GMT 45.204365 -0.080522 40,000 342 410 0
2022-01-11 18:11:32 GMT 45.191666 -0.074681 40,000 342 409 0
2022-01-11 18:11:29 GMT 45.191666 -0.074681 40,000 342 409 0
2022-01-11 18:11:26 GMT 45.187187 -0.072550 40,000 342 409 0
2022-01-11 18:11:20 GMT 45.175690 -0.067226 40,000 342 409 0
2022-01-11 18:11:17 GMT 45.167725 -0.063498 40,000 342 409 -64
2022-01-11 18:11:11 GMT 45.157837 -0.058855 40,000 342 408 0
2022-01-11 18:11:06 GMT 45.148735 -0.054597 40,000 342 409 0
2022-01-11 18:11:02 GMT 45.141193 -0.051046 40,000 342 409 64
2022-01-11 18:10:58 GMT 45.135792 -0.048501 40,000 342 408 0
2022-01-11 18:10:55 GMT 45.128857 -0.045218 40,000 342 408 0
2022-01-11 18:10:50 GMT 45.121735 -0.041869 40,000 342 408 0
2022-01-11 18:10:46 GMT 45.114330 -0.038385 40,000 342 408 -64
2022-01-11 18:10:43 GMT 45.108189 -0.035505 40,000 342 408 -64
2022-01-11 18:10:40 GMT 45.103065 -0.033093 40,000 342 408 -64
2022-01-11 18:10:35 GMT 45.095810 -0.029755 40,000 342 408 0
2022-01-11 18:10:32 GMT 45.087112 -0.025700 40,000 342 408 0
2022-01-11 18:10:28 GMT 45.082256 -0.023446 40,000 342 408 0
2022-01-11 18:10:25 GMT 45.077602 -0.021370 40,000 342 408 0
2022-01-11 18:10:21 GMT 45.068436 -0.017133 40,000 343 407 0
2022-01-11 18:10:18 GMT 45.063824 -0.015006 40,000 343 407 0
2022-01-11 18:10:15 GMT 45.059120 -0.012862 40,000 343 407 0
2022-01-11 18:10:12 GMT 45.053604 -0.010332 40,000 343 407 0
2022-01-11 18:10:09 GMT 45.046875 -0.007193 40,000 343 407 0
2022-01-11 18:10:06 GMT 45.041428 -0.004708 40,000 343 407 0
2022-01-11 18:10:01 GMT 45.034607 -0.001569 40,000 342 406 0
2022-01-11 18:09:58 GMT 45.028061 0.001439 40,000 343 407 64
2022-01-11 18:09:55 GMT 45.022614 0.003924 40,000 342 407 64
2022-01-11 18:09:52 GMT 45.010845 0.009379 40,000 342 407 64
2022-01-11 18:09:48 GMT 45.010845 0.009379 40,000 342 407 64
2022-01-11 18:09:45 GMT 45.005219 0.011967 40,000 342 407 64
2022-01-11 18:09:41 GMT 44.998764 0.014975 40,000 342 407 0
2022-01-11 18:09:38 GMT 44.992859 0.017722 40,000 342 408 -64
2022-01-11 18:09:35 GMT 44.987617 0.020164 40,000 342 408 -64
2022-01-11 18:09:31 GMT 44.980309 0.023513 40,000 342 408 0
2022-01-11 18:09:28 GMT 44.973999 0.026420 40,000 342 408 64
2022-01-11 18:09:25 GMT 44.969193 0.028643 40,000 342 408 64
2022-01-11 18:09:19 GMT 44.956242 0.034634 40,000 342 407 0
2022-01-11 18:09:15 GMT 44.951477 0.036817 40,000 342 407 -64
2022-01-11 18:09:08 GMT 44.938877 0.042673 40,000 342 408 -64
2022-01-11 18:09:05 GMT 44.933212 0.045253 40,000 343 407 64
2022-01-11 18:08:57 GMT 44.919388 0.051597 40,000 343 407 -64
2022-01-11 18:08:54 GMT 44.914169 0.054016 40,000 343 407 -64
2022-01-11 18:08:50 GMT 44.906151 0.057678 40,000 343 407 64
2022-01-11 18:08:47 GMT 44.901169 0.059902 40,000 343 407 64
2022-01-11 18:08:44 GMT 44.895817 0.062368 40,000 343 407 64
2022-01-11 18:08:40 GMT 44.878326 0.070299 40,000 343 407 -64
2022-01-11 18:08:35 GMT 44.878326 0.070299 40,000 343 407 -64
2022-01-11 18:08:30 GMT 44.870361 0.073896 40,000 343 407 0
2022-01-11 18:08:27 GMT 44.865189 0.076250 40,000 343 407 64
2022-01-11 18:08:23 GMT 44.856216 0.080305 40,000 343 407 64
2022-01-11 18:08:20 GMT 44.853470 0.081547 40,000 343 407 0
2022-01-11 18:08:17 GMT 44.847153 0.084425 40,000 343 407 -64
2022-01-11 18:08:12 GMT 44.837765 0.088628 40,000 343 407 -64
2022-01-11 18:08:07 GMT 44.828922 0.092647 40,025 342 406 0
2022-01-11 18:08:04 GMT 44.817982 0.097671 40,000 342 407 64
2022-01-11 18:08:01 GMT 44.817982 0.097671 40,000 342 407 128
2022-01-11 18:07:57 GMT 44.811649 0.100552 40,000 342 407 128
2022-01-11 18:07:54 GMT 44.806137 0.103128 40,000 342 407 64
2022-01-11 18:07:51 GMT 44.799641 0.106112 40,000 342 407 0
2022-01-11 18:07:46 GMT 44.792282 0.109595 40,000 342 408 -64
2022-01-11 18:07:43 GMT 44.787506 0.111760 40,000 342 408 -64
2022-01-11 18:07:40 GMT 44.781902 0.114352 40,000 342 408 0
2022-01-11 18:07:36 GMT 44.774361 0.117835 40,000 342 408 64
2022-01-11 18:07:33 GMT 44.768829 0.120392 40,000 342 408 64
2022-01-11 18:07:31 GMT 44.765099 0.122189 40,000 342 408 64
2022-01-11 18:07:27 GMT 44.756607 0.126081 40,000 342 408 64
2022-01-11 18:07:24 GMT 44.751938 0.128239 40,000 342 408 0
2022-01-11 18:07:19 GMT 44.743916 0.131903 40,000 343 408 -64
2022-01-11 18:07:16 GMT 44.732792 0.136994 40,000 343 408 -64
2022-01-11 18:07:13 GMT 44.732792 0.136994 40,000 343 408 -64
2022-01-11 18:07:09 GMT 44.727127 0.139553 40,000 343 408 -64
2022-01-11 18:07:06 GMT 44.719707 0.142956 40,000 342 409 0
2022-01-11 18:07:03 GMT 44.715286 0.144966 40,000 342 409 64
2022-01-11 18:07:00 GMT 44.709915 0.147400 40,000 342 409 64
2022-01-11 18:06:55 GMT 44.696060 0.153742 40,000 342 409 0
2022-01-11 18:06:52 GMT 44.696060 0.153742 40,000 342 409 0
2022-01-11 18:06:49 GMT 44.690002 0.156490 40,000 342 409 0
2022-01-11 18:06:46 GMT 44.678837 0.161646 40,000 342 409 -64
2022-01-11 18:06:43 GMT 44.678837 0.161646 40,000 342 409 -64
2022-01-11 18:06:39 GMT 44.671234 0.165057 40,000 342 410 0
2022-01-11 18:06:36 GMT 44.666687 0.167140 40,000 342 410 0
2022-01-11 18:06:33 GMT 44.660385 0.170027 40,000 342 410 0
2022-01-11 18:06:29 GMT 44.653564 0.173165 40,000 342 410 0
2022-01-11 18:06:25 GMT 44.645691 0.176762 40,000 342 410 0
2022-01-11 18:06:22 GMT 44.641113 0.178789 40,000 342 410 0
2022-01-11 18:06:19 GMT 44.634846 0.181676 40,000 342 410 0
2022-01-11 18:06:15 GMT 44.628296 0.184675 40,000 342 410 0
2022-01-11 18:06:12 GMT 44.621391 0.187839 40,000 342 410 0
2022-01-11 18:06:09 GMT 44.617630 0.189580 40,000 342 410 0
2022-01-11 18:06:05 GMT 44.610397 0.192849 40,000 342 410 0
2022-01-11 18:06:02 GMT 44.605179 0.195269 40,000 342 410 64
2022-01-11 18:05:59 GMT 44.592361 0.201089 40,000 342 410 64
2022-01-11 18:05:55 GMT 44.592361 0.201089 40,000 342 410 64
2022-01-11 18:05:51 GMT 44.586105 0.203917 40,000 343 412 0
2022-01-11 18:05:48 GMT 44.579681 0.206844 40,000 343 410 0
2022-01-11 18:05:45 GMT 44.574978 0.208941 40,000 343 411 0
2022-01-11 18:05:42 GMT 44.568741 0.211814 40,000 343 411 0
2022-01-11 18:05:37 GMT 44.561012 0.215305 40,000 343 411 0
2022-01-11 18:05:35 GMT 44.556217 0.217449 40,000 343 411 0
2022-01-11 18:05:33 GMT 44.543743 0.223143 40,000 343 412 0
2022-01-11 18:05:29 GMT 44.543743 0.223143 40,000 343 411 0
2022-01-11 18:05:26 GMT 44.541000 0.224370 40,000 343 411 0
2022-01-11 18:05:24 GMT 44.536713 0.226292 40,000 343 411 64
2022-01-11 18:05:21 GMT 44.532166 0.228359 40,000 343 411 64
2022-01-11 18:05:16 GMT 44.522793 0.232589 40,000 342 411 0
2022-01-11 18:05:12 GMT 44.513443 0.236860 40,000 342 411 -64
2022-01-11 18:05:07 GMT 44.506119 0.240261 40,000 343 412 -64
2022-01-11 18:05:04 GMT 44.500076 0.242942 40,000 343 412 0
2022-01-11 18:05:01 GMT 44.495468 0.245049 40,000 343 412 0
2022-01-11 18:04:57 GMT 44.487411 0.248666 40,000 343 412 0
2022-01-11 18:04:53 GMT 44.481216 0.251508 40,000 343 412 0
2022-01-11 18:04:50 GMT 44.475777 0.253958 40,000 343 412 0
2022-01-11 18:04:47 GMT 44.468994 0.257002 40,000 342 412 0
2022-01-11 18:04:44 GMT 44.462585 0.259944 40,000 342 412 0
2022-01-11 18:04:41 GMT 44.458969 0.261595 40,000 342 412 0
2022-01-11 18:04:37 GMT 44.448311 0.266418 40,000 343 412 0
2022-01-11 18:04:34 GMT 44.443748 0.268495 40,000 343 413 0
2022-01-11 18:04:30 GMT 44.439789 0.270237 40,000 343 413 0
2022-01-11 18:04:26 GMT 44.430817 0.274331 40,000 343 412 0
2022-01-11 18:04:23 GMT 44.424637 0.277078 40,000 343 412 0
2022-01-11 18:04:21 GMT 44.421726 0.278410 40,000 343 412 0
2022-01-11 18:04:15 GMT 44.411068 0.283166 40,000 343 412 0
2022-01-11 18:04:13 GMT 44.408020 0.284533 40,000 343 413 0
2022-01-11 18:04:10 GMT 44.402710 0.286952 40,000 343 413 -64
2022-01-11 18:04:06 GMT 44.395020 0.290418 40,000 343 413 -64
2022-01-11 18:04:01 GMT 44.385044 0.294889 40,000 342 413 0
2022-01-11 18:03:56 GMT 44.377487 0.298331 40,000 342 412 0
2022-01-11 18:03:53 GMT 44.370010 0.301722 40,000 342 412 0
2022-01-11 18:03:50 GMT 44.367077 0.303062 40,000 342 412 0
2022-01-11 18:03:46 GMT 44.357666 0.307356 40,000 342 412 0
2022-01-11 18:03:40 GMT 44.348511 0.311475 40,000 342 412 0
2022-01-11 18:03:36 GMT 44.341564 0.314651 40,000 342 413 64
2022-01-11 18:03:34 GMT 44.336723 0.316862 40,000 343 413 0
2022-01-11 18:03:32 GMT 44.333084 0.318473 40,000 343 413 0
2022-01-11 18:03:29 GMT 44.328827 0.320435 40,000 343 413 0
2022-01-11 18:03:26 GMT 44.322693 0.323181 40,000 343 413 0
2022-01-11 18:03:23 GMT 44.317776 0.325369 40,000 343 413 0
2022-01-11 18:03:20 GMT 44.311352 0.328250 40,000 343 413 0
2022-01-11 18:03:16 GMT 44.304886 0.331159 40,000 343 413 0
2022-01-11 18:03:10 GMT 44.293056 0.336490 40,000 343 413 0
2022-01-11 18:03:06 GMT 44.286541 0.339437 40,000 343 413 0
2022-01-11 18:02:59 GMT 44.274158 0.344997 40,000 343 413 -64
2022-01-11 18:02:55 GMT 44.266987 0.348213 40,000 343 413 -64
2022-01-11 18:02:49 GMT 44.255955 0.353170 40,000 343 413 -64
2022-01-11 18:02:45 GMT 44.248322 0.356587 40,000 343 412 64
2022-01-11 18:02:39 GMT 44.235844 0.362147 40,000 343 412 0
2022-01-11 18:02:35 GMT 44.229652 0.364893 40,000 343 412 0
2022-01-11 18:02:31 GMT 44.217457 0.370320 40,000 343 412 0
2022-01-11 18:02:28 GMT 44.217457 0.370320 40,000 343 412 0
2022-01-11 18:02:24 GMT 44.202232 0.377086 40,000 343 412 64
2022-01-11 18:02:20 GMT 44.202232 0.377086 40,000 343 412 -64
2022-01-11 18:02:14 GMT 44.192131 0.381579 40,000 343 413 64
2022-01-11 18:02:10 GMT 44.184586 0.384969 40,000 343 413 0
2022-01-11 18:02:07 GMT 44.178589 0.387651 40,000 343 413 64
2022-01-11 18:02:04 GMT 44.174210 0.389622 40,000 343 413 0
2022-01-11 18:02:01 GMT 44.168575 0.392107 40,000 343 413 0
2022-01-11 18:01:58 GMT 44.163364 0.394461 40,000 343 413 0
2022-01-11 18:01:55 GMT 44.157032 0.397273 40,000 343 413 0
2022-01-11 18:01:51 GMT 44.149723 0.400543 40,000 343 413 -64
2022-01-11 18:01:48 GMT 44.144650 0.402832 40,000 343 412 0
2022-01-11 18:01:45 GMT 44.138031 0.405792 40,000 343 413 0
2022-01-11 18:01:39 GMT 44.128216 0.410156 40,000 343 413 0
2022-01-11 18:01:34 GMT 44.118896 0.414351 40,000 343 413 0
2022-01-11 18:01:29 GMT 44.109467 0.418566 40,000 343 412 0
2022-01-11 18:01:25 GMT 44.102692 0.421568 40,000 343 412 0
2022-01-11 18:01:23 GMT 44.098984 0.423229 40,000 343 412 0
2022-01-11 18:01:17 GMT 44.086880 0.428663 40,000 343 412 0
2022-01-11 18:01:13 GMT 44.080360 0.431540 40,000 343 413 64
2022-01-11 18:01:08 GMT 44.071335 0.435557 40,000 343 413 64
2022-01-11 18:01:04 GMT 44.063873 0.438878 40,000 343 413 64
2022-01-11 18:01:02 GMT 44.061321 0.440042 40,000 343 412 64
2022-01-11 18:00:57 GMT 44.052101 0.444162 40,000 343 413 0
2022-01-11 18:00:54 GMT 44.046844 0.446516 40,000 343 413 -64
2022-01-11 18:00:50 GMT 44.037827 0.450503 40,000 343 413 -64
2022-01-11 18:00:47 GMT 44.033997 0.452205 40,000 343 413 -64
2022-01-11 18:00:43 GMT 44.027939 0.454847 40,000 343 413 64
2022-01-11 18:00:41 GMT 44.021667 0.457593 40,000 343 413 64
2022-01-11 18:00:37 GMT 44.015762 0.460212 40,000 343 413 64
2022-01-11 18:00:33 GMT 44.007740 0.463780 40,000 343 413 0
2022-01-11 18:00:29 GMT 43.999920 0.467181 40,000 343 413 -64
2022-01-11 18:00:25 GMT 43.993469 0.470049 40,000 343 412 0
2022-01-11 18:00:22 GMT 43.988297 0.472348 40,000 343 412 0
2022-01-11 18:00:17 GMT 43.978596 0.476663 40,000 343 413 64
2022-01-11 18:00:14 GMT 43.973850 0.478821 40,000 343 413 64
2022-01-11 18:00:10 GMT 43.966679 0.482025 40,000 343 413 0
2022-01-11 18:00:06 GMT 43.959732 0.485123 40,000 343 413 -64
2022-01-11 18:00:02 GMT 43.950897 0.489022 40,000 343 412 -64
2022-01-11 17:59:57 GMT 43.941822 0.493077 40,000 343 413 0
2022-01-11 17:59:54 GMT 43.937401 0.495039 40,000 343 413 64
2022-01-11 17:59:51 GMT 43.932743 0.497131 40,000 343 413 64
2022-01-11 17:59:47 GMT 43.924690 0.500728 40,000 343 413 64
2022-01-11 17:59:42 GMT 43.912491 0.506138 40,000 343 413 0
2022-01-11 17:59:37 GMT 43.907093 0.508575 40,000 343 413 -64
2022-01-11 17:59:33 GMT 43.899948 0.511758 40,000 343 413 -64
2022-01-11 17:59:30 GMT 43.893631 0.514505 40,000 343 413 0
2022-01-11 17:59:26 GMT 43.887085 0.517443 40,000 343 413 0
2022-01-11 17:59:23 GMT 43.879944 0.520637 40,000 342 413 0
2022-01-11 17:59:20 GMT 43.871613 0.524406 40,000 342 413 0
2022-01-11 17:59:17 GMT 43.869553 0.525300 40,000 343 413 64
2022-01-11 17:59:14 GMT 43.861359 0.528941 40,000 343 413 64
2022-01-11 17:59:12 GMT 43.861359 0.528941 40,000 343 413 0
2022-01-11 17:59:07 GMT 43.851276 0.533425 40,000 343 413 0
2022-01-11 17:59:04 GMT 43.846947 0.535387 40,000 343 413 0
2022-01-11 17:58:55 GMT 43.829491 0.543039 40,000 343 414 64
2022-01-11 17:58:52 GMT 43.823730 0.545612 40,000 343 414 0
2022-01-11 17:58:46 GMT 43.813522 0.550083 40,000 343 414 64
2022-01-11 17:58:43 GMT 43.808777 0.552194 40,000 343 414 64
2022-01-11 17:58:39 GMT 43.799652 0.556183 40,000 343 414 64
2022-01-11 17:58:36 GMT 43.792236 0.559472 40,000 343 414 -64
2022-01-11 17:58:32 GMT 43.788712 0.561005 40,000 343 414 -64
2022-01-11 17:58:29 GMT 43.783218 0.563442 40,000 343 414 64
2022-01-11 17:58:24 GMT 43.774185 0.567365 40,000 343 414 -64
2022-01-11 17:58:22 GMT 43.770401 0.568990 40,000 343 414 -64
2022-01-11 17:58:14 GMT 43.754791 0.575824 40,000 343 414 64
2022-01-11 17:58:11 GMT 43.749939 0.577996 40,000 343 414 64
2022-01-11 17:58:09 GMT 43.745464 0.579921 40,000 343 414 64
2022-01-11 17:58:05 GMT 43.738129 0.583170 40,000 343 414 0
2022-01-11 17:58:02 GMT 43.728889 0.587180 40,000 343 414 0
2022-01-11 17:58:00 GMT 43.728889 0.587180 40,000 343 414 -64
2022-01-11 17:57:55 GMT 43.719906 0.591169 40,000 343 414 -64
2022-01-11 17:57:53 GMT 43.716751 0.592559 40,000 343 414 -64
2022-01-11 17:57:51 GMT 43.713715 0.593916 40,000 343 414 -64
2022-01-11 17:57:46 GMT 43.702450 0.598820 40,000 343 414 64
2022-01-11 17:57:43 GMT 43.697845 0.600863 40,000 343 414 64
2022-01-11 17:57:40 GMT 43.693233 0.602940 40,000 343 414 0
2022-01-11 17:57:34 GMT 43.682339 0.607714 40,000 343 414 0
2022-01-11 17:57:32 GMT 43.678528 0.609422 40,000 343 414 0
2022-01-11 17:57:30 GMT 43.672485 0.612105 40,000 343 414 0
2022-01-11 17:57:25 GMT 43.664974 0.615365 40,000 343 414 64
2022-01-11 17:57:23 GMT 43.660973 0.617196 40,000 343 414 0
2022-01-11 17:57:21 GMT 43.659157 0.617981 40,000 343 414 0
2022-01-11 17:57:18 GMT 43.652359 0.620989 40,000 343 414 0
2022-01-11 17:57:14 GMT 43.644863 0.624259 40,000 343 414 0
2022-01-11 17:57:11 GMT 43.639160 0.626796 40,000 343 415 0
2022-01-11 17:57:08 GMT 43.631973 0.629925 40,000 343 415 0
2022-01-11 17:57:04 GMT 43.626431 0.632368 40,000 343 415 0
2022-01-11 17:57:01 GMT 43.620987 0.634780 40,000 343 415 -64
2022-01-11 17:56:56 GMT 43.612976 0.638229 40,000 343 415 -64
2022-01-11 17:56:52 GMT 43.606739 0.641000 40,000 343 415 -64
2022-01-11 17:56:50 GMT 43.602036 0.643020 40,000 343 415 0
2022-01-11 17:56:46 GMT 43.593933 0.646597 40,000 343 415 0
2022-01-11 17:56:43 GMT 43.589539 0.648513 40,000 343 415 64
2022-01-11 17:56:40 GMT 43.582993 0.651387 40,000 343 415 0
2022-01-11 17:56:34 GMT 43.572617 0.655910 40,000 343 415 0
2022-01-11 17:56:30 GMT 43.565231 0.659180 40,000 343 415 -64
2022-01-11 17:56:24 GMT 43.550503 0.665654 40,000 343 414 64
2022-01-11 17:56:20 GMT 43.547897 0.666831 40,000 343 414 64
2022-01-11 17:56:13 GMT 43.533649 0.673109 40,000 343 414 0
2022-01-11 17:56:10 GMT 43.528622 0.675267 40,000 343 414 0
2022-01-11 17:56:03 GMT 43.515354 0.681152 40,000 343 414 0
2022-01-11 17:56:01 GMT 43.511959 0.682656 40,000 343 414 0
2022-01-11 17:55:59 GMT 43.509117 0.683899 40,000 343 414 0
2022-01-11 17:55:54 GMT 43.498169 0.688689 40,000 343 414 -64
2022-01-11 17:55:51 GMT 43.493729 0.690606 40,000 343 414 -64
2022-01-11 17:55:48 GMT 43.485855 0.694055 40,000 343 414 -64
2022-01-11 17:55:44 GMT 43.481506 0.695971 40,000 343 414 0
2022-01-11 17:55:41 GMT 43.474857 0.698874 40,000 343 414 0
2022-01-11 17:55:39 GMT 43.471481 0.700315 40,000 343 414 0
2022-01-11 17:55:33 GMT 43.459957 0.705348 40,000 343 413 0
2022-01-11 17:55:29 GMT 43.453583 0.708171 40,000 343 413 0
2022-01-11 17:55:24 GMT 43.442875 0.712803 40,000 343 413 0
2022-01-11 17:55:21 GMT 43.440083 0.714046 40,000 343 413 0
2022-01-11 17:55:18 GMT 43.434772 0.716335 40,000 343 414 64
2022-01-11 17:55:14 GMT 43.426765 0.719801 40,000 343 414 0
2022-01-11 17:55:11 GMT 43.421677 0.722032 40,000 343 413 0
2022-01-11 17:55:08 GMT 43.416641 0.724203 40,000 343 413 0
2022-01-11 17:55:03 GMT 43.407120 0.728291 40,000 343 413 0
2022-01-11 17:55:01 GMT 43.401302 0.730852 40,000 343 413 64
2022-01-11 17:54:57 GMT 43.395622 0.733272 40,000 343 413 0
2022-01-11 17:54:53 GMT 43.386337 0.737298 40,000 343 413 0
2022-01-11 17:54:50 GMT 43.383133 0.738703 40,000 343 413 -64
2022-01-11 17:54:48 GMT 43.379150 0.740427 40,000 343 412 64
2022-01-11 17:54:42 GMT 43.368202 0.745174 40,000 343 413 0
2022-01-11 17:54:40 GMT 43.356995 0.750009 40,000 343 412 64
2022-01-11 17:54:37 GMT 43.356995 0.750009 40,000 343 412 64
2022-01-11 17:54:32 GMT 43.349258 0.753414 40,000 343 412 0
2022-01-11 17:54:30 GMT 43.339294 0.757730 40,000 343 412 0
2022-01-11 17:54:27 GMT 43.339294 0.757730 40,000 343 412 -64
2022-01-11 17:54:23 GMT 43.334198 0.759973 40,000 343 412 -64
2022-01-11 17:54:20 GMT 43.328773 0.762307 40,000 343 412 -64
2022-01-11 17:54:17 GMT 43.322678 0.764988 40,000 343 411 0
2022-01-11 17:54:14 GMT 43.317139 0.767408 40,000 343 411 0
2022-01-11 17:54:10 GMT 43.306732 0.771917 40,000 343 411 0
2022-01-11 17:54:07 GMT 43.304287 0.772967 40,000 343 411 0
2022-01-11 17:54:04 GMT 43.299316 0.775111 40,000 343 411 -64
2022-01-11 17:54:02 GMT 43.294739 0.777155 40,000 343 411 -64
2022-01-11 17:53:57 GMT 43.286041 0.780879 40,000 343 411 0
2022-01-11 17:53:54 GMT 43.280548 0.783299 40,000 343 411 0
2022-01-11 17:53:52 GMT 43.275513 0.785459 40,000 343 411 0
2022-01-11 17:53:48 GMT 43.270538 0.787615 40,000 343 411 0
2022-01-11 17:53:44 GMT 43.263885 0.790505 40,000 343 411 0
2022-01-11 17:53:41 GMT 43.257549 0.793304 40,000 343 411 0
2022-01-11 17:53:39 GMT 43.253265 0.795167 40,000 343 411 0
2022-01-11 17:53:36 GMT 43.248001 0.797403 40,000 343 411 0
2022-01-11 17:53:33 GMT 43.244190 0.799125 40,000 343 411 0
2022-01-11 17:53:31 GMT 43.239487 0.801172 40,000 343 411 0
2022-01-11 17:53:28 GMT 43.232483 0.804174 40,000 343 411 0
2022-01-11 17:53:25 GMT 43.228912 0.805771 40,000 343 411 -64
2022-01-11 17:53:21 GMT 43.218658 0.810178 40,000 343 411 0
2022-01-11 17:53:18 GMT 43.215000 0.811746 40,000 343 411 0
2022-01-11 17:53:13 GMT 43.206070 0.815671 40,000 343 411 0
2022-01-11 17:53:11 GMT 43.202526 0.817174 40,000 343 410 0
2022-01-11 17:53:08 GMT 43.197327 0.819376 40,000 343 410 0
2022-01-11 17:53:05 GMT 43.192936 0.821293 40,000 343 410 0
2022-01-11 17:52:59 GMT 43.180321 0.826721 40,000 343 410 -64
2022-01-11 17:52:56 GMT 43.176224 0.828446 40,000 343 410 -64
2022-01-11 17:52:52 GMT 43.169052 0.831495 40,000 343 410 0
2022-01-11 17:52:48 GMT 43.161987 0.834514 40,000 343 410 64
2022-01-11 17:52:45 GMT 43.155487 0.837324 40,000 343 411 0
2022-01-11 17:52:40 GMT 43.148525 0.840323 40,000 343 411 -64
2022-01-11 17:52:38 GMT 43.143635 0.842416 40,000 343 411 -64
2022-01-11 17:52:34 GMT 43.135574 0.845883 40,000 343 411 -64
2022-01-11 17:52:30 GMT 43.129856 0.848367 40,000 343 411 0
2022-01-11 17:52:28 GMT 43.124550 0.850656 40,000 343 411 0
2022-01-11 17:52:23 GMT 43.115753 0.854449 40,000 343 411 64
2022-01-11 17:52:19 GMT 43.108887 0.857445 40,000 343 411 0
2022-01-11 17:52:16 GMT 43.104206 0.859484 40,000 343 411 0
2022-01-11 17:52:13 GMT 43.094013 0.863865 40,000 343 411 -64
2022-01-11 17:52:11 GMT 43.094013 0.863865 40,000 343 411 -64
2022-01-11 17:52:07 GMT 43.086868 0.866962 40,000 343 411 -64
2022-01-11 17:52:03 GMT 43.079952 0.870013 40,000 343 411 0
2022-01-11 17:51:58 GMT 43.068466 0.874946 40,000 343 410 0
2022-01-11 17:51:53 GMT 43.061890 0.877795 40,000 343 410 -128
2022-01-11 17:51:47 GMT 43.050430 0.882803 40,025 343 409 64
2022-01-11 17:51:43 GMT 43.043224 0.885903 40,000 343 409 512
2022-01-11 17:51:38 GMT 43.033680 0.890023 39,950 343 407 448
2022-01-11 17:51:34 GMT 43.027267 0.892767 39,925 343 407 512
2022-01-11 17:51:32 GMT 43.024384 0.894044 39,900 343 407 512
2022-01-11 17:51:29 GMT 43.016052 0.897621 39,875 343 407 384
2022-01-11 17:51:26 GMT 43.014221 0.898394 39,875 343 407 384
2022-01-11 17:51:22 GMT 43.005295 0.902220 39,850 343 405 640
2022-01-11 17:51:17 GMT 42.996670 0.905914 39,800 343 405 640
2022-01-11 17:51:12 GMT 42.987396 0.909885 39,750 343 404 576
2022-01-11 17:51:06 GMT 42.974716 0.915378 39,675 343 404 704
2022-01-11 17:51:01 GMT 42.969086 0.917806 39,550 343 404 768
2022-01-11 17:50:58 GMT 42.962265 0.920744 39,600 343 404 832
2022-01-11 17:50:53 GMT 42.954437 0.924129 39,525 343 404 896
2022-01-11 17:50:51 GMT 42.950771 0.925729 39,350 343 404 832
2022-01-11 17:50:47 GMT 42.943588 0.928792 39,450 343 404 1088
2022-01-11 17:50:42 GMT 42.934196 0.932857 39,300 343 404 1088
2022-01-11 17:50:40 GMT 42.930939 0.934230 39,325 343 404 1024
2022-01-11 17:50:37 GMT 42.926376 0.936192 39,275 343 405 1088
2022-01-11 17:50:32 GMT 42.913437 0.941751 39,125 343 405 1280
2022-01-11 17:50:27 GMT 42.908131 0.944039 39,075 343 406 1280
2022-01-11 17:50:19 GMT 42.894257 0.949990 38,900 343 407 1152
2022-01-11 17:50:16 GMT 42.888344 0.952475 38,850 343 407 1216
2022-01-11 17:50:10 GMT 42.876709 0.957471 38,725 343 408 1280
2022-01-11 17:50:07 GMT 42.871857 0.959579 38,650 343 409 1216
2022-01-11 17:49:59 GMT 42.857941 0.965456 38,500 343 409 1088
2022-01-11 17:49:56 GMT 42.852448 0.967819 38,425 343 409 1088
2022-01-11 17:49:50 GMT 42.839046 0.973533 38,325 343 409 1024
2022-01-11 17:49:47 GMT 42.820797 0.981315 38,275 343 410 832
2022-01-11 17:49:39 GMT 42.815826 0.983532 38,150 343 410 768
2022-01-11 17:49:36 GMT 42.815826 0.983532 38,125 344 409 704
2022-01-11 17:49:29 GMT 42.803852 0.988259 38,025 346 408 384
2022-01-11 17:49:26 GMT 42.795567 0.991069 38,025 348 407 192
2022-01-11 17:49:19 GMT 42.783787 0.994390 38,025 351 404 128
2022-01-11 17:49:14 GMT 42.771591 0.997009 38,000 354 401 64
2022-01-11 17:49:08 GMT 42.763870 0.998195 38,000 356 400 64
2022-01-11 17:49:04 GMT 42.758011 0.998882 38,000 356 400 64
2022-01-11 17:48:58 GMT 42.746407 1.000139 38,000 356 399 0
2022-01-11 17:48:55 GMT 42.739655 1.000842 38,000 356 399 -64
2022-01-11 17:48:48 GMT 42.726608 1.002190 38,000 356 399 -64
2022-01-11 17:48:45 GMT 42.720570 1.002822 38,000 356 398 -64
2022-01-11 17:48:37 GMT 42.705997 1.004355 38,000 356 398 0
2022-01-11 17:48:34 GMT 42.701385 1.004812 38,000 356 398 0
2022-01-11 17:48:28 GMT 42.690266 1.006016 38,000 356 397 0
2022-01-11 17:48:24 GMT 42.683372 1.006718 38,000 356 397 0
2022-01-11 17:48:17 GMT 42.671310 1.008120 38,000 356 397 0
2022-01-11 17:48:13 GMT 42.663620 1.008994 38,000 355 397 0
2022-01-11 17:48:06 GMT 42.651161 1.010487 38,000 356 398 -64
2022-01-11 17:48:03 GMT 42.645851 1.011062 38,000 356 398 -64
2022-01-11 17:47:57 GMT 42.633423 1.012531 38,000 356 397 -64
2022-01-11 17:47:54 GMT 42.626999 1.013233 38,000 356 397 0
2022-01-11 17:47:46 GMT 42.614571 1.014575 38,000 356 396 0
2022-01-11 17:47:43 GMT 42.607029 1.015405 38,000 356 395 0
2022-01-11 17:47:39 GMT 42.601181 1.016048 38,000 356 395 0
2022-01-11 17:47:36 GMT 42.596554 1.016555 38,000 356 394 -64
2022-01-11 17:47:32 GMT 42.586487 1.017671 38,000 356 393 -128
2022-01-11 17:47:25 GMT 42.576721 1.018726 38,025 356 392 -128
2022-01-11 17:47:20 GMT 42.567627 1.019731 38,025 356 391 -64
2022-01-11 17:47:16 GMT 42.559341 1.020667 38,025 356 390 0
2022-01-11 17:47:11 GMT 42.549816 1.021665 38,025 356 388 64
2022-01-11 17:47:05 GMT 42.540504 1.022750 38,000 356 386 0
2022-01-11 17:47:01 GMT 42.530319 1.023913 38,000 356 385 0
2022-01-11 17:46:55 GMT 42.522861 1.024731 38,000 356 383 0
2022-01-11 17:46:52 GMT 42.515854 1.025474 38,000 356 383 0
2022-01-11 17:46:49 GMT 42.512100 1.025911 38,000 356 383 0
2022-01-11 17:46:45 GMT 42.503860 1.026847 38,000 356 383 0
2022-01-11 17:46:42 GMT 42.498322 1.027471 38,000 356 383 0
2022-01-11 17:46:40 GMT 42.495575 1.027783 38,000 356 383 64
2022-01-11 17:46:35 GMT 42.486179 1.028755 37,975 356 383 64
2022-01-11 17:46:31 GMT 42.478870 1.029585 37,975 356 383 64
2022-01-11 17:46:29 GMT 42.477009 1.029777 37,975 356 383 64
2022-01-11 17:46:25 GMT 42.468395 1.030671 37,975 356 384 64
2022-01-11 17:46:21 GMT 42.462204 1.031310 37,975 356 384 64
2022-01-11 17:46:19 GMT 42.458725 1.031716 37,975 356 384 64
2022-01-11 17:46:11 GMT 42.445072 1.033098 38,000 356 384 -64
2022-01-11 17:46:09 GMT 42.441010 1.033526 38,000 356 384 0
2022-01-11 17:46:01 GMT 42.426407 1.035014 38,000 356 384 0
2022-01-11 17:45:58 GMT 42.422031 1.035461 38,000 356 384 0
2022-01-11 17:45:52 GMT 42.409275 1.036803 38,000 356 384 0
2022-01-11 17:45:49 GMT 42.404892 1.037272 38,000 356 384 0
2022-01-11 17:45:43 GMT 42.395775 1.038208 38,000 356 384 64
2022-01-11 17:45:39 GMT 42.387039 1.039144 38,000 356 384 128
2022-01-11 17:45:32 GMT 42.375275 1.040393 38,000 356 385 64
2022-01-11 17:45:29 GMT 42.369473 1.041018 38,000 356 385 -64
2022-01-11 17:45:23 GMT 42.359207 1.042203 38,000 356 385 -128
2022-01-11 17:45:20 GMT 42.354435 1.042743 38,025 356 385 -64
2022-01-11 17:45:18 GMT 42.351242 1.043077 38,025 356 385 -64
2022-01-11 17:45:12 GMT 42.340191 1.044340 38,000 356 385 64
2022-01-11 17:45:09 GMT 42.332016 1.045262 38,000 356 386 64
2022-01-11 17:45:00 GMT 42.318329 1.046760 38,000 356 386 -128
2022-01-11 17:44:58 GMT 42.315079 1.047134 38,000 356 386 -128
2022-01-11 17:44:50 GMT 42.296665 1.049130 38,000 356 385 0
2022-01-11 17:44:48 GMT 42.296665 1.049130 38,000 356 385 0
2022-01-11 17:44:41 GMT 42.278835 1.050983 38,000 356 385 64
2022-01-11 17:44:38 GMT 42.278835 1.050983 38,000 356 385 64
2022-01-11 17:44:30 GMT 42.265732 1.052315 38,000 356 386 -128
2022-01-11 17:44:27 GMT 42.260284 1.052940 38,000 356 386 -128
2022-01-11 17:44:19 GMT 42.245411 1.054432 38,000 356 386 64
2022-01-11 17:44:16 GMT 42.239872 1.055007 38,000 356 386 64
2022-01-11 17:44:10 GMT 42.228882 1.056123 37,975 356 386 256
2022-01-11 17:44:07 GMT 42.224167 1.056623 37,975 356 387 256
2022-01-11 17:44:00 GMT 42.211029 1.058121 37,950 356 388 64
2022-01-11 17:43:57 GMT 42.206448 1.058648 37,975 355 389 -192
2022-01-11 17:43:50 GMT 42.188095 1.060805 38,025 358 389 -128
2022-01-11 17:43:47 GMT 42.173859 1.062161 38,025 358 389 -128
2022-01-11 17:43:39 GMT 42.173859 1.062161 38,025 0 390 64
2022-01-11 17:43:36 GMT 42.169235 1.062303 38,025 1 390 128
2022-01-11 17:43:29 GMT 42.156784 1.062178 38,000 3 390 64
2022-01-11 17:43:26 GMT 42.151142 1.061714 38,000 8 393 0
2022-01-11 17:43:18 GMT 42.135590 1.059432 38,000 8 393 0
2022-01-11 17:43:15 GMT 42.128380 1.057881 38,000 10 394 0
2022-01-11 17:43:08 GMT 42.117325 1.054750 38,000 14 395 -64
2022-01-11 17:43:04 GMT 42.110737 1.052516 38,000 15 396 -64
2022-01-11 17:42:58 GMT 42.099701 1.048133 38,000 16 397 -64
2022-01-11 17:42:55 GMT 42.094162 1.045937 38,000 16 398 0
2022-01-11 17:42:51 GMT 42.088482 1.043637 38,000 16 398 0
2022-01-11 17:42:47 GMT 42.081455 1.040891 38,000 16 399 128
2022-01-11 17:42:44 GMT 42.074753 1.038208 38,000 16 399 192
2022-01-11 17:42:37 GMT 42.063721 1.033776 37,975 16 401 -64
2022-01-11 17:42:34 GMT 42.055893 1.030592 38,000 16 400 -128
2022-01-11 17:42:27 GMT 42.045090 1.026285 38,025 16 401 -128
2022-01-11 17:42:23 GMT 42.038177 1.023539 38,025 16 401 128
2022-01-11 17:42:19 GMT 42.030029 1.020293 38,000 16 401 192
2022-01-11 17:42:15 GMT 42.024078 1.017921 38,000 16 401 64
2022-01-11 17:42:12 GMT 42.019447 1.016108 38,000 16 402 0
2022-01-11 17:42:05 GMT 42.005585 1.010617 38,000 16 402 -64
2022-01-11 17:42:01 GMT 41.999245 1.008059 38,000 16 402 -64
2022-01-11 17:41:58 GMT 41.993843 1.005952 38,000 16 402 64
2022-01-11 17:41:55 GMT 41.987698 1.003461 38,000 16 402 0
2022-01-11 17:41:52 GMT 41.980591 1.000630 38,000 16 402 0
2022-01-11 17:41:48 GMT 41.975967 0.998757 38,000 16 403 0
2022-01-11 17:41:44 GMT 41.969311 0.996115 38,000 16 403 0
2022-01-11 17:41:41 GMT 41.964420 0.994135 38,000 16 403 0
2022-01-11 17:41:37 GMT 41.956146 0.990829 38,000 16 403 0
2022-01-11 17:41:35 GMT 41.952599 0.989408 38,000 16 404 0
2022-01-11 17:41:32 GMT 41.947220 0.987271 38,000 16 404 0
2022-01-11 17:41:25 GMT 41.932388 0.981341 38,000 16 404 64
2022-01-11 17:41:22 GMT 41.928543 0.979843 38,000 16 404 0
2022-01-11 17:41:17 GMT 41.920383 0.976570 38,000 16 405 0
2022-01-11 17:41:14 GMT 41.915588 0.974662 38,000 16 405 0
2022-01-11 17:41:11 GMT 41.910419 0.972609 38,000 16 405 0
2022-01-11 17:41:07 GMT 41.902496 0.969419 38,000 16 406 0
2022-01-11 17:41:03 GMT 41.895897 0.966797 38,000 16 406 64
2022-01-11 17:40:59 GMT 41.888634 0.963923 38,000 16 406 0
2022-01-11 17:40:53 GMT 41.877228 0.959324 38,000 16 405 0
2022-01-11 17:40:49 GMT 41.869812 0.956372 38,000 16 405 -64
2022-01-11 17:40:44 GMT 41.860798 0.952745 38,000 16 404 -64
2022-01-11 17:40:40 GMT 41.854431 0.950193 38,025 16 404 0
2022-01-11 17:40:35 GMT 41.844223 0.946166 38,000 16 404 128
2022-01-11 17:40:33 GMT 41.842255 0.945386 38,000 16 404 128
2022-01-11 17:40:30 GMT 41.836868 0.943227 38,000 16 404 64
2022-01-11 17:40:24 GMT 41.824081 0.938083 38,000 16 405 -64
2022-01-11 17:40:20 GMT 41.818314 0.935773 38,000 16 405 -64
2022-01-11 17:40:13 GMT 41.805817 0.930842 38,000 16 405 0
2022-01-11 17:40:10 GMT 41.799728 0.928407 38,000 16 405 64
2022-01-11 17:40:04 GMT 41.789898 0.924512 38,000 16 405 0
2022-01-11 17:40:02 GMT 41.786545 0.923171 38,000 16 405 0
2022-01-11 17:39:53 GMT 41.767502 0.915673 38,000 16 406 -64
2022-01-11 17:39:49 GMT 41.761127 0.913143 38,000 16 405 0
2022-01-11 17:39:44 GMT 41.752808 0.909930 38,000 16 405 0
2022-01-11 17:39:39 GMT 41.744137 0.906500 38,000 16 405 0
2022-01-11 17:39:32 GMT 41.730171 0.901007 38,000 16 405 64
2022-01-11 17:39:29 GMT 41.725796 0.899218 38,000 16 405 64
2022-01-11 17:39:23 GMT 41.715912 0.895323 38,000 16 405 64
2022-01-11 17:39:21 GMT 41.711288 0.893513 38,000 16 405 0
2022-01-11 17:39:18 GMT 41.707546 0.892000 38,000 16 405 0
2022-01-11 17:39:13 GMT 41.697769 0.888104 38,000 16 405 0
2022-01-11 17:39:09 GMT 41.688553 0.884463 38,000 16 405 0
2022-01-11 17:39:04 GMT 41.679428 0.880822 38,000 16 405 0
2022-01-11 17:39:00 GMT 41.675034 0.879094 38,000 16 406 0
2022-01-11 17:38:54 GMT 41.662445 0.874100 38,000 16 406 0
2022-01-11 17:38:51 GMT 41.656219 0.871603 38,000 16 407 -64
2022-01-11 17:38:47 GMT 41.650040 0.869168 38,000 16 407 -64
2022-01-11 17:38:43 GMT 41.643353 0.866451 38,000 16 407 -64
2022-01-11 17:38:38 GMT 41.633286 0.862489 38,000 16 406 64
2022-01-11 17:38:32 GMT 41.624683 0.859041 38,000 16 406 64
2022-01-11 17:38:27 GMT 41.614517 0.854999 38,000 16 406 64
2022-01-11 17:38:22 GMT 41.606323 0.851815 38,000 16 406 0
2022-01-11 17:38:20 GMT 41.601562 0.849880 38,000 16 406 -64
2022-01-11 17:38:12 GMT 41.588333 0.844699 38,025 16 406 -64
2022-01-11 17:38:09 GMT 41.582275 0.842306 38,025 16 406 -64
2022-01-11 17:38:00 GMT 41.562195 0.834399 38,000 16 406 64
2022-01-11 17:37:56 GMT 41.558441 0.832963 38,000 16 406 64
2022-01-11 17:37:52 GMT 41.551689 0.830362 38,000 16 406 0
2022-01-11 17:37:48 GMT 41.544147 0.827360 38,000 16 406 0
2022-01-11 17:37:45 GMT 41.539261 0.825473 38,000 16 407 0
2022-01-11 17:37:42 GMT 41.534233 0.823464 38,000 16 407 0
2022-01-11 17:37:36 GMT 41.522129 0.818737 38,000 16 407 0
2022-01-11 17:37:32 GMT 41.515457 0.816109 38,000 16 407 0
2022-01-11 17:37:26 GMT 41.503281 0.811365 38,000 16 407 0
2022-01-11 17:37:20 GMT 41.494244 0.807751 38,000 16 407 0
2022-01-11 17:37:18 GMT 41.489681 0.805962 38,000 16 408 64
2022-01-11 17:37:11 GMT 41.476692 0.800788 38,000 16 408 0
2022-01-11 17:37:02 GMT 41.460297 0.794262 38,000 16 408 0
2022-01-11 17:36:54 GMT 41.447132 0.789036 38,000 16 408 -64
2022-01-11 17:36:51 GMT 41.441849 0.786958 38,000 16 407 64
2022-01-11 17:36:45 GMT 41.429123 0.781902 38,000 16 407 64
2022-01-11 17:36:41 GMT 41.423717 0.779774 38,000 16 407 64
2022-01-11 17:36:36 GMT 41.414200 0.776034 38,000 16 408 0
2022-01-11 17:36:32 GMT 41.405235 0.772556 38,000 16 408 -64
2022-01-11 17:36:26 GMT 41.396160 0.768979 38,000 16 408 -64
2022-01-11 17:36:19 GMT 41.384033 0.764282 38,000 16 409 64
2022-01-11 17:36:16 GMT 41.377533 0.761780 38,000 16 409 0
2022-01-11 17:36:13 GMT 41.372139 0.759680 38,000 16 409 -64
2022-01-11 17:36:09 GMT 41.365711 0.757183 38,000 16 409 -64
2022-01-11 17:36:07 GMT 41.359909 0.754944 38,000 16 409 0
2022-01-11 17:36:04 GMT 41.354820 0.753000 38,000 16 409 0
2022-01-11 17:36:01 GMT 41.349792 0.751065 38,000 16 409 0
2022-01-11 17:35:58 GMT 41.345032 0.749207 38,000 16 409 0
2022-01-11 17:35:53 GMT 41.335873 0.745635 38,000 16 409 0
2022-01-11 17:35:50 GMT 41.330612 0.743575 38,000 16 408 0
2022-01-11 17:35:41 GMT 41.313583 0.736877 38,000 16 408 0
2022-01-11 17:35:35 GMT 41.303604 0.732971 38,000 16 408 64
2022-01-11 17:35:30 GMT 41.294117 0.729280 38,000 16 408 0
2022-01-11 17:35:26 GMT 41.285038 0.725722 38,000 16 409 0
2022-01-11 17:35:21 GMT 41.276184 0.722168 38,000 16 409 0
2022-01-11 17:35:16 GMT 41.269043 0.719360 38,000 16 408 -64
2022-01-11 17:35:12 GMT 41.261765 0.716492 38,000 16 407 0
2022-01-11 17:35:08 GMT 41.254684 0.713674 38,000 16 408 0
2022-01-11 17:35:00 GMT 41.239372 0.707682 38,000 16 408 0
2022-01-11 17:34:53 GMT 41.227779 0.703187 38,000 16 408 -64
2022-01-11 17:34:49 GMT 41.220200 0.700256 38,000 16 408 -64
2022-01-11 17:34:41 GMT 41.205505 0.694519 38,000 16 408 64
2022-01-11 17:34:39 GMT 41.202641 0.693450 38,000 16 408 64
2022-01-11 17:34:34 GMT 41.190536 0.688768 38,000 16 408 64
2022-01-11 17:34:31 GMT 41.186646 0.687256 38,000 16 408 0
2022-01-11 17:34:29 GMT 41.183041 0.685896 38,000 16 408 0
2022-01-11 17:34:23 GMT 41.172337 0.681714 38,000 16 409 -64
2022-01-11 17:34:19 GMT 41.164886 0.678718 38,000 16 409 -64
2022-01-11 17:34:09 GMT 41.146404 0.671477 38,000 16 408 64
2022-01-11 17:34:01 GMT 41.132263 0.665955 38,000 16 408 -64
2022-01-11 17:33:57 GMT 41.126713 0.663799 38,000 16 408 -64
2022-01-11 17:33:49 GMT 41.111027 0.657682 38,000 16 409 0
2022-01-11 17:33:43 GMT 41.098129 0.652625 38,000 16 408 64
2022-01-11 17:33:38 GMT 41.091888 0.650208 38,000 16 408 64
2022-01-11 17:33:28 GMT 41.074108 0.643324 38,000 16 408 0
2022-01-11 17:33:18 GMT 41.055771 0.636169 38,000 16 408 -64
2022-01-11 17:33:08 GMT 41.037460 0.629089 38,000 16 408 0
2022-01-11 17:32:57 GMT 41.016293 0.620977 38,000 16 408 0
2022-01-11 17:32:49 GMT 41.000473 0.614868 38,000 16 408 0
2022-01-11 17:32:38 GMT 40.982029 0.607681 38,000 16 408 0
2022-01-11 17:32:28 GMT 40.964153 0.600690 38,000 16 408 -64
2022-01-11 17:32:17 GMT 40.944275 0.593012 38,000 16 407 0
2022-01-11 17:32:05 GMT 40.922398 0.584647 38,000 16 408 64
2022-01-11 17:31:56 GMT 40.906082 0.578369 38,000 16 407 -192
2022-01-11 17:31:31 GMT 40.860157 0.560615 38,000 16 407 -64
2022-01-11 17:31:25 GMT 40.849960 0.556682 38,000 16 407 -64
2022-01-11 17:31:17 GMT 40.813339 0.542786 38,000 16 407 128
2022-01-11 17:31:04 GMT 40.813339 0.542786 38,000 16 407 0
2022-01-11 17:30:56 GMT 40.780518 0.530090 38,000 16 407 0
2022-01-11 17:30:46 GMT 40.780518 0.530090 38,000 16 406 -64
2022-01-11 17:30:36 GMT 40.761200 0.522644 38,000 16 406 128
2022-01-11 17:30:26 GMT 40.743217 0.515796 38,000 16 407 -64
2022-01-11 17:30:22 GMT 40.737762 0.513733 38,000 16 407 -64
2022-01-11 17:30:15 GMT 40.723339 0.508118 38,000 16 406 -64
2022-01-11 17:30:05 GMT 40.705418 0.501126 38,000 16 406 128
2022-01-11 17:29:13 GMT 40.611473 0.465171 38,000 16 408 0
2022-01-11 17:29:03 GMT 40.593693 0.458305 38,000 16 408 64
2022-01-11 17:28:52 GMT 40.574745 0.451001 38,000 16 409 0
2022-01-11 17:28:42 GMT 40.555565 0.443760 38,000 16 409 64
2022-01-11 17:28:32 GMT 40.538132 0.437134 38,000 16 410 -128
2022-01-11 17:28:23 GMT 40.519135 0.429810 38,000 16 411 0
2022-01-11 17:28:12 GMT 40.500633 0.422724 38,000 16 411 0
2022-01-11 17:27:59 GMT 40.467178 0.409790 38,000 16 413 64
2022-01-11 17:27:51 GMT 40.461960 0.407837 38,000 16 414 0
2022-01-11 17:27:39 GMT 40.441040 0.399902 38,000 16 414 0
2022-01-11 17:27:28 GMT 40.411972 0.388977 38,000 16 416 0
2022-01-11 17:27:19 GMT 40.404457 0.386144 38,000 16 416 -64
2022-01-11 17:27:10 GMT 40.387070 0.379578 38,025 15 415 -64
2022-01-11 17:27:00 GMT 40.367981 0.372437 38,025 16 415 0
2022-01-11 17:26:50 GMT 40.349670 0.365540 38,000 16 416 0
2022-01-11 17:26:41 GMT 40.332321 0.358948 38,000 16 416 64
2022-01-11 17:26:38 GMT 40.328716 0.357617 38,000 16 416 64
2022-01-11 17:26:29 GMT 40.310001 0.350127 37,975 18 418 0
2022-01-11 17:26:18 GMT 40.290756 0.341431 38,000 19 419 0
2022-01-11 17:26:09 GMT 40.245293 0.320788 38,000 19 420 0
2022-01-11 17:25:59 GMT 40.245293 0.320788 38,000 19 422 0
2022-01-11 17:25:50 GMT 40.234818 0.316101 38,000 19 422 -64
2022-01-11 17:25:38 GMT 40.218575 0.308741 38,000 18 421 64
2022-01-11 17:25:30 GMT 40.201263 0.301025 38,000 18 421 0
2022-01-11 17:25:26 GMT 40.195999 0.298706 38,000 18 421 -128
2022-01-11 17:25:18 GMT 40.175373 0.289515 38,025 18 421 0
2022-01-11 17:25:15 GMT 40.175373 0.289515 38,025 18 421 64
2022-01-11 17:25:07 GMT 40.158798 0.282149 38,000 18 421 64
2022-01-11 17:24:59 GMT 40.144821 0.275940 38,000 18 420 -64
2022-01-11 17:24:56 GMT 40.139481 0.273535 38,000 18 421 -64
2022-01-11 17:24:47 GMT 40.123077 0.266174 38,000 18 420 64
2022-01-11 17:24:44 GMT 40.118393 0.264046 38,000 18 421 64
2022-01-11 17:24:38 GMT 40.107285 0.259094 38,000 18 421 -64
2022-01-11 17:24:35 GMT 40.100983 0.256306 38,000 18 421 -64
2022-01-11 17:24:29 GMT 40.087921 0.250427 38,000 18 421 0
2022-01-11 17:24:26 GMT 40.082108 0.247803 38,000 18 421 0
2022-01-11 17:24:15 GMT 40.063553 0.239577 38,000 18 421 0
2022-01-11 17:24:07 GMT 40.049309 0.233210 38,000 18 421 64
2022-01-11 17:24:04 GMT 40.044842 0.231275 38,000 18 421 64
2022-01-11 17:23:56 GMT 40.029327 0.224304 38,000 18 421 -64
2022-01-11 17:23:46 GMT 40.010670 0.215981 38,000 18 421 0
2022-01-11 17:23:36 GMT 39.992657 0.207929 38,000 18 421 128
2022-01-11 17:23:31 GMT 39.982864 0.203552 38,000 18 421 -64
2022-01-11 17:23:26 GMT 39.973755 0.199463 38,000 19 422 -64
2022-01-11 17:23:13 GMT 39.950806 0.189202 38,000 18 421 0
2022-01-11 17:23:05 GMT 39.934929 0.182148 38,000 18 421 64
2022-01-11 17:22:59 GMT 39.923996 0.177246 38,000 18 422 0
2022-01-11 17:22:55 GMT 39.917053 0.174133 38,000 19 422 0
2022-01-11 17:22:45 GMT 39.898453 0.165870 38,000 18 421 64
2022-01-11 17:22:34 GMT 39.878510 0.156982 38,000 18 422 0
2022-01-11 17:22:23 GMT 39.858120 0.147888 38,025 18 421 -64
2022-01-11 17:22:14 GMT 39.841312 0.140503 38,000 18 422 64
2022-01-11 17:22:04 GMT 39.823158 0.132507 38,000 18 422 -128
2022-01-11 17:21:54 GMT 39.803932 0.124084 38,000 18 422 192
2022-01-11 17:21:43 GMT 39.784332 0.115479 38,000 18 422 -128
2022-01-11 17:21:34 GMT 39.766479 0.107594 38,000 18 422 64
2022-01-11 17:21:23 GMT 39.747372 0.099182 38,025 18 421 -128
2022-01-11 17:21:13 GMT 39.728935 0.091064 38,000 18 421 64
2022-01-11 17:21:03 GMT 39.709663 0.082642 38,000 18 421 64
2022-01-11 17:20:53 GMT 39.691406 0.074576 37,975 18 421 -64
2022-01-11 17:20:40 GMT 39.657665 0.059570 38,000 18 421 64
2022-01-11 17:20:33 GMT 39.653893 0.057922 38,000 18 421 64
2022-01-11 17:20:22 GMT 39.634552 0.049319 38,000 19 422 64
2022-01-11 17:20:10 GMT 39.601757 0.034729 38,000 18 422 0
2022-01-11 17:20:02 GMT 39.597336 0.032780 38,000 18 422 -128
2022-01-11 17:19:51 GMT 39.577881 0.024182 38,025 18 422 0
2022-01-11 17:19:40 GMT 39.545567 0.009949 38,000 18 423 128
2022-01-11 17:19:31 GMT 39.540024 0.007523 38,000 18 423 128
2022-01-11 17:19:20 GMT 39.519379 -0.001612 38,000 18 424 64
2022-01-11 17:19:11 GMT 39.502506 -0.009094 38,000 19 423 -192
2022-01-11 17:19:04 GMT 39.489845 -0.014771 38,000 18 423 64
2022-01-11 17:19:00 GMT 39.482849 -0.017853 38,000 18 423 192
2022-01-11 17:18:50 GMT 39.464100 -0.026123 38,000 18 423 -64
2022-01-11 17:18:44 GMT 39.449432 -0.032601 38,000 18 424 0
2022-01-11 17:18:40 GMT 39.445435 -0.034363 38,000 18 424 64
2022-01-11 17:18:30 GMT 39.427368 -0.042154 38,000 18 425 64
2022-01-11 17:18:19 GMT 39.405624 -0.051588 38,025 18 424 -128
2022-01-11 17:18:07 GMT 39.374626 -0.065002 38,025 18 424 -64
2022-01-11 17:17:59 GMT 39.369873 -0.067052 38,025 18 424 64
2022-01-11 17:17:49 GMT 39.350876 -0.075292 38,000 18 424 -64
2022-01-11 17:17:37 GMT 39.318253 -0.089539 38,000 18 422 1472
2022-01-11 17:17:29 GMT 39.313736 -0.091492 37,950 18 422 960
2022-01-11 17:17:19 GMT 39.294327 -0.099915 37,775 18 422 704
2022-01-11 17:17:07 GMT 39.259003 -0.115237 37,200 18 422 1472
2022-01-11 17:17:01 GMT 39.259003 -0.115237 37,450 18 422 960
2022-01-11 17:16:58 GMT 39.256897 -0.116133 37,425 18 422 1024
2022-01-11 17:16:48 GMT 39.237530 -0.124573 37,225 18 422 1216
2022-01-11 17:16:37 GMT 39.206806 -0.137939 36,925 18 421 960
2022-01-11 17:16:28 GMT 39.200195 -0.140808 36,875 18 421 896
2022-01-11 17:16:20 GMT 39.186558 -0.146790 36,750 18 421 1216
2022-01-11 17:16:17 GMT 39.181252 -0.149109 36,675 18 421 1216
2022-01-11 17:16:06 GMT 39.150604 -0.162466 36,025 18 422 1472
2022-01-11 17:15:57 GMT 39.143829 -0.165392 36,250 18 422 1344
2022-01-11 17:15:50 GMT 39.124832 -0.173632 36,025 18 422 1088
2022-01-11 17:15:47 GMT 39.124832 -0.173632 36,050 18 422 1088
2022-01-11 17:15:37 GMT 39.105743 -0.181946 35,825 18 422 1408
2022-01-11 17:15:30 GMT 39.093124 -0.187439 35,625 18 422 1280
2022-01-11 17:15:27 GMT 39.087479 -0.189932 35,600 18 422 1216
2022-01-11 17:15:21 GMT 39.076218 -0.194768 35,350 18 421 1344
2022-01-11 17:15:16 GMT 39.067989 -0.198364 35,375 18 421 1280
2022-01-11 17:15:11 GMT 39.057838 -0.202759 35,250 18 422 1408
2022-01-11 17:15:06 GMT 39.038452 -0.211129 35,025 18 420 1344
2022-01-11 17:15:00 GMT 39.038452 -0.211129 35,025 18 420 1344
2022-01-11 17:14:56 GMT 39.030441 -0.214592 34,925 18 420 1472
2022-01-11 17:14:50 GMT 39.020050 -0.219070 34,675 18 420 1408
2022-01-11 17:14:46 GMT 39.011799 -0.222595 34,675 18 420 1408
2022-01-11 17:14:40 GMT 39.000954 -0.227295 34,550 18 420 1600
2022-01-11 17:14:36 GMT 38.993038 -0.230652 34,275 18 421 1536
2022-01-11 17:14:30 GMT 38.982285 -0.235310 34,275 18 421 1536
2022-01-11 17:14:26 GMT 38.975163 -0.238342 34,175 18 421 1600
2022-01-11 17:14:20 GMT 38.963619 -0.243347 34,000 18 421 1664
2022-01-11 17:14:14 GMT 38.953857 -0.247491 33,725 18 422 1792
2022-01-11 17:14:08 GMT 38.933311 -0.256348 33,425 18 424 1664
2022-01-11 17:14:04 GMT 38.926300 -0.259373 33,425 18 424 1664
2022-01-11 17:14:00 GMT 38.926300 -0.259373 33,425 18 424 1664
2022-01-11 17:13:57 GMT 38.921722 -0.261343 33,250 18 424 1664
2022-01-11 17:13:54 GMT 38.914948 -0.264209 33,250 18 424 1664
2022-01-11 17:13:49 GMT 38.906937 -0.267672 33,150 18 424 1728
2022-01-11 17:13:46 GMT 38.900665 -0.270359 33,050 18 424 1792
2022-01-11 17:13:39 GMT 38.888622 -0.275574 32,850 18 425 1664
2022-01-11 17:13:35 GMT 38.879871 -0.279297 32,575 18 425 1728
2022-01-11 17:13:29 GMT 38.869488 -0.283813 32,575 18 425 1728
2022-01-11 17:13:26 GMT 38.862579 -0.286779 32,475 18 425 1728
2022-01-11 17:13:19 GMT 38.850311 -0.292053 32,275 18 425 1728
2022-01-11 17:13:15 GMT 38.842583 -0.295410 32,150 18 425 1792
2022-01-11 17:13:09 GMT 38.831734 -0.300049 31,975 18 425 1792
2022-01-11 17:13:06 GMT 38.826660 -0.302246 31,675 18 425 1856
2022-01-11 17:13:03 GMT 38.819447 -0.305359 31,675 18 425 1856
2022-01-11 17:12:58 GMT 38.812325 -0.308472 31,675 18 425 1856
2022-01-11 17:12:55 GMT 38.804733 -0.311768 31,550 18 425 1856
2022-01-11 17:12:48 GMT 38.793274 -0.316693 31,350 18 426 1856
2022-01-11 17:12:44 GMT 38.785324 -0.320129 31,225 18 426 1920
2022-01-11 17:12:38 GMT 38.774616 -0.324768 31,025 18 426 1856
2022-01-11 17:12:35 GMT 38.765900 -0.328575 30,800 18 425 1344
2022-01-11 17:12:28 GMT 38.755810 -0.332947 30,800 18 425 1344
2022-01-11 17:12:24 GMT 38.747242 -0.336609 30,725 18 424 1280
2022-01-11 17:12:17 GMT 38.735744 -0.341614 30,550 18 423 1344
2022-01-11 17:12:13 GMT 38.727997 -0.344935 30,450 18 422 1344
2022-01-11 17:12:07 GMT 38.717148 -0.349592 30,325 18 421 1408
2022-01-11 17:12:04 GMT 38.710052 -0.352697 30,125 18 419 1280
2022-01-11 17:11:57 GMT 38.698746 -0.357533 30,100 18 419 1344
2022-01-11 17:11:53 GMT 38.691566 -0.360657 30,000 18 418 1344
2022-01-11 17:11:47 GMT 38.680527 -0.365415 29,850 18 415 1344
2022-01-11 17:11:44 GMT 38.672974 -0.368639 29,775 18 415 1536
2022-01-11 17:11:37 GMT 38.661865 -0.373413 29,600 18 414 1728
2022-01-11 17:11:32 GMT 38.652927 -0.377258 29,450 18 413 1344
2022-01-11 17:11:29 GMT 38.645416 -0.380461 29,375 18 413 1344
2022-01-11 17:11:26 GMT 38.642548 -0.381714 29,325 18 413 1344
2022-01-11 17:11:23 GMT 38.635208 -0.384880 29,250 18 412 1536
2022-01-11 17:11:16 GMT 38.623180 -0.389954 29,050 18 411 1856
2022-01-11 17:11:12 GMT 38.615753 -0.393119 28,925 18 410 1792
2022-01-11 17:11:06 GMT 38.605270 -0.397598 28,750 18 409 1856
2022-01-11 17:11:02 GMT 38.597992 -0.400643 28,650 18 409 1984
2022-01-11 17:10:56 GMT 38.587372 -0.405121 28,425 18 409 1920
2022-01-11 17:10:52 GMT 38.580399 -0.408081 28,300 18 409 1920
2022-01-11 17:10:46 GMT 38.569553 -0.412598 28,100 17 407 1984
2022-01-11 17:10:42 GMT 38.561172 -0.416016 27,950 17 407 2112
2022-01-11 17:10:36 GMT 38.551163 -0.420167 27,750 17 408 2240
2022-01-11 17:10:31 GMT 38.541576 -0.424072 27,550 17 408 2048
2022-01-11 17:10:25 GMT 38.532623 -0.427691 27,375 17 408 2048
2022-01-11 17:10:21 GMT 38.524815 -0.430847 27,225 17 408 2048
2022-01-11 17:10:15 GMT 38.514576 -0.434998 27,050 17 407 1856
2022-01-11 17:10:11 GMT 38.504654 -0.439035 26,875 17 406 1664
2022-01-11 17:10:08 GMT 38.500423 -0.440735 26,825 17 405 1728
2022-01-11 17:10:04 GMT 38.493626 -0.443542 26,700 17 404 1728
2022-01-11 17:10:01 GMT 38.487900 -0.445923 26,625 18 404 1664
2022-01-11 17:09:58 GMT 38.482315 -0.448242 26,525 18 402 1728
2022-01-11 17:09:55 GMT 38.477554 -0.450260 26,450 18 402 1792
2022-01-11 17:09:52 GMT 38.472107 -0.452589 26,300 19 401 1792
2022-01-11 17:09:48 GMT 38.465149 -0.455634 26,225 19 401 1792
2022-01-11 17:09:45 GMT 38.460114 -0.457963 26,150 20 400 1728
2022-01-11 17:09:40 GMT 38.452148 -0.461792 26,050 21 398 1664
2022-01-11 17:09:35 GMT 38.442604 -0.466553 25,875 21 396 1792
2022-01-11 17:09:30 GMT 38.428802 -0.473367 25,675 21 395 1792
2022-01-11 17:09:27 GMT 38.428802 -0.473367 25,600 21 394 1728
2022-01-11 17:09:24 GMT 38.425369 -0.475099 25,575 21 393 1728
2022-01-11 17:09:21 GMT 38.416908 -0.479309 25,425 21 392 1920
2022-01-11 17:09:17 GMT 38.411911 -0.481821 25,150 21 389 1920
2022-01-11 17:09:14 GMT 38.406994 -0.484294 25,225 21 390 1920
2022-01-11 17:09:10 GMT 38.400787 -0.487372 25,100 21 389 1920
2022-01-11 17:09:06 GMT 38.393188 -0.491112 24,875 21 386 1984
2022-01-11 17:09:03 GMT 38.389938 -0.492749 24,900 21 387 1920
2022-01-11 17:09:00 GMT 38.382507 -0.496475 24,750 21 386 1920
2022-01-11 17:08:57 GMT 38.378632 -0.498359 24,650 21 385 1984
2022-01-11 17:08:54 GMT 38.373917 -0.500696 24,575 21 384 1984
2022-01-11 17:08:50 GMT 38.366306 -0.504535 24,425 21 383 2048
2022-01-11 17:08:45 GMT 38.359360 -0.507942 24,200 21 382 2112
2022-01-11 17:08:42 GMT 38.355042 -0.510088 24,200 21 382 2112
2022-01-11 17:08:39 GMT 38.348877 -0.513202 24,050 21 381 2112
2022-01-11 17:08:36 GMT 38.344116 -0.515539 23,925 21 379 2112
2022-01-11 17:08:33 GMT 38.340050 -0.517552 23,875 21 379 2048
2022-01-11 17:08:30 GMT 38.332836 -0.521134 23,650 21 378 1984
2022-01-11 17:08:26 GMT 38.327637 -0.523721 23,625 21 376 1984
2022-01-11 17:08:23 GMT 38.322872 -0.526090 23,525 21 375 2048
2022-01-11 17:08:20 GMT 38.317612 -0.528657 23,350 21 374 2048
2022-01-11 17:08:16 GMT 38.311188 -0.531882 23,250 21 372 1920
2022-01-11 17:08:13 GMT 38.306900 -0.534006 23,200 21 372 1856
2022-01-11 17:08:06 GMT 38.295547 -0.539644 22,975 21 369 1920
2022-01-11 17:08:03 GMT 38.290752 -0.542032 22,875 21 368 2048
2022-01-11 17:07:58 GMT 38.283863 -0.545435 22,725 21 366 2176
2022-01-11 17:07:54 GMT 38.267662 -0.553556 22,450 21 365 2176
2022-01-11 17:07:49 GMT 38.267662 -0.553556 22,275 21 362 2176
2022-01-11 17:07:45 GMT 38.262260 -0.556183 22,050 21 360 2240
2022-01-11 17:07:42 GMT 38.258537 -0.558094 22,025 21 360 2176
2022-01-11 17:07:38 GMT 38.251369 -0.561616 21,975 21 360 2176
2022-01-11 17:07:33 GMT 38.244293 -0.565139 21,800 21 358 2240
2022-01-11 17:07:30 GMT 38.238464 -0.568075 21,650 21 356 2240
2022-01-11 17:07:28 GMT 38.236954 -0.568835 21,575 21 356 2240
2022-01-11 17:07:26 GMT 38.232235 -0.571170 21,500 21 356 2240
2022-01-11 17:07:22 GMT 38.227112 -0.573685 21,200 21 353 2304
2022-01-11 17:07:18 GMT 38.220612 -0.576899 21,200 21 353 2304
2022-01-11 17:07:13 GMT 38.213974 -0.580172 21,050 21 352 2368
2022-01-11 17:07:10 GMT 38.208729 -0.582813 20,900 21 350 2432
2022-01-11 17:07:08 GMT 38.205933 -0.584126 20,800 21 350 2432
2022-01-11 17:07:06 GMT 38.200928 -0.586600 20,700 21 349 2496
2022-01-11 17:07:03 GMT 38.198730 -0.587710 20,625 21 349 2496
2022-01-11 17:07:00 GMT 38.193176 -0.590396 20,475 21 348 2496
2022-01-11 17:06:58 GMT 38.189453 -0.592247 20,375 21 347 2496
2022-01-11 17:06:53 GMT 38.183308 -0.595232 20,200 21 345 2496
2022-01-11 17:06:50 GMT 38.178143 -0.597740 20,050 21 345 2560
2022-01-11 17:06:46 GMT 38.169670 -0.601860 19,625 20 342 2624
2022-01-11 17:06:43 GMT 38.168793 -0.602320 19,775 20 343 2624
2022-01-11 17:06:40 GMT 38.163528 -0.604832 19,625 20 342 2624
2022-01-11 17:06:37 GMT 38.153332 -0.609741 19,425 20 341 2688
2022-01-11 17:06:33 GMT 38.153332 -0.609741 19,325 20 341 2688
2022-01-11 17:06:30 GMT 38.148972 -0.611845 19,200 20 339 2688
2022-01-11 17:06:28 GMT 38.146454 -0.613072 19,125 20 339 2752
2022-01-11 17:06:26 GMT 38.143478 -0.614475 18,900 21 338 2816
2022-01-11 17:06:23 GMT 38.138760 -0.616727 18,875 22 338 2880
2022-01-11 17:06:20 GMT 38.134323 -0.619150 18,725 24 338 3008
2022-01-11 17:06:17 GMT 38.131264 -0.620966 18,600 27 338 3072
2022-01-11 17:06:15 GMT 38.127121 -0.623653 18,175 33 341 3072
2022-01-11 17:06:10 GMT 38.119347 -0.629505 18,150 34 340 3136
2022-01-11 17:06:06 GMT 38.114410 -0.633863 17,950 37 341 3200
2022-01-11 17:06:03 GMT 38.111206 -0.636973 17,825 39 342 3264
2022-01-11 17:06:00 GMT 38.100677 -0.649537 17,350 48 345 2880
2022-01-11 17:05:55 GMT 38.100677 -0.649537 17,100 49 346 2880
2022-01-11 17:05:50 GMT 38.097198 -0.654855 17,150 52 346 3264
2022-01-11 17:05:47 GMT 38.094860 -0.658702 17,050 54 347 3520
2022-01-11 17:05:44 GMT 38.091064 -0.665491 16,800 54 348 3136
2022-01-11 17:05:40 GMT 38.087692 -0.671539 16,600 54 348 3328
2022-01-11 17:05:34 GMT 38.082413 -0.681035 16,300 54 348 3072
2022-01-11 17:05:30 GMT 38.078239 -0.688556 16,050 54 347 3200
2022-01-11 17:05:25 GMT 38.072479 -0.698917 15,725 54 345 3136
2022-01-11 17:05:20 GMT 38.068745 -0.705633 15,525 54 345 3072
2022-01-11 17:05:15 GMT 38.064182 -0.713753 15,225 54 342 2944
2022-01-11 17:05:12 GMT 38.061527 -0.718530 15,150 54 342 2816
2022-01-11 17:05:09 GMT 38.059250 -0.722585 15,025 54 342 2688
2022-01-11 17:05:04 GMT 38.053345 -0.733104 14,775 54 336 2112
2022-01-11 17:04:59 GMT 38.050095 -0.738947 14,550 54 330 2752
2022-01-11 17:04:54 GMT 38.044830 -0.748414 14,400 54 330 2752
2022-01-11 17:04:49 GMT 38.041077 -0.755135 14,200 54 328 3008
2022-01-11 17:04:44 GMT 38.036133 -0.763959 13,900 54 326 3008
2022-01-11 17:04:41 GMT 38.034016 -0.767789 13,300 54 324 3008
2022-01-11 17:04:38 GMT 38.031921 -0.771491 13,650 54 324 3008
2022-01-11 17:04:34 GMT 38.027920 -0.778716 13,350 54 322 3136
2022-01-11 17:04:31 GMT 38.025406 -0.783194 13,275 54 321 3200
2022-01-11 17:04:28 GMT 38.023041 -0.787451 13,125 55 320 3200
2022-01-11 17:04:24 GMT 38.019058 -0.794639 12,825 55 316 3264
2022-01-11 17:04:21 GMT 38.017044 -0.798262 12,675 55 316 3264
2022-01-11 17:04:18 GMT 38.014603 -0.802659 12,600 55 316 3264
2022-01-11 17:04:11 GMT 38.008320 -0.814003 12,125 54 316 4160
2022-01-11 17:04:08 GMT 38.006287 -0.817722 11,975 54 316 3968
2022-01-11 17:04:03 GMT 38.001850 -0.825706 11,625 54 316 3072
2022-01-11 17:03:58 GMT 37.997589 -0.833383 11,425 54 315 2432
2022-01-11 17:03:54 GMT 37.993378 -0.840932 11,250 54 310 1344
2022-01-11 17:03:48 GMT 37.989094 -0.848754 11,150 55 305 1024
2022-01-11 17:03:43 GMT 37.985043 -0.856038 11,075 54 301 896
2022-01-11 17:03:38 GMT 37.980927 -0.863479 11,025 55 297 192
2022-01-11 17:03:33 GMT 37.976990 -0.870608 11,000 55 292 384
2022-01-11 17:03:30 GMT 37.975128 -0.873950 10,975 54 290 576
2022-01-11 17:03:27 GMT 37.972733 -0.878205 10,950 54 287 960
2022-01-11 17:03:23 GMT 37.969402 -0.884220 10,850 54 279 1408
2022-01-11 17:03:20 GMT 37.967400 -0.887803 10,800 54 275 1408
2022-01-11 17:03:17 GMT 37.965271 -0.891587 10,725 54 273 1408
2022-01-11 17:03:13 GMT 37.961906 -0.897595 10,625 54 266 1408
2022-01-11 17:03:09 GMT 37.959824 -0.901288 10,550 54 261 1408
2022-01-11 17:03:04 GMT 37.956509 -0.907148 10,425 54 254 1344
2022-01-11 17:03:02 GMT 37.954365 -0.910910 10,375 54 250 1344
2022-01-11 17:02:57 GMT 37.951035 -0.916774 10,250 54 243 1280
2022-01-11 17:02:52 GMT 37.948242 -0.921741 10,175 54 235 1024
2022-01-11 17:02:50 GMT 37.946457 -0.924897 10,125 54 232 1024
2022-01-11 17:02:45 GMT 37.943752 -0.929718 10,050 54 224 1216
2022-01-11 17:02:42 GMT 37.941559 -0.933604 9,975 54 220 1344
2022-01-11 17:02:39 GMT 37.940166 -0.936107 9,900 54 216 2368
2022-01-11 17:02:36 GMT 37.938400 -0.939214 9,800 54 216 2368
2022-01-11 17:02:32 GMT 37.935467 -0.944466 9,575 54 214 2688
2022-01-11 17:02:29 GMT 37.934372 -0.946460 9,500 54 213 2624
2022-01-11 17:02:26 GMT 37.932579 -0.949661 9,275 55 211 2880
2022-01-11 17:02:22 GMT 37.930298 -0.953707 9,125 55 211 2880
2022-01-11 17:02:19 GMT 37.928715 -0.956587 9,050 55 211 3072
2022-01-11 17:02:16 GMT 37.926773 -0.960077 8,850 55 211 3392
2022-01-11 17:02:12 GMT 37.924011 -0.965125 8,575 55 211 3328
2022-01-11 17:02:09 GMT 37.923157 -0.966622 8,500 55 211 3264
2022-01-11 17:02:05 GMT 37.920940 -0.970618 8,025 55 212 3200
2022-01-11 17:02:02 GMT 37.918671 -0.974803 8,025 55 212 3264
2022-01-11 17:01:59 GMT 37.917171 -0.977485 7,925 55 212 3328
2022-01-11 17:01:55 GMT 37.915237 -0.981056 7,725 55 213 3328
2022-01-11 17:01:49 GMT 37.911583 -0.987575 7,400 54 214 2816
2022-01-11 17:01:45 GMT 37.909630 -0.991158 7,250 53 213 2624
2022-01-11 17:01:42 GMT 37.907440 -0.994919 7,000 50 211 2688
2022-01-11 17:01:39 GMT 37.905670 -0.997666 6,950 49 210 2752
2022-01-11 17:01:35 GMT 37.903336 -1.001158 6,775 46 210 2816
2022-01-11 17:01:32 GMT 37.900955 -1.004256 6,600 44 209 2816
2022-01-11 17:01:28 GMT 37.898849 -1.006827 6,450 42 208 2752
2022-01-11 17:01:25 GMT 37.896103 -1.010041 6,275 42 208 2752
2022-01-11 17:01:21 GMT 37.892590 -1.014026 6,050 42 205 2880
2022-01-11 17:01:18 GMT 37.891521 -1.015220 5,925 42 205 2816
2022-01-11 17:01:15 GMT 37.889008 -1.018164 5,825 42 205 2816
2022-01-11 17:01:11 GMT 37.885979 -1.021609 5,600 42 205 2880
2022-01-11 17:01:08 GMT 37.884521 -1.023306 5,525 42 205 2880
2022-01-11 17:01:04 GMT 37.881546 -1.026754 5,300 43 205 2816
2022-01-11 17:01:01 GMT 37.879211 -1.029501 5,075 42 204 2816
2022-01-11 17:00:58 GMT 37.877426 -1.031605 5,025 42 204 2880
2022-01-11 17:00:54 GMT 37.874435 -1.035103 4,825 42 203 3136
2022-01-11 17:00:51 GMT 37.872341 -1.037551 4,650 42 204 3264
2022-01-11 17:00:48 GMT 37.870331 -1.039844 4,500 42 204 3264
2022-01-11 17:00:41 GMT 37.865402 -1.045552 4,100 42 205 3264
2022-01-11 17:00:38 GMT 37.863144 -1.048142 3,925 42 205 3264
2022-01-11 17:00:34 GMT 37.860306 -1.051415 3,725 42 205 3264
2022-01-11 17:00:30 GMT 37.856873 -1.055330 3,450 42 206 3456
2022-01-11 17:00:27 GMT 37.855862 -1.056479 3,375 42 208 3520
2022-01-11 17:00:23 GMT 37.853073 -1.059772 3,150 42 209 3072
2022-01-11 17:00:17 GMT 37.848724 -1.064856 2,850 42 208 2816
2022-01-11 17:00:13 GMT 37.845711 -1.068361 2,675 42 208 2304
2022-01-11 17:00:07 GMT 37.841492 -1.073271 2,475 42 203 1664
2022-01-11 17:00:02 GMT 37.838333 -1.076952 2,350 43 198 1408
2022-01-11 16:59:57 GMT 37.834671 -1.081335 2,225 43 192 1280
2022-01-11 16:59:52 GMT 37.831886 -1.084721 2,150 44 185 832
2022-01-11 16:59:47 GMT 37.828487 -1.089020 2,100 46 174 832
2022-01-11 16:59:42 GMT 37.825928 -1.092497 2,025 47 168 1216
2022-01-11 16:59:37 GMT 37.823040 -1.096483 1,875 48 161 1856
2022-01-11 16:59:31 GMT 37.820618 -1.100035 1,675 48 158 2496
2022-01-11 16:59:27 GMT 37.818237 -1.103425 1,450 49 158 2944
2022-01-11 16:59:16 GMT 37.813313 -1.110754 950 49 161 2880
2022-01-11 16:59:06 GMT 37.808167 -1.118093 525 46 160 1984
2022-01-11 16:58:57 GMT 37.803768 -1.123889 325 45 149 192
2022-01-11 16:58:47 GMT 37.799149 -1.129839 350 45 113 0
2022-01-11 16:58:43 GMT 37.797939 -1.131398 0 45 100 0
2022-01-11 16:58:35 GMT 37.795750 -1.134222 0 45 57
2022-01-11 16:58:26 GMT 37.794617 -1.135697 0 45 21
2022-01-11 16:58:17 GMT 37.794189 -1.136488 0 92 16
2022-01-11 16:58:07 GMT 37.794628 -1.137333 0 137 16
2022-01-11 16:57:56 GMT 37.795181 -1.137787 0 185 12
2022-01-11 16:57:45 GMT 37.795670 -1.137428 0 225 15
2022-01-11 16:57:35 GMT 37.796162 -1.136793 0 227 15
2022-01-11 16:57:17 GMT 37.797066 -1.135637 0 227 14
2022-01-11 16:57:14 GMT 37.797134 -1.135551 0 227 14
2022-01-11 16:57:05 GMT 37.797535 -1.135025 0 227 14
2022-01-11 16:56:55 GMT 37.797993 -1.134441 0 225 15
2022-01-11 16:56:44 GMT 37.798519 -1.133769 0 227 15
2022-01-11 16:56:35 GMT 37.798977 -1.133184 0 227 16
2022-01-11 16:56:23 GMT 37.799545 -1.132443 0 227 17
2022-01-11 16:56:13 GMT 37.800091 -1.131771 0 227 15
2022-01-11 16:56:03 GMT 37.800499 -1.131227 0 225 13
2022-01-11 16:55:53 GMT 37.800968 -1.130817 0 177 12
2022-01-11 16:55:44 GMT 37.801476 -1.131159 0 135 13
2022-01-11 16:55:33 GMT 37.801929 -1.131577 0 180 12
2022-01-11 16:55:22 GMT 37.802395 -1.131293 0 225 12
2022-01-11 16:55:12 GMT 37.802757 -1.130831 0 227 12
2022-01-11 16:55:02 GMT 37.803120 -1.130365 0 225 10
2022-01-11 16:54:52 GMT 37.803394 -1.130010 0 225 7
2022-01-11 16:54:41 GMT 37.803593 -1.129741 0 225 5
2022-01-11 16:52:02 GMT 37.803722 -1.129606 0 225 2
2022-01-11 16:51:59 GMT 37.803711 -1.129621 0 222 2
2022-01-11 16:51:48 GMT 37.803658 -1.129678 0 225 2
2022-01-11 16:51:38 GMT 37.803646 -1.129795 0 247 2
2022-01-11 16:51:28 GMT 37.803654 -1.129905 0 267 3
2022-01-11 16:51:18 GMT 37.803715 -1.130029 0 295 3
2022-01-11 16:51:07 GMT 37.803818 -1.130131 0 315 3
2022-01-11 16:50:58 GMT 37.803909 -1.130248 0 315 3

Making use of Plane Finder data

You are free to use the raw flight data, aircraft information and images provided in this report for your own purposes provided the data is correctly attributed to Plane Finder. We ask that you please credit Plane Finder and link to planefinder.net in close proximity to the content.

Optionally one of the following logos (no smaller then 150x24px) can be used and must link to planefinder.net

Embedding the Plane Finder map

You are welcome to embed the Plane Finder playback map on your website to offer visitors a more interactive experience. We suggest using the following HTML code:

<iframe src="//planefinder.net/data/report/FR2155-EI-DYX-7700-squawk-2022-01-11/map" width="800" height="600" seamless="seamless"></iframe>

Where our data comes from

Plane Finder has a global network of data feeds and antenna radars that receive data broadcast directly from aircraft. The primary technologies used are ADS-B and MLAT. We also show feeds from the FAA and a FLARM glider feed.

Click here to find out more about the Plane Finder network.

How we collect our data